Provisional Data: Portage Creek near Emporium, PA


Please select a monitoring station.
Please select start date.
Please select start date.

Toggle Unit: C/F Toggle Unit: C/F
Sample Time Temperature (C) Temperature (F) Specific Conductivity (mS/cm) pH   Turbidity (NTU+) DO (mg/L)
12/23/2022 12:00:00 AM 1.33 34.394 0.07 7.08 3.03 13.56
12/23/2022 12:15:00 AM 1.35 34.43 0.07 7.11 3.13 13.55
12/23/2022 12:30:00 AM 1.36 34.448 0.069 7.12 3.23 13.53
12/23/2022 12:45:00 AM 1.38 34.484 0.069 7 3.34 13.52
12/23/2022 1:00:00 AM 1.4 34.52 0.069 7.12 3.36 13.5
12/23/2022 1:15:00 AM 1.42 34.556 0.07 7.11 3.55 13.49
12/23/2022 1:30:00 AM 1.44 34.592 0.07 7.1 4.32 13.47
12/23/2022 1:45:00 AM 1.45 34.61 0.071 7.1 3.79 13.45
12/23/2022 2:00:00 AM 1.47 34.646 0.072 7 3.93 13.44
12/23/2022 2:15:00 AM 1.49 34.682 0.072 7.02 4.21 13.42
12/23/2022 2:30:00 AM 1.51 34.718 0.072 7.11 4.05 13.4
12/23/2022 2:45:00 AM 1.53 34.754 0.072 7.11 4.75 13.39
12/23/2022 3:00:00 AM 1.55 34.79 0.071 7.01 4.63 13.38
12/23/2022 3:15:00 AM 1.56 34.808 0.071 7.08 4.71 13.36
12/23/2022 3:30:00 AM 1.57 34.826 0.071 7.07 5.04 13.35
12/23/2022 3:45:00 AM 1.58 34.844 0.072 7.09 5.25 13.35
12/23/2022 4:00:00 AM 1.59 34.862 0.073 6.98 5.22 13.34
12/23/2022 4:15:00 AM 1.59 34.862 0.074 7.1 6.13 13.33
12/23/2022 4:30:00 AM 1.6 34.88 0.074 7 5.87 13.33
12/23/2022 4:45:00 AM 1.61 34.898 0.074 7.06 6.63 13.32
12/23/2022 5:00:00 AM 1.62 34.916 0.073 7.08 7.05 13.31
12/23/2022 5:15:00 AM 1.63 34.934 0.073 7.04 6.96 13.3
12/23/2022 5:30:00 AM 1.64 34.952 0.073 7.08 7.56 13.29
12/23/2022 5:45:00 AM 1.66 34.988 0.073 7.08 8.95 13.28
12/23/2022 6:00:00 AM 1.68 35.024 0.073 7.02 9.35 13.27
12/23/2022 6:15:00 AM 1.69 35.042 0.074 6.95 8.72 13.26
12/23/2022 6:30:00 AM 1.71 35.078 0.073 7.07 9.11 13.25
12/23/2022 6:45:00 AM 1.72 35.096 0.073 7.06 9.21 13.24
12/23/2022 7:00:00 AM 1.73 35.114 0.073 7.03 9.07 13.23
12/23/2022 7:15:00 AM 1.74 35.132 0.072 7.05 9.45 13.22
12/23/2022 7:30:00 AM 1.75 35.15 0.071 7.03 10.31 13.22
12/23/2022 7:45:00 AM 1.76 35.168 0.07 6.95 9.54 13.21
12/23/2022 8:00:00 AM 1.78 35.204 0.069 7.04 9.42 13.2
12/23/2022 8:15:00 AM 1.79 35.222 0.068 7.02 9.65 13.21
12/23/2022 8:30:00 AM 1.79 35.222 0.067 7.04 10.79 13.21
12/23/2022 8:45:00 AM 1.77 35.186 0.067 7.02 10.5 13.22
12/23/2022 9:00:00 AM 1.75 35.15 0.066 6.9 10.1 13.25
12/23/2022 9:15:00 AM 1.75 35.15 0.066 6.99 11.2 13.29
12/23/2022 9:30:00 AM 1.72 35.096 0.066 7.06 10.89 13.32
12/23/2022 9:45:00 AM 1.68 35.024 0.065 7.04 10.3 13.37
12/23/2022 10:00:00 AM 1.64 34.952 0.065 7.04 10.78 13.4
12/23/2022 10:15:00 AM 1.6 34.88 0.065 6.98 11.04 13.44
12/23/2022 10:30:00 AM 1.55 34.79 0.065 7.03 10.64 13.48
12/23/2022 10:45:00 AM 1.49 34.682 0.064 7.07 10.94 13.53
12/23/2022 11:00:00 AM 1.42 34.556 0.064 7.07 10.12 13.56
12/23/2022 11:15:00 AM 1.38 34.484 0.064 7.01 10.65 13.59
12/23/2022 11:30:00 AM 1.32 34.376 0.063 7.08 10.08 13.64
12/23/2022 11:45:00 AM 1.27 34.286 0.063 7.07 10.33 13.69
12/23/2022 12:00:00 PM 1.22 34.196 0.063 6.96 10.19 13.72
12/23/2022 12:15:00 PM 1.15 34.07 0.063 7.03 10.34 13.77
12/23/2022 12:30:00 PM 1.07 33.926 0.063 7.09 10.93 13.8
12/23/2022 12:45:00 PM 1.02 33.836 0.063 6.99 10.44 13.83
12/23/2022 1:00:00 PM 0.96 33.728 0.063 7.11 10.94 13.87
12/23/2022 1:15:00 PM 0.92 33.656 0.063 7.1 10.32 13.9
12/23/2022 1:30:00 PM 0.85 33.53 0.063 7.09 11.06 13.93
12/23/2022 1:45:00 PM 0.79 33.422 0.063 7.1 10.87 13.97
12/23/2022 2:00:00 PM 0.71 33.278 0.062 7.08 10.74 13.98
12/23/2022 2:15:00 PM 0.65 33.17 0.062 7.09 10.52 14
12/23/2022 2:30:00 PM 0.59 33.062 0.061 6.96 10.54 14.03
12/23/2022 2:45:00 PM 0.52 32.936 0.061 7.08 9.76 14.05
12/23/2022 3:00:00 PM 0.47 32.846 0.061 7 10.93 14.05
12/23/2022 3:15:00 PM 0.39 32.702 0.061 7.04 10.05 14.05
12/23/2022 3:30:00 PM 0.34 32.612 0.061 7.05 9.23 14.05
12/23/2022 3:45:00 PM 0.27 32.486 0.06 6.98 9.98 14.05
12/23/2022 4:00:00 PM 0.18 32.324 0.06 6.98 9.53 14.06
12/23/2022 4:15:00 PM 0.08 32.144 0.06 7.03 9.5 14.07
12/23/2022 4:30:00 PM -0.01 31.982 0.06 6.92 9.02 14.08
12/23/2022 4:45:00 PM -0.07 31.874 0.06 7.01 9.34 14.08
12/23/2022 5:00:00 PM -0.13 31.766 0.059 7.01 9.67 14.08
12/23/2022 5:15:00 PM -0.13 31.766 0.059 6.96 9.67 14.1
12/23/2022 5:30:00 PM -0.13 31.766 0.059 6.95 9.09 14.1
12/23/2022 5:45:00 PM -0.13 31.766 0.059 6.97 9.04 14.1
12/23/2022 6:00:00 PM -0.12 31.784 0.059 6.87 8.7 14.09
12/23/2022 6:15:00 PM -0.12 31.784 0.059 6.92 8 14.09
12/23/2022 6:30:00 PM -0.12 31.784 0.058 6.99 7.66 14.07
12/23/2022 6:45:00 PM -0.12 31.784 0.058 6.87 7.26 14.08
12/23/2022 7:00:00 PM -0.12 31.784 0.058 6.98 7.39 14.07
12/23/2022 7:15:00 PM -0.12 31.784 0.058 6.85 6.98 14.06
12/23/2022 7:30:00 PM -0.12 31.784 0.058 6.97 6.86 14.05
12/23/2022 7:45:00 PM -0.12 31.784 0.058 6.99 6.55 14.04
12/23/2022 8:00:00 PM -0.12 31.784 0.058 6.86 6.8 14.05
12/23/2022 8:15:00 PM -0.12 31.784 0.058 6.98 7.05 14.04
12/23/2022 8:30:00 PM -0.12 31.784 0.058 6.95 6.5 14.03
12/23/2022 8:45:00 PM -0.12 31.784 0.058 6.98 6.64 14.03
12/23/2022 9:00:00 PM -0.12 31.784 0.058 6.91 6.4 14.03
12/23/2022 9:15:00 PM -0.12 31.784 0.058 6.96 6.46 14.02
12/23/2022 9:30:00 PM -0.12 31.784 0.058 6.96 6.39 14.02
12/23/2022 9:45:00 PM -0.12 31.784 0.058 6.96 6.35 14.02
12/23/2022 10:00:00 PM -0.12 31.784 0.058 6.97 6.37 14.02
12/23/2022 10:15:00 PM -0.12 31.784 0.058 6.95 6.3 14.02
12/23/2022 10:30:00 PM -0.12 31.784 0.058 6.95 6.15 14.03
12/23/2022 10:45:00 PM -0.12 31.784 0.058 6.93 6.26 14.04
12/23/2022 11:00:00 PM -0.12 31.784 0.058 6.94 6.06 14.05
12/23/2022 11:15:00 PM -0.12 31.784 0.058 6.98 6.02 14.06
12/23/2022 11:30:00 PM -0.12 31.784 0.058 6.81 6.24 14.06
12/23/2022 11:45:00 PM -0.12 31.784 0.059 6.98 6.37 14.07
12/24/2022 12:00:00 AM -0.12 31.784 0.059 6.91 6.13 14.07
12/24/2022 12:15:00 AM -0.12 31.784 0.058 6.96 6.27 14.08
12/24/2022 12:30:00 AM -0.12 31.784 0.058 6.97 6.07 14.07
12/24/2022 12:45:00 AM -0.12 31.784 0.058 6.98 6.17 14.07
12/24/2022 1:00:00 AM -0.12 31.784 0.059 6.98 6.09 14.07
12/24/2022 1:15:00 AM -0.12 31.784 0.059 6.98 6.12 14.09
12/24/2022 1:30:00 AM -0.12 31.784 0.058 6.96 6.14 14.09
12/24/2022 1:45:00 AM -0.12 31.784 0.059 6.83 6.12 14.1
12/24/2022 2:00:00 AM -0.12 31.784 0.059 6.98 5.96 14.1
12/24/2022 2:15:00 AM -0.11 31.802 0.059 6.99 6.03 14.11
12/24/2022 2:30:00 AM -0.11 31.802 0.059 6.98 5.91 14.1
12/24/2022 2:45:00 AM -0.11 31.802 0.059 6.88 6.02 14.1
12/24/2022 3:00:00 AM -0.11 31.802 0.059 6.99 6.06 14.08
12/24/2022 3:15:00 AM -0.11 31.802 0.059 6.96 5.91 14.08
12/24/2022 3:30:00 AM -0.11 31.802 0.059 6.88 6.07 14.08
12/24/2022 3:45:00 AM -0.11 31.802 0.059 6.98 5.95 14.08
12/24/2022 4:00:00 AM -0.11 31.802 0.059 6.9 6.07 14.09
12/24/2022 4:15:00 AM -0.11 31.802 0.06 6.9 6.01 14.1
12/24/2022 4:30:00 AM -0.11 31.802 0.06 6.98 5.95 14.1
12/24/2022 4:45:00 AM -0.11 31.802 0.06 6.86 5.98 14.1
12/24/2022 5:00:00 AM -0.11 31.802 0.06 6.97 5.99 14.1
12/24/2022 5:15:00 AM -0.11 31.802 0.06 6.99 5.98 14.1
12/24/2022 5:30:00 AM -0.11 31.802 0.06 6.96 5.95 14.1
12/24/2022 5:45:00 AM -0.11 31.802 0.06 6.86 5.87 14.11
12/24/2022 6:00:00 AM -0.11 31.802 0.06 6.98 5.9 14.1
12/24/2022 6:15:00 AM -0.11 31.802 0.06 6.99 5.84 14.1
12/24/2022 6:30:00 AM -0.11 31.802 0.06 6.92 5.83 14.1
12/24/2022 6:45:00 AM -0.11 31.802 0.06 6.96 5.79 14.09
12/24/2022 7:00:00 AM -0.11 31.802 0.059 6.93 5.65 14.1
12/24/2022 7:15:00 AM -0.11 31.802 0.06 6.98 5.73 14.1
12/24/2022 7:30:00 AM -0.11 31.802 0.059 6.97 5.6 14.1
12/24/2022 7:45:00 AM -0.11 31.802 0.059 6.96 5.52 14.1
12/24/2022 8:00:00 AM -0.11 31.802 0.059 6.96 5.59 14.1
12/24/2022 8:15:00 AM -0.11 31.802 0.059 6.96 5.51 14.1
12/24/2022 8:30:00 AM -0.11 31.802 0.06 6.94 5.55 14.11
12/24/2022 8:45:00 AM -0.11 31.802 0.059 6.85 5.57 14.11
12/24/2022 9:00:00 AM -0.11 31.802 0.059 6.94 5.53 14.11
12/24/2022 9:15:00 AM -0.11 31.802 0.059 6.97 5.44 14.1
12/24/2022 9:30:00 AM -0.11 31.802 0.059 6.94 5.46 14.11
12/24/2022 9:45:00 AM -0.11 31.802 0.059 6.96 5.38 14.11
12/24/2022 10:00:00 AM -0.11 31.802 0.059 6.94 5.34 14.11
12/24/2022 10:15:00 AM -0.11 31.802 0.059 6.94 5.34 14.12
12/24/2022 10:30:00 AM -0.11 31.802 0.059 6.85 5.4 14.11
12/24/2022 10:45:00 AM -0.11 31.802 0.059 6.97 5.33 14.1
12/24/2022 11:00:00 AM -0.11 31.802 0.059 6.96 5.26 14.11
12/24/2022 11:15:00 AM -0.11 31.802 0.059 6.95 5.44 14.12
12/24/2022 11:30:00 AM -0.11 31.802 0.059 6.96 5.27 14.12
12/24/2022 11:45:00 AM -0.11 31.802 0.059 6.93 5.2 14.12
12/24/2022 12:00:00 PM -0.11 31.802 0.059 6.85 5.24 14.14
12/24/2022 12:15:00 PM -0.11 31.802 0.059 6.89 5.23 14.15
12/24/2022 12:30:00 PM -0.11 31.802 0.059 6.97 5 14.15
12/24/2022 12:45:00 PM -0.11 31.802 0.058 6.8 5.08 14.17
12/24/2022 1:00:00 PM -0.11 31.802 0.059 6.97 5.11 14.15
12/24/2022 1:15:00 PM -0.1 31.82 0.058 6.97 5.01 14.16
12/24/2022 1:30:00 PM -0.1 31.82 0.058 6.94 4.9 14.18
12/24/2022 1:45:00 PM -0.1 31.82 0.058 6.83 5.05 14.17
12/24/2022 2:00:00 PM -0.1 31.82 0.058 6.91 5.06 14.16
12/24/2022 2:15:00 PM -0.1 31.82 0.058 6.95 5.05 14.17
12/24/2022 2:30:00 PM -0.1 31.82 0.058 6.81 4.93 14.17
12/24/2022 2:45:00 PM -0.1 31.82 0.058 6.96 4.81 14.17
12/24/2022 3:00:00 PM -0.1 31.82 0.058 6.94 4.88 14.16
12/24/2022 3:15:00 PM -0.1 31.82 0.058 6.95 4.91 14.16
12/24/2022 3:30:00 PM -0.1 31.82 0.058 6.95 4.77 14.17
12/24/2022 3:45:00 PM -0.1 31.82 0.057 6.94 4.74 14.17
12/24/2022 4:00:00 PM -0.1 31.82 0.057 6.92 4.82 14.17
12/24/2022 4:15:00 PM -0.1 31.82 0.057 6.95 4.83 14.18
12/24/2022 4:30:00 PM -0.1 31.82 0.057 6.81 4.71 14.2
12/24/2022 4:45:00 PM -0.1 31.82 0.057 6.97 4.68 14.21
12/24/2022 5:00:00 PM -0.1 31.82 0.057 6.97 4.59 14.21
12/24/2022 5:15:00 PM -0.1 31.82 0.056 6.94 4.51 14.22
12/24/2022 5:30:00 PM -0.1 31.82 0.057 6.96 4.5 14.21
12/24/2022 5:45:00 PM -0.1 31.82 0.057 6.81 4.42 14.21
12/24/2022 6:00:00 PM -0.1 31.82 0.056 6.95 4.41 14.22
12/24/2022 6:15:00 PM -0.1 31.82 0.056 6.94 4.42 14.22
12/24/2022 6:30:00 PM -0.1 31.82 0.055 6.92 4.52 14.23
12/24/2022 6:45:00 PM -0.1 31.82 0.056 6.9 4.49 14.22
12/24/2022 7:00:00 PM -0.1 31.82 0.056 6.87 4.53 14.22
12/24/2022 7:15:00 PM -0.1 31.82 0.056 6.93 4.37 14.21
12/24/2022 7:30:00 PM -0.1 31.82 0.055 6.81 4.43 14.21
12/24/2022 7:45:00 PM -0.1 31.82 0.055 6.93 4.4 14.21
12/24/2022 8:00:00 PM -0.1 31.82 0.055 6.93 4.37 14.21
12/24/2022 8:15:00 PM -0.1 31.82 0.055 6.92 4.17 14.21
12/24/2022 8:30:00 PM -0.1 31.82 0.055 6.89 4.22 14.22
12/24/2022 8:45:00 PM -0.1 31.82 0.055 6.94 4.29 14.21
12/24/2022 9:00:00 PM -0.1 31.82 0.055 6.9 4.22 14.21
12/24/2022 9:15:00 PM -0.1 31.82 0.055 6.9 4.22 14.21
12/24/2022 9:30:00 PM -0.1 31.82 0.055 6.9 4.2 14.23
12/24/2022 9:45:00 PM -0.1 31.82 0.055 6.81 4.19 14.23
12/24/2022 10:00:00 PM -0.1 31.82 0.055 6.93 4.11 14.24
12/24/2022 10:15:00 PM -0.1 31.82 0.054 6.93 4.17 14.24
12/24/2022 10:30:00 PM -0.1 31.82 0.055 6.87 4.24 14.24
12/24/2022 10:45:00 PM -0.1 31.82 0.055 6.85 4.13 14.25
12/24/2022 11:00:00 PM -0.1 31.82 0.055 6.81 4.09 14.25
12/24/2022 11:15:00 PM -0.1 31.82 0.055 6.86 4.15 14.25
12/24/2022 11:30:00 PM -0.1 31.82 0.055 6.93 4.12 14.27
12/24/2022 11:45:00 PM -0.1 31.82 0.055 6.85 4.09 14.27
12/25/2022 12:00:00 AM -0.1 31.82 0.054 6.85 4.1 14.28
12/25/2022 12:15:00 AM -0.1 31.82 0.055 6.91 4.02 14.28
12/25/2022 12:30:00 AM -0.1 31.82 0.055 6.78 4.02 14.28
12/25/2022 12:45:00 AM -0.1 31.82 0.055 6.91 4.02 14.28
12/25/2022 1:00:00 AM -0.1 31.82 0.055 6.9 3.99 14.28
12/25/2022 1:15:00 AM -0.1 31.82 0.055 6.88 4.03 14.29
12/25/2022 1:30:00 AM -0.1 31.82 0.055 6.9 4.02 14.29
12/25/2022 1:45:00 AM -0.1 31.82 0.055 6.77 4.02 14.3
12/25/2022 2:00:00 AM -0.1 31.82 0.055 6.93 3.95 14.32
12/25/2022 2:15:00 AM -0.1 31.82 0.055 6.88 3.96 14.3
12/25/2022 2:30:00 AM -0.1 31.82 0.055 6.89 3.93 14.3
12/25/2022 2:45:00 AM -0.1 31.82 0.055 6.9 3.85 14.3
12/25/2022 3:00:00 AM -0.1 31.82 0.055 6.92 3.85 14.3
12/25/2022 3:15:00 AM -0.1 31.82 0.055 6.91 3.85 14.29
12/25/2022 3:30:00 AM -0.1 31.82 0.055 6.74 3.9 14.29
12/25/2022 3:45:00 AM -0.1 31.82 0.054 6.85 3.86 14.29
12/25/2022 4:00:00 AM -0.1 31.82 0.055 6.83 3.84 14.28
12/25/2022 4:15:00 AM -0.1 31.82 0.055 6.91 3.79 14.29
12/25/2022 4:30:00 AM -0.1 31.82 0.054 6.89 3.78 14.29
12/25/2022 4:45:00 AM -0.1 31.82 0.054 6.91 3.77 14.29
12/25/2022 5:00:00 AM -0.1 31.82 0.054 6.91 3.81 14.28
12/25/2022 5:15:00 AM -0.1 31.82 0.054 6.88 3.8 14.28
12/25/2022 5:30:00 AM -0.09 31.838 0.054 6.9 3.79 14.28
12/25/2022 5:45:00 AM -0.1 31.82 0.054 6.89 3.77 14.28
12/25/2022 6:00:00 AM -0.09 31.838 0.054 6.9 3.78 14.28
12/25/2022 6:15:00 AM -0.1 31.82 0.054 6.88 3.81 14.28
12/25/2022 6:30:00 AM -0.1 31.82 0.054 6.9 3.8 14.28
12/25/2022 6:45:00 AM -0.09 31.838 0.054 6.91 3.7 14.28
12/25/2022 7:00:00 AM -0.1 31.82 0.054 6.88 3.74 14.28
12/25/2022 7:15:00 AM -0.1 31.82 0.054 6.89 3.73 14.28
12/25/2022 7:30:00 AM -0.1 31.82 0.054 6.91 3.75 14.27
12/25/2022 7:45:00 AM -0.1 31.82 0.054 6.92 3.72 14.27
12/25/2022 8:00:00 AM -0.1 31.82 0.054 6.87 3.74 14.28
12/25/2022 8:15:00 AM -0.09 31.838 0.054 6.89 3.73 14.28
12/25/2022 8:30:00 AM -0.1 31.82 0.054 6.86 3.73 14.28
12/25/2022 8:45:00 AM -0.1 31.82 0.054 6.89 3.68 14.28
12/25/2022 9:00:00 AM -0.1 31.82 0.054 6.88 3.74 14.29
12/25/2022 9:15:00 AM -0.1 31.82 0.054 6.89 3.68 14.29
12/25/2022 9:30:00 AM -0.1 31.82 0.054 6.89 3.68 14.28
12/25/2022 9:45:00 AM -0.1 31.82 0.054 6.87 3.64 14.28
12/25/2022 10:00:00 AM -0.1 31.82 0.054 6.9 3.69 14.28
12/25/2022 10:15:00 AM -0.1 31.82 0.054 6.88 3.66 14.27
12/25/2022 10:30:00 AM -0.09 31.838 0.054 6.9 3.66 14.27
12/25/2022 10:45:00 AM -0.09 31.838 0.054 6.77 3.59 14.26
12/25/2022 11:00:00 AM -0.09 31.838 0.054 6.89 3.65 14.27
12/25/2022 11:15:00 AM -0.09 31.838 0.054 6.9 3.63 14.28
12/25/2022 11:30:00 AM -0.09 31.838 0.054 6.89 3.64 14.33
12/25/2022 11:45:00 AM -0.1 31.82 0.053 6.91 3.62 14.35
12/25/2022 12:00:00 PM -0.09 31.838 0.053 6.89 3.61 14.34
12/25/2022 12:15:00 PM -0.09 31.838 0.053 6.91 3.63 14.35
12/25/2022 12:30:00 PM -0.09 31.838 0.054 6.89 3.64 14.37
12/25/2022 12:45:00 PM -0.1 31.82 0.053 6.82 3.58 14.39
12/25/2022 1:00:00 PM -0.09 31.838 0.053 6.89 3.61 14.4
12/25/2022 1:15:00 PM -0.09 31.838 0.053 6.89 3.57 14.41
12/25/2022 1:30:00 PM -0.1 31.82 0.053 6.86 3.55 14.42
12/25/2022 1:45:00 PM -0.09 31.838 0.053 6.87 3.55 14.41
12/25/2022 2:00:00 PM -0.09 31.838 0.053 6.94 3.58 14.42
12/25/2022 2:15:00 PM -0.09 31.838 0.053 6.84 3.54 14.42
12/25/2022 2:30:00 PM -0.1 31.82 0.053 6.87 3.53 14.42
12/25/2022 2:45:00 PM -0.1 31.82 0.053 6.88 3.54 14.43
12/25/2022 3:00:00 PM -0.09 31.838 0.053 6.88 3.51 14.42
12/25/2022 3:15:00 PM -0.1 31.82 0.053 6.88 3.55 14.42
12/25/2022 3:30:00 PM -0.09 31.838 0.053 6.87 3.51 14.42
12/25/2022 3:45:00 PM -0.1 31.82 0.053 6.88 3.52 14.43
12/25/2022 4:00:00 PM -0.1 31.82 0.053 6.94 3.47 14.43
12/25/2022 4:15:00 PM -0.1 31.82 0.053 6.91 3.48 14.43
12/25/2022 4:30:00 PM -0.1 31.82 0.052 6.9 3.48 14.43
12/25/2022 4:45:00 PM -0.1 31.82 0.053 6.96 3.46 14.43
12/25/2022 5:00:00 PM -0.1 31.82 0.053 6.91 3.48 14.43
12/25/2022 5:15:00 PM -0.1 31.82 0.053 6.83 3.46 14.41
12/25/2022 5:30:00 PM -0.1 31.82 0.053 6.93 3.48 14.41
12/25/2022 5:45:00 PM -0.1 31.82 0.053 6.92 3.44 14.39
12/25/2022 6:00:00 PM -0.1 31.82 0.053 6.79 3.46 14.39
12/25/2022 6:15:00 PM -0.1 31.82 0.053 6.94 3.48 14.37
12/25/2022 6:30:00 PM -0.1 31.82 0.053 6.9 3.46 14.37
12/25/2022 6:45:00 PM -0.1 31.82 0.053 6.89 3.46 14.36
12/25/2022 7:00:00 PM -0.1 31.82 0.053 6.94 3.43 14.35
12/25/2022 7:15:00 PM -0.1 31.82 0.053 6.92 3.38 14.35
12/25/2022 7:30:00 PM -0.1 31.82 0.053 6.9 3.43 14.34
12/25/2022 7:45:00 PM -0.1 31.82 0.053 6.91 3.41 14.33
12/25/2022 8:00:00 PM -0.1 31.82 0.053 6.8 3.42 14.32
12/25/2022 8:15:00 PM -0.1 31.82 0.053 6.93 3.37 14.32
12/25/2022 8:30:00 PM -0.1 31.82 0.053 6.8 3.39 14.31
12/25/2022 8:45:00 PM -0.1 31.82 0.053 6.93 3.39 14.32
12/25/2022 9:00:00 PM -0.1 31.82 0.053 6.89 3.37 14.31
12/25/2022 9:15:00 PM -0.1 31.82 0.053 6.81 3.35 14.31
12/25/2022 9:30:00 PM -0.1 31.82 0.053 6.86 3.36 14.31
12/25/2022 9:45:00 PM -0.1 31.82 0.053 6.92 3.32 14.31
12/25/2022 10:00:00 PM -0.1 31.82 0.053 6.85 3.34 14.3
12/25/2022 10:15:00 PM -0.1 31.82 0.053 6.9 3.35 14.3
12/25/2022 10:30:00 PM -0.1 31.82 0.053 6.8 3.36 14.3
12/25/2022 10:45:00 PM -0.1 31.82 0.053 6.92 3.31 14.3
12/25/2022 11:00:00 PM -0.1 31.82 0.053 6.83 3.29 14.3
12/25/2022 11:15:00 PM -0.1 31.82 0.053 6.85 3.3 14.3
12/25/2022 11:30:00 PM -0.1 31.82 0.053 6.91 3.31 14.3
12/25/2022 11:45:00 PM -0.1 31.82 0.053 6.8 3.26 14.3
12/26/2022 12:00:00 AM -0.1 31.82 0.053 6.93 3.27 14.3
12/26/2022 12:15:00 AM -0.1 31.82 0.053 6.89 3.26 14.31
12/26/2022 12:30:00 AM -0.1 31.82 0.053 6.9 3.25 14.3
12/26/2022 12:45:00 AM -0.1 31.82 0.053 6.81 3.29 14.3
12/26/2022 1:00:00 AM -0.1 31.82 0.053 6.91 3.25 14.31
12/26/2022 1:15:00 AM -0.1 31.82 0.053 6.89 3.23 14.31
12/26/2022 1:30:00 AM -0.1 31.82 0.053 6.79 3.26 14.31
12/26/2022 1:45:00 AM -0.1 31.82 0.053 6.88 3.27 14.31
12/26/2022 2:00:00 AM -0.1 31.82 0.053 6.8 3.23 14.31
12/26/2022 2:15:00 AM -0.1 31.82 0.053 6.91 3.23 14.31
12/26/2022 2:30:00 AM -0.1 31.82 0.053 6.78 3.22 14.32
12/26/2022 2:45:00 AM -0.1 31.82 0.053 6.9 3.21 14.32
12/26/2022 3:00:00 AM -0.1 31.82 0.053 6.79 3.24 14.32
12/26/2022 3:15:00 AM -0.1 31.82 0.054 6.83 3.23 14.32
12/26/2022 3:30:00 AM -0.1 31.82 0.053 6.86 3.18 14.33
12/26/2022 3:45:00 AM -0.1 31.82 0.053 6.9 3.22 14.32
12/26/2022 4:00:00 AM -0.1 31.82 0.054 6.87 3.17 14.33
12/26/2022 4:15:00 AM -0.1 31.82 0.054 6.89 3.2 14.32
12/26/2022 4:30:00 AM -0.1 31.82 0.054 6.84 3.16 14.34
12/26/2022 4:45:00 AM -0.1 31.82 0.054 6.88 3.21 14.34
12/26/2022 5:00:00 AM -0.1 31.82 0.054 6.78 3.16 14.35
12/26/2022 5:15:00 AM -0.1 31.82 0.054 6.9 3.13 14.34
12/26/2022 5:30:00 AM -0.1 31.82 0.054 6.87 3.16 14.35
12/26/2022 5:45:00 AM -0.1 31.82 0.054 6.81 3.22 14.36
12/26/2022 6:00:00 AM -0.1 31.82 0.054 6.83 3.14 14.35
12/26/2022 6:15:00 AM -0.1 31.82 0.054 6.9 3.16 14.36
12/26/2022 6:30:00 AM -0.1 31.82 0.054 6.86 3.13 14.37
12/26/2022 6:45:00 AM -0.1 31.82 0.054 6.88 3.68 14.31
12/26/2022 7:00:00 AM -0.11 31.802 0.054 6.89 3.24 14.29
12/26/2022 7:15:00 AM -0.1 31.82 0.054 6.73 3.21 14.28
12/26/2022 7:30:00 AM -0.1 31.82 0.054 6.83 3.29 14.27
12/26/2022 7:45:00 AM -0.1 31.82 0.054 6.87 3.18 14.27
12/26/2022 8:00:00 AM -0.1 31.82 0.054 6.79 3.29 14.27
12/26/2022 8:15:00 AM -0.1 31.82 0.054 6.87 3.3 14.3
12/26/2022 8:30:00 AM -0.1 31.82 0.054 6.85 3.29 14.32
12/26/2022 8:45:00 AM -0.1 31.82 0.054 6.87 3.19 14.32
12/26/2022 9:00:00 AM -0.1 31.82 0.054 6.86 3.22 14.33
12/26/2022 9:15:00 AM -0.1 31.82 0.054 6.75 3.26 14.36
12/26/2022 9:30:00 AM -0.1 31.82 0.054 6.9 3.13 14.36
12/26/2022 9:45:00 AM -0.1 31.82 0.055 6.87 3.11 14.36
12/26/2022 10:00:00 AM -0.1 31.82 0.055 6.88 3.11 14.38
12/26/2022 10:15:00 AM -0.1 31.82 0.055 6.87 3.11 14.39
12/26/2022 10:30:00 AM -0.1 31.82 0.055 6.87 3.09 14.39
12/26/2022 10:45:00 AM -0.1 31.82 0.055 6.88 3.13 14.4
12/26/2022 11:00:00 AM -0.1 31.82 0.055 6.86 3.1 14.41
12/26/2022 11:15:00 AM -0.1 31.82 0.055 6.86 3.06 14.41
12/26/2022 11:30:00 AM -0.1 31.82 0.055 6.86 3.11 14.42
12/26/2022 11:45:00 AM -0.1 31.82 0.055 6.88 3.09 14.44
12/26/2022 12:00:00 PM -0.1 31.82 0.055 6.87 3.06 14.43
12/26/2022 12:15:00 PM -0.1 31.82 0.055 6.87 3.08 14.44
12/26/2022 12:30:00 PM -0.1 31.82 0.055 6.86 3.05 14.44
12/26/2022 12:45:00 PM -0.1 31.82 0.055 6.87 3.06 14.45
12/26/2022 1:00:00 PM -0.1 31.82 0.055 6.79 3.04 14.46
12/26/2022 1:15:00 PM -0.1 31.82 0.055 6.86 3.08 14.46
12/26/2022 1:30:00 PM -0.1 31.82 0.054 6.89 3.04 14.46
12/26/2022 1:45:00 PM -0.1 31.82 0.055 6.88 3.05 14.47
12/26/2022 2:00:00 PM -0.1 31.82 0.055 6.76 3.07 14.48
12/26/2022 2:15:00 PM -0.1 31.82 0.054 6.89 3.01 14.48
12/26/2022 2:30:00 PM -0.1 31.82 0.054 6.77 3.01 14.47
12/26/2022 2:45:00 PM -0.1 31.82 0.055 6.9 3.03 14.47
12/26/2022 3:00:00 PM -0.1 31.82 0.055 6.92 3.02 14.48
12/26/2022 3:15:00 PM -0.1 31.82 0.054 6.72 3.05 14.48
12/26/2022 3:30:00 PM -0.1 31.82 0.054 6.91 3.03 14.49
12/26/2022 3:45:00 PM -0.1 31.82 0.054 6.84 2.99 14.48
12/26/2022 4:00:00 PM -0.1 31.82 0.055 6.9 3 14.48
12/26/2022 4:15:00 PM -0.1 31.82 0.054 6.78 3.02 14.48
12/26/2022 4:30:00 PM -0.1 31.82 0.054 6.91 2.99 14.47
12/26/2022 4:45:00 PM -0.1 31.82 0.054 6.79 3.07 14.46
12/26/2022 5:00:00 PM -0.1 31.82 0.054 6.87 2.99 14.45
12/26/2022 5:15:00 PM -0.1 31.82 0.054 6.89 3.01 14.43
12/26/2022 5:30:00 PM -0.1 31.82 0.054 6.9 2.99 14.43
12/26/2022 5:45:00 PM -0.09 31.838 0.054 6.89 2.99 14.4
12/26/2022 6:00:00 PM -0.08 31.856 0.054 6.83 2.99 14.38
12/26/2022 6:15:00 PM -0.09 31.838 0.053 6.96 3.8 14.3
12/26/2022 6:30:00 PM -0.09 31.838 0.053 6.85 3.14 14.25
12/26/2022 6:45:00 PM -0.06 31.892 0.054 6.95 3.42 14.27
12/26/2022 7:00:00 PM -0.03 31.946 0.053 6.93 3.22 14.26
12/26/2022 7:15:00 PM -0.01 31.982 0.053 6.94 3.07 14.26
12/26/2022 7:30:00 PM 0.04 32.072 0.053 6.82 3.54 14.27
12/26/2022 7:45:00 PM 0.13 32.234 0.053 6.98 3.06 14.25
12/26/2022 8:00:00 PM 0.16 32.288 0.053 6.81 3.33 14.26
12/26/2022 8:15:00 PM 0.18 32.324 0.053 6.95 3.09 14.26
12/26/2022 8:30:00 PM 0.19 32.342 0.053 6.98 3.89 14.26
12/26/2022 8:45:00 PM 0.19 32.342 0.053 6.94 3.02 14.27
12/26/2022 9:00:00 PM 0.19 32.342 0.053 6.89 3.02 14.27
12/26/2022 9:15:00 PM 0.19 32.342 0.053 6.96 2.96 14.27
12/26/2022 9:30:00 PM 0.19 32.342 0.053 6.91 3.08 14.27
12/26/2022 9:45:00 PM 0.19 32.342 0.053 6.96 3.28 14.28
12/26/2022 10:00:00 PM 0.19 32.342 0.053 6.95 3.04 14.27
12/26/2022 10:15:00 PM 0.19 32.342 0.053 6.95 2.98 14.27
12/26/2022 10:30:00 PM 0.19 32.342 0.053 6.84 2.94 14.27
12/26/2022 10:45:00 PM 0.19 32.342 0.053 6.91 3.41 14.27
12/26/2022 11:00:00 PM 0.19 32.342 0.053 6.97 2.91 14.28
12/26/2022 11:15:00 PM 0.19 32.342 0.053 6.94 2.95 14.28
12/26/2022 11:30:00 PM 0.19 32.342 0.053 6.96 2.98 14.28
12/26/2022 11:45:00 PM 0.19 32.342 0.053 6.95 2.98 14.27
12/27/2022 12:00:00 AM 0.2 32.36 0.053 6.98 3.17 14.29
12/27/2022 12:15:00 AM 0.2 32.36 0.053 6.84 2.96 14.28
12/27/2022 12:30:00 AM 0.2 32.36 0.054 6.98 3.1 14.28
12/27/2022 12:45:00 AM 0.21 32.378 0.054 6.94 3.09 14.28
12/27/2022 1:00:00 AM 0.21 32.378 0.054 6.98 2.97 14.28
12/27/2022 1:15:00 AM 0.21 32.378 0.054 6.85 3.02 14.28
12/27/2022 1:30:00 AM 0.21 32.378 0.054 6.89 2.96 14.29
12/27/2022 1:45:00 AM 0.22 32.396 0.053 6.98 2.89 14.28
12/27/2022 2:00:00 AM 0.22 32.396 0.053 6.95 3.02 14.28
12/27/2022 2:15:00 AM 0.23 32.414 0.053 6.94 2.94 14.28
12/27/2022 2:30:00 AM 0.23 32.414 0.053 6.86 3.08 14.27
12/27/2022 2:45:00 AM 0.22 32.396 0.053 6.89 3.08 14.27
12/27/2022 3:00:00 AM 0.21 32.378 0.053 6.95 2.97 14.27
12/27/2022 3:15:00 AM 0.2 32.36 0.053 6.96 3.01 14.28
12/27/2022 3:30:00 AM 0.19 32.342 0.053 6.85 3.38 14.28
12/27/2022 3:45:00 AM 0.19 32.342 0.053 6.96 2.96 14.28
12/27/2022 4:00:00 AM 0.19 32.342 0.053 6.91 3.07 14.28
12/27/2022 4:15:00 AM 0.2 32.36 0.053 6.9 2.91 14.29
12/27/2022 4:30:00 AM 0.2 32.36 0.053 6.97 3.12 14.3
12/27/2022 4:45:00 AM 0.21 32.378 0.053 6.97 2.9 14.29
12/27/2022 5:00:00 AM 0.22 32.396 0.053 6.94 3.01 14.28
12/27/2022 5:15:00 AM 0.22 32.396 0.053 6.96 2.88 14.29
12/27/2022 5:30:00 AM 0.23 32.414 0.053 6.86 3.29 14.29
12/27/2022 5:45:00 AM 0.23 32.414 0.053 6.97 2.96 14.29
12/27/2022 6:00:00 AM 0.23 32.414 0.053 6.85 2.98 14.29
12/27/2022 6:15:00 AM 0.23 32.414 0.053 6.93 2.92 14.3
12/27/2022 6:30:00 AM 0.23 32.414 0.053 6.97 2.92 14.29
12/27/2022 6:45:00 AM 0.24 32.432 0.053 6.86 3.06 14.29
12/27/2022 7:00:00 AM 0.24 32.432 0.053 6.98 3 14.29
12/27/2022 7:15:00 AM 0.25 32.45 0.054 6.97 3.04 14.29
12/27/2022 7:30:00 AM 0.25 32.45 0.054 6.93 2.83 14.29
12/27/2022 7:45:00 AM 0.26 32.468 0.054 6.91 2.97 14.29
12/27/2022 8:00:00 AM 0.27 32.486 0.054 6.91 2.9 14.3
12/27/2022 8:15:00 AM 0.27 32.486 0.054 6.93 2.88 14.31
12/27/2022 8:30:00 AM 0.28 32.504 0.054 6.95 3.13 14.34
12/27/2022 8:45:00 AM 0.29 32.522 0.054 6.96 2.95 14.36
12/27/2022 9:00:00 AM 0.31 32.558 0.053 7.01 2.97 14.4
12/27/2022 9:15:00 AM 0.32 32.576 0.053 6.92 2.86 14.44
12/27/2022 9:30:00 AM 0.34 32.612 0.053 7.01 2.87 14.48
12/27/2022 9:45:00 AM 0.36 32.648 0.053 7.02 2.9 14.52
12/27/2022 10:00:00 AM 0.37 32.666 0.053 6.96 2.88 14.55
12/27/2022 10:15:00 AM 0.4 32.72 0.053 7.07 2.91 14.58
12/27/2022 10:30:00 AM 0.43 32.774 0.053 7.04 2.91 14.6
12/27/2022 10:45:00 AM 0.46 32.828 0.053 7.03 2.86 14.62
12/27/2022 11:00:00 AM 0.49 32.882 0.053 7.02 2.89 14.63
12/27/2022 11:15:00 AM 0.52 32.936 0.053 7.1 2.83 14.63
12/27/2022 11:30:00 AM 0.55 32.99 0.053 7.07 2.82 14.64
12/27/2022 11:45:00 AM 0.57 33.026 0.053 7.02 2.87 14.64
12/27/2022 12:00:00 PM 0.61 33.098 0.053 7.12 2.78 14.61
12/27/2022 12:15:00 PM 0.64 33.152 0.053 7.11 2.92 14.63
12/27/2022 12:30:00 PM 0.68 33.224 0.054 7.12 2.93 14.62
12/27/2022 12:45:00 PM 0.71 33.278 0.054 7.14 2.87 14.61
12/27/2022 1:00:00 PM 0.74 33.332 0.054 7.1 2.87 14.6
12/27/2022 1:15:00 PM 0.77 33.386 0.053 7.15 2.81 14.61
12/27/2022 1:30:00 PM 0.79 33.422 0.053 7.12 2.79 14.58
12/27/2022 1:45:00 PM 0.81 33.458 0.053 7.16 2.82 14.56
12/27/2022 2:00:00 PM 0.83 33.494 0.053 6.99 2.8 14.55
12/27/2022 2:15:00 PM 0.84 33.512 0.053 7.12 2.71 14.54
12/27/2022 2:30:00 PM 0.86 33.548 0.053 7.16 2.79 14.52
12/27/2022 2:45:00 PM 0.87 33.566 0.053 7 2.7 14.5
12/27/2022 3:00:00 PM 0.89 33.602 0.053 7.15 2.73 14.49
12/27/2022 3:15:00 PM 0.9 33.62 0.053 7.13 2.83 14.46
12/27/2022 3:30:00 PM 0.91 33.638 0.053 7.08 2.7 14.42
12/27/2022 3:45:00 PM 0.92 33.656 0.053 7.13 2.7 14.4
12/27/2022 4:00:00 PM 0.93 33.674 0.053 7.11 2.82 14.38
12/27/2022 4:15:00 PM 0.94 33.692 0.053 7.1 2.7 14.37
12/27/2022 4:30:00 PM 0.94 33.692 0.053 7.09 2.84 14.33
12/27/2022 4:45:00 PM 0.94 33.692 0.053 7.09 2.78 14.29
12/27/2022 5:00:00 PM 0.94 33.692 0.053 7.1 2.73 14.23
12/27/2022 5:15:00 PM 0.94 33.692 0.053 7.04 2.78 14.2
12/27/2022 5:30:00 PM 0.94 33.692 0.053 7.05 2.76 14.16
12/27/2022 5:45:00 PM 0.93 33.674 0.053 6.95 2.86 14.11
12/27/2022 6:00:00 PM 0.93 33.674 0.054 7.05 2.74 14.1
12/27/2022 6:15:00 PM 0.93 33.674 0.054 7.03 2.7 14.07
12/27/2022 6:30:00 PM 0.94 33.692 0.054 7 2.8 14.05
12/27/2022 6:45:00 PM 0.94 33.692 0.054 6.94 2.73 14.04
12/27/2022 7:00:00 PM 0.93 33.674 0.054 7.03 2.78 14.03
12/27/2022 7:15:00 PM 0.94 33.692 0.054 7.03 2.69 14.02
12/27/2022 7:30:00 PM 0.94 33.692 0.054 7.02 2.86 14.02
12/27/2022 7:45:00 PM 0.95 33.71 0.054 7 2.78 14.01
12/27/2022 8:00:00 PM 0.95 33.71 0.054 7.04 2.77 14.02
12/27/2022 8:15:00 PM 0.96 33.728 0.054 6.85 2.77 14.01
12/27/2022 8:30:00 PM 0.96 33.728 0.054 7.03 2.68 14
12/27/2022 8:45:00 PM 0.96 33.728 0.054 6.95 2.84 14
12/27/2022 9:00:00 PM 0.97 33.746 0.054 7.03 2.75 14
12/27/2022 9:15:00 PM 0.97 33.746 0.054 6.99 2.76 13.99
12/27/2022 9:30:00 PM 0.98 33.764 0.054 7.01 2.82 13.99
12/27/2022 9:45:00 PM 0.99 33.782 0.054 7 2.81 13.99
12/27/2022 10:00:00 PM 0.99 33.782 0.054 7.02 2.84 13.99
12/27/2022 10:15:00 PM 1 33.8 0.054 7.02 2.89 13.99
12/27/2022 10:30:00 PM 1 33.8 0.054 6.98 2.84 13.98
12/27/2022 10:45:00 PM 1.01 33.818 0.054 6.88 2.82 13.98
12/27/2022 11:00:00 PM 1.01 33.818 0.054 7.02 2.84 13.98
12/27/2022 11:15:00 PM 1.02 33.836 0.054 7 2.91 13.98
12/27/2022 11:30:00 PM 1.02 33.836 0.054 6.99 2.83 13.97
12/27/2022 11:45:00 PM 1.03 33.854 0.054 7 2.86 13.96
12/28/2022 12:00:00 AM 1.03 33.854 0.054 7 2.94 13.96
12/28/2022 12:15:00 AM 1.03 33.854 0.054 6.99 2.83 13.96
12/28/2022 12:30:00 AM 1.04 33.872 0.054 6.98 2.77 13.96
12/28/2022 12:45:00 AM 1.05 33.89 0.054 7 2.81 13.95
12/28/2022 1:00:00 AM 1.05 33.89 0.054 7 2.86 13.95
12/28/2022 1:15:00 AM 1.05 33.89 0.054 6.98 2.82 13.95
12/28/2022 1:30:00 AM 1.06 33.908 0.054 6.99 2.91 13.95
12/28/2022 1:45:00 AM 1.06 33.908 0.054 7 2.83 13.95
12/28/2022 2:00:00 AM 1.06 33.908 0.054 7 2.82 13.95
12/28/2022 2:15:00 AM 1.07 33.926 0.054 7 2.85 13.95
12/28/2022 2:30:00 AM 1.08 33.944 0.054 7.01 2.71 13.93
12/28/2022 2:45:00 AM 1.08 33.944 0.054 6.99 2.78 13.93
12/28/2022 3:00:00 AM 1.07 33.926 0.054 6.9 2.8 13.94
12/28/2022 3:15:00 AM 1.06 33.908 0.054 6.99 2.81 13.94
12/28/2022 3:30:00 AM 1.04 33.872 0.054 7.02 2.83 13.93
12/28/2022 3:45:00 AM 1.02 33.836 0.054 6.99 2.71 13.95
12/28/2022 4:00:00 AM 1.01 33.818 0.054 6.99 2.76 13.94
12/28/2022 4:15:00 AM 0.99 33.782 0.054 6.86 2.77 13.95
12/28/2022 4:30:00 AM 0.98 33.764 0.054 6.93 2.74 13.95
12/28/2022 4:45:00 AM 0.95 33.71 0.054 6.95 2.92 13.96
12/28/2022 5:00:00 AM 0.94 33.692 0.054 7.02 2.81 13.97
12/28/2022 5:15:00 AM 0.92 33.656 0.054 6.97 2.77 13.97
12/28/2022 5:30:00 AM 0.9 33.62 0.054 6.89 2.75 13.98
12/28/2022 5:45:00 AM 0.88 33.584 0.054 7 2.91 13.99
12/28/2022 6:00:00 AM 0.85 33.53 0.054 6.94 2.82 13.99
12/28/2022 6:15:00 AM 0.83 33.494 0.054 7.02 2.76 14
12/28/2022 6:30:00 AM 0.81 33.458 0.054 6.87 2.75 14.02
12/28/2022 6:45:00 AM 0.79 33.422 0.054 6.92 2.73 14.02
12/28/2022 7:00:00 AM 0.77 33.386 0.054 6.99 3.03 14.03
12/28/2022 7:15:00 AM 0.75 33.35 0.054 6.98 2.71 14.04
12/28/2022 7:30:00 AM 0.72 33.296 0.054 6.86 2.85 14.05
12/28/2022 7:45:00 AM 0.7 33.26 0.055 7.01 2.74 14.07
12/28/2022 8:00:00 AM 0.68 33.224 0.055 6.81 2.96 14.1
12/28/2022 8:15:00 AM 0.65 33.17 0.054 6.95 2.83 14.15
12/28/2022 8:30:00 AM 0.64 33.152 0.054 7.02 2.79 14.22
12/28/2022 8:45:00 AM 0.63 33.134 0.054 6.93 2.75 14.3
12/28/2022 9:00:00 AM 0.63 33.134 0.054 6.98 2.79 14.37
12/28/2022 9:15:00 AM 0.64 33.152 0.054 6.99 2.73 14.43
12/28/2022 9:30:00 AM 0.66 33.188 0.054 7.07 2.73 14.49
12/28/2022 9:45:00 AM 0.68 33.224 0.054 7.11 2.77 14.52
12/28/2022 10:00:00 AM 0.72 33.296 0.054 6.91 2.74 14.56
12/28/2022 10:15:00 AM 0.78 33.404 0.054 7.05 2.77 14.58
12/28/2022 10:30:00 AM 0.81 33.458 0.054 7.11 2.74 14.58
12/28/2022 10:45:00 AM 0.86 33.548 0.054 7.12 2.69 14.59
12/28/2022 11:00:00 AM 0.9 33.62 0.054 7.09 2.75 14.61
12/28/2022 11:15:00 AM 0.98 33.764 0.054 7.15 2.74 14.61
12/28/2022 11:30:00 AM 1.05 33.89 0.054 7.15 2.75 14.6
12/28/2022 11:45:00 AM 1.1 33.98 0.054 7.05 2.71 14.58
12/28/2022 12:00:00 PM 1.19 34.142 0.054 7.18 2.69 14.56
12/28/2022 12:15:00 PM 1.31 34.358 0.054 7.17 2.66 14.53
12/28/2022 12:30:00 PM 1.41 34.538 0.054 7.19 2.78 14.5
12/28/2022 12:45:00 PM 1.54 34.772 0.055 7.18 2.68 14.46
12/28/2022 1:00:00 PM 1.68 35.024 0.054 7.08 2.69 14.41
12/28/2022 1:15:00 PM 1.84 35.312 0.054 7.22 2.71 14.36
12/28/2022 1:30:00 PM 1.98 35.564 0.054 7.12 2.69 14.32
12/28/2022 1:45:00 PM 2.1 35.78 0.054 7.22 2.75 14.26
12/28/2022 2:00:00 PM 2.17 35.906 0.054 7.24 2.74 14.23
12/28/2022 2:15:00 PM 2.2 35.96 0.054 7.2 2.74 14.21
12/28/2022 2:30:00 PM 2.2 35.96 0.054 7.23 2.69 14.18
12/28/2022 2:45:00 PM 2.21 35.978 0.054 7.24 2.63 14.16
12/28/2022 3:00:00 PM 2.22 35.996 0.054 7.13 2.61 14.16
12/28/2022 3:15:00 PM 2.22 35.996 0.054 7.27 2.69 14.14
12/28/2022 3:30:00 PM 2.23 36.014 0.054 7.09 2.69 14.12
12/28/2022 3:45:00 PM 2.26 36.068 0.054 7.25 2.96 14.08
12/28/2022 4:00:00 PM 2.28 36.104 0.054 7.16 2.7 14.04
12/28/2022 4:15:00 PM 2.3 36.14 0.054 7.13 2.68 13.97
12/28/2022 4:30:00 PM 2.31 36.158 0.054 7.21 2.67 13.91
12/28/2022 4:45:00 PM 2.31 36.158 0.054 7.05 2.67 13.83
12/28/2022 5:00:00 PM 2.29 36.122 0.054 7.17 2.63 13.76
12/28/2022 5:15:00 PM 2.26 36.068 0.054 7.12 2.84 13.7
12/28/2022 5:30:00 PM 2.22 35.996 0.054 7.11 2.74 13.67
12/28/2022 5:45:00 PM 2.17 35.906 0.054 7.09 2.75 13.64
12/28/2022 6:00:00 PM 2.12 35.816 0.054 7.05 2.72 13.62
12/28/2022 6:15:00 PM 2.08 35.744 0.055 7.09 2.86 13.62
12/28/2022 6:30:00 PM 2.03 35.654 0.055 7.1 2.73 13.62
12/28/2022 6:45:00 PM 1.99 35.582 0.055 6.93 2.85 13.61
12/28/2022 7:00:00 PM 1.96 35.528 0.055 7.09 2.93 13.61
12/28/2022 7:15:00 PM 1.92 35.456 0.055 7.03 2.81 13.62
12/28/2022 7:30:00 PM 1.89 35.402 0.055 7.02 2.74 13.62
12/28/2022 7:45:00 PM 1.86 35.348 0.055 6.94 2.9 13.63
12/28/2022 8:00:00 PM 1.84 35.312 0.055 6.99 2.81 13.63
12/28/2022 8:15:00 PM 1.81 35.258 0.055 7.06 2.75 13.65
12/28/2022 8:30:00 PM 1.79 35.222 0.055 7.04 2.85 13.65
12/28/2022 8:45:00 PM 1.75 35.15 0.055 6.87 2.71 13.66
12/28/2022 9:00:00 PM 1.73 35.114 0.055 7.05 2.77 13.66
12/28/2022 9:15:00 PM 1.7 35.06 0.055 7.05 2.89 13.68
12/28/2022 9:30:00 PM 1.66 34.988 0.055 7.01 2.84 13.69
12/28/2022 9:45:00 PM 1.62 34.916 0.055 6.91 2.81 13.7
12/28/2022 10:00:00 PM 1.59 34.862 0.055 6.94 2.79 13.72
12/28/2022 10:15:00 PM 1.56 34.808 0.055 7.04 2.78 13.72
12/28/2022 10:30:00 PM 1.52 34.736 0.055 6.91 2.91 13.74
12/28/2022 10:45:00 PM 1.49 34.682 0.056 7 2.84 13.75
12/28/2022 11:00:00 PM 1.46 34.628 0.056 7.02 2.79 13.76
12/28/2022 11:15:00 PM 1.42 34.556 0.056 6.95 2.83 13.78
12/28/2022 11:30:00 PM 1.39 34.502 0.056 7.04 2.69 13.79
12/28/2022 11:45:00 PM 1.37 34.466 0.056 6.89 2.74 13.8
12/29/2022 12:00:00 AM 1.34 34.412 0.056 7.02 2.76 13.81
12/29/2022 12:15:00 AM 1.31 34.358 0.056 7.01 2.93 13.81
12/29/2022 12:30:00 AM 1.28 34.304 0.056 7.01 2.85 13.83
12/29/2022 12:45:00 AM 1.24 34.232 0.056 6.85 2.89 13.85
12/29/2022 1:00:00 AM 1.21 34.178 0.056 6.93 2.73 13.86
12/29/2022 1:15:00 AM 1.18 34.124 0.056 7.02 2.67 13.87
12/29/2022 1:30:00 AM 1.15 34.07 0.056 7.01 2.88 13.88
12/29/2022 1:45:00 AM 1.12 34.016 0.056 6.93 2.9 13.9
12/29/2022 2:00:00 AM 1.09 33.962 0.056 7.01 2.77 13.91
12/29/2022 2:15:00 AM 1.06 33.908 0.056 6.92 2.75 13.92
12/29/2022 2:30:00 AM 1.02 33.836 0.056 7.02 2.82 13.93
12/29/2022 2:45:00 AM 0.99 33.782 0.056 6.85 2.69 13.95
12/29/2022 3:00:00 AM 0.96 33.728 0.056 7 2.79 13.96
12/29/2022 3:15:00 AM 0.92 33.656 0.056 6.88 2.74 13.98
12/29/2022 3:30:00 AM 0.89 33.602 0.056 6.94 2.85 13.98
12/29/2022 3:45:00 AM 0.85 33.53 0.056 7 2.81 14.01
12/29/2022 4:00:00 AM 0.81 33.458 0.056 6.85 2.79 14.02
12/29/2022 4:15:00 AM 0.78 33.404 0.056 7 3.07 14.03
12/29/2022 4:30:00 AM 0.75 33.35 0.056 7.01 2.68 14.05
12/29/2022 4:45:00 AM 0.71 33.278 0.056 6.81 2.81 14.06
12/29/2022 5:00:00 AM 0.69 33.242 0.056 7 2.73 14.08
12/29/2022 5:15:00 AM 0.66 33.188 0.056 6.98 2.75 14.09
12/29/2022 5:30:00 AM 0.64 33.152 0.056 6.99 2.69 14.1
12/29/2022 5:45:00 AM 0.62 33.116 0.056 6.96 2.81 14.12
12/29/2022 6:00:00 AM 0.6 33.08 0.056 6.96 2.83 14.13
12/29/2022 6:15:00 AM 0.58 33.044 0.056 6.86 2.78 14.13
12/29/2022 6:30:00 AM 0.57 33.026 0.056 7.01 2.85 14.15
12/29/2022 6:45:00 AM 0.55 32.99 0.056 6.97 2.87 14.15
12/29/2022 7:00:00 AM 0.53 32.954 0.056 6.97 2.79 14.16
12/29/2022 7:15:00 AM 0.5 32.9 0.056 6.98 2.77 14.18
12/29/2022 7:30:00 AM 0.48 32.864 0.056 6.97 2.64 14.2
12/29/2022 7:45:00 AM 0.44 32.792 0.056 6.86 2.7 14.22
12/29/2022 8:00:00 AM 0.4 32.72 0.056 6.99 2.66 14.25
12/29/2022 8:15:00 AM 0.36 32.648 0.056 6.99 2.72 14.32
12/29/2022 8:30:00 AM 0.33 32.594 0.056 7.03 2.77 14.39
12/29/2022 8:45:00 AM 0.3 32.54 0.056 6.99 2.69 14.46
12/29/2022 9:00:00 AM 0.28 32.504 0.056 7.02 2.74 14.53
12/29/2022 9:15:00 AM 0.26 32.468 0.056 7.03 2.73 14.61
12/29/2022 9:30:00 AM 0.26 32.468 0.056 6.95 2.76 14.67
12/29/2022 9:45:00 AM 0.29 32.522 0.056 7.04 2.78 14.72
12/29/2022 10:00:00 AM 0.33 32.594 0.056 7.11 2.7 14.77
12/29/2022 10:15:00 AM 0.38 32.684 0.056 7.09 2.78 14.8
12/29/2022 10:30:00 AM 0.43 32.774 0.056 7.02 2.66 14.82
12/29/2022 10:45:00 AM 0.46 32.828 0.056 7.15 2.68 14.83
12/29/2022 11:00:00 AM 0.52 32.936 0.057 7.04 2.65 14.83
12/29/2022 11:15:00 AM 0.59 33.062 0.057 7.14 2.73 14.84
12/29/2022 11:30:00 AM 0.66 33.188 0.056 7.17 2.64 14.83
12/29/2022 11:45:00 AM 0.75 33.35 0.056 7.05 2.66 14.81
12/29/2022 12:00:00 PM 0.88 33.584 0.056 7.2 2.65 14.79
12/29/2022 12:15:00 PM 1.01 33.818 0.055 7.19 2.67 14.75
12/29/2022 12:30:00 PM 1.15 34.07 0.055 7.2 2.62 14.71
12/29/2022 12:45:00 PM 1.3 34.34 0.055 7.17 2.59 14.65
12/29/2022 1:00:00 PM 1.47 34.646 0.055 7.24 2.72 14.6
12/29/2022 1:15:00 PM 1.65 34.97 0.055 7.23 2.6 14.53
12/29/2022 1:30:00 PM 1.81 35.258 0.055 7.2 2.55 14.48
12/29/2022 1:45:00 PM 1.98 35.564 0.055 7.14 2.58 14.4
12/29/2022 2:00:00 PM 2.09 35.762 0.055 7.24 2.57 14.35
12/29/2022 2:15:00 PM 2.17 35.906 0.055 7.19 2.52 14.3
12/29/2022 2:30:00 PM 2.2 35.96 0.055 7.24 2.52 14.28
12/29/2022 2:45:00 PM 2.23 36.014 0.055 7.25 2.52 14.24
12/29/2022 3:00:00 PM 2.25 36.05 0.055 7.12 2.66 14.2
12/29/2022 3:15:00 PM 2.26 36.068 0.055 7.27 2.55 14.14
12/29/2022 3:30:00 PM 2.31 36.158 0.055 7.24 2.59 14.09
12/29/2022 3:45:00 PM 2.37 36.266 0.055 7.21 2.65 14.03
12/29/2022 4:00:00 PM 2.41 36.338 0.055 7.22 2.62 13.96
12/29/2022 4:15:00 PM 2.44 36.392 0.055 7.2 2.63 13.88
12/29/2022 4:30:00 PM 2.47 36.446 0.055 7.18 2.66 13.81
12/29/2022 4:45:00 PM 2.5 36.5 0.055 7.17 2.71 13.73
12/29/2022 5:00:00 PM 2.53 36.554 0.055 7.04 3.11 13.66
12/29/2022 5:15:00 PM 2.53 36.554 0.056 7.15 2.76 13.6
12/29/2022 5:30:00 PM 2.51 36.518 0.056 7.1 2.64 13.55
12/29/2022 5:45:00 PM 2.49 36.482 0.056 7.05 2.65 13.52
12/29/2022 6:00:00 PM 2.49 36.482 0.056 7.1 2.75 13.5
12/29/2022 6:15:00 PM 2.48 36.464 0.056 7.1 2.72 13.48
12/29/2022 6:30:00 PM 2.47 36.446 0.056 7.05 2.8 13.47
12/29/2022 6:45:00 PM 2.46 36.428 0.056 7.08 2.72 13.46
12/29/2022 7:00:00 PM 2.44 36.392 0.056 7.08 2.8 13.46
12/29/2022 7:15:00 PM 2.43 36.374 0.056 6.96 2.68 13.46
12/29/2022 7:30:00 PM 2.42 36.356 0.056 7.08 2.86 13.46
12/29/2022 7:45:00 PM 2.42 36.356 0.056 7.07 2.82 13.46
12/29/2022 8:00:00 PM 2.41 36.338 0.056 7.04 2.75 13.45
12/29/2022 8:15:00 PM 2.42 36.356 0.056 7.03 2.77 13.45
12/29/2022 8:30:00 PM 2.42 36.356 0.056 7.09 2.64 13.45
12/29/2022 8:45:00 PM 2.42 36.356 0.056 7.05 2.74 13.45
12/29/2022 9:00:00 PM 2.43 36.374 0.056 7.05 2.72 13.45
12/29/2022 9:15:00 PM 2.44 36.392 0.056 6.95 2.68 13.44
12/29/2022 9:30:00 PM 2.45 36.41 0.056 7.07 2.83 13.44
12/29/2022 9:45:00 PM 2.46 36.428 0.056 6.91 2.76 13.43
12/29/2022 10:00:00 PM 2.47 36.446 0.056 7 2.65 13.43
12/29/2022 10:15:00 PM 2.48 36.464 0.056 7.05 2.71 13.42
12/29/2022 10:30:00 PM 2.49 36.482 0.057 6.96 2.76 13.42
12/29/2022 10:45:00 PM 2.5 36.5 0.057 7.04 2.66 13.42
12/29/2022 11:00:00 PM 2.51 36.518 0.057 7.06 2.66 13.42
12/29/2022 11:15:00 PM 2.52 36.536 0.057 7.04 2.75 13.41
12/29/2022 11:30:00 PM 2.53 36.554 0.057 7.04 2.66 13.41
12/29/2022 11:45:00 PM 2.54 36.572 0.057 7.03 2.7 13.41
12/30/2022 12:00:00 AM 2.55 36.59 0.057 7.04 2.8 13.4
12/30/2022 12:15:00 AM 2.55 36.59 0.057 6.93 2.72 13.4
12/30/2022 12:30:00 AM 2.56 36.608 0.057 7.04 2.74 13.4
12/30/2022 12:45:00 AM 2.57 36.626 0.057 6.96 2.74 13.4
12/30/2022 1:00:00 AM 2.58 36.644 0.057 7.05 2.69 13.39
12/30/2022 1:15:00 AM 2.59 36.662 0.057 6.99 2.73 13.38
12/30/2022 1:30:00 AM 2.6 36.68 0.057 7.04 2.7 13.38
12/30/2022 1:45:00 AM 2.6 36.68 0.057 6.95 2.74 13.38
12/30/2022 2:00:00 AM 2.61 36.698 0.057 6.95 2.68 13.38
12/30/2022 2:15:00 AM 2.62 36.716 0.057 7.02 2.68 13.37
12/30/2022 2:30:00 AM 2.63 36.734 0.057 6.93 2.81 13.37
12/30/2022 2:45:00 AM 2.63 36.734 0.057 7.06 2.72 13.37
12/30/2022 3:00:00 AM 2.64 36.752 0.057 7.01 2.72 13.37
12/30/2022 3:15:00 AM 2.64 36.752 0.057 7.02 2.68 13.36
12/30/2022 3:30:00 AM 2.63 36.734 0.057 6.95 2.75 13.36
12/30/2022 3:45:00 AM 2.63 36.734 0.057 7.05 2.73 13.36
12/30/2022 4:00:00 AM 2.63 36.734 0.057 7.02 2.69 13.36
12/30/2022 4:15:00 AM 2.62 36.716 0.057 7.01 2.7 13.36
12/30/2022 4:30:00 AM 2.63 36.734 0.057 7.02 2.71 13.36
12/30/2022 4:45:00 AM 2.63 36.734 0.057 7 2.74 13.36
12/30/2022 5:00:00 AM 2.64 36.752 0.057 7.05 2.74 13.36
12/30/2022 5:15:00 AM 2.65 36.77 0.057 7 2.87 13.35
12/30/2022 5:30:00 AM 2.65 36.77 0.057 7.04 2.68 13.35
12/30/2022 5:45:00 AM 2.66 36.788 0.058 7.02 2.76 13.35
12/30/2022 6:00:00 AM 2.67 36.806 0.057 6.86 2.81 13.35
12/30/2022 6:15:00 AM 2.69 36.842 0.057 6.99 2.67 13.34
12/30/2022 6:30:00 AM 2.7 36.86 0.057 7.02 2.76 13.34
12/30/2022 6:45:00 AM 2.7 36.86 0.057 6.9 2.7 13.33
12/30/2022 7:00:00 AM 2.71 36.878 0.057 7.06 2.86 13.33
12/30/2022 7:15:00 AM 2.72 36.896 0.057 7.04 2.7 13.33
12/30/2022 7:30:00 AM 2.73 36.914 0.057 7.05 2.68 13.32
12/30/2022 7:45:00 AM 2.74 36.932 0.057 7.06 2.69 13.33
12/30/2022 8:00:00 AM 2.75 36.95 0.057 7.04 2.77 13.34
12/30/2022 8:15:00 AM 2.76 36.968 0.057 7.03 2.71 13.36
12/30/2022 8:30:00 AM 2.77 36.986 0.057 6.98 2.75 13.39
12/30/2022 8:45:00 AM 2.78 37.004 0.057 7.07 2.74 13.42
12/30/2022 9:00:00 AM 2.8 37.04 0.057 7.07 2.68 13.48
12/30/2022 9:15:00 AM 2.83 37.094 0.056 7.11 2.71 13.56
12/30/2022 9:30:00 AM 2.86 37.148 0.056 7.1 2.65 13.62
12/30/2022 9:45:00 AM 2.89 37.202 0.056 7.05 2.75 13.7
12/30/2022 10:00:00 AM 2.93 37.274 0.056 7.15 2.83 13.77
12/30/2022 10:15:00 AM 2.97 37.346 0.056 7.19 2.72 13.83
12/30/2022 10:30:00 AM 3.04 37.472 0.056 7.07 2.65 13.87
12/30/2022 10:45:00 AM 3.16 37.688 0.056 7.26 2.7 13.91
12/30/2022 11:00:00 AM 3.3 37.94 0.056 7.29 2.71 13.91
12/30/2022 11:15:00 AM 3.38 38.084 0.056 7.28 2.67 13.89
12/30/2022 11:30:00 AM 3.48 38.264 0.056 7.31 2.76 13.89
12/30/2022 11:45:00 AM 3.53 38.354 0.056 7.32 2.7 13.86
12/30/2022 12:00:00 PM 3.59 38.462 0.056 7.24 2.63 13.83
12/30/2022 12:15:00 PM 3.66 38.588 0.056 7.35 2.75 13.81
12/30/2022 12:30:00 PM 3.72 38.696 0.056 7.32 2.83 13.79
12/30/2022 12:45:00 PM 3.78 38.804 0.056 7.25 2.81 13.78
12/30/2022 1:00:00 PM 3.81 38.858 0.056 7.38 2.87 13.77
12/30/2022 1:15:00 PM 3.87 38.966 0.056 7.4 2.71 13.76
12/30/2022 1:30:00 PM 3.94 39.092 0.056 7.39 2.73 13.75
12/30/2022 1:45:00 PM 3.98 39.164 0.056 7.41 2.79 13.72
12/30/2022 2:00:00 PM 4.04 39.272 0.056 7.39 2.85 13.69
12/30/2022 2:15:00 PM 4.11 39.398 0.056 7.43 3.04 13.65
12/30/2022 2:30:00 PM 4.17 39.506 0.056 7.41 3.03 13.62
12/30/2022 2:45:00 PM 4.22 39.596 0.056 7.43 3.2 13.59
12/30/2022 3:00:00 PM 4.24 39.632 0.056 7.36 3.24 13.58
12/30/2022 3:15:00 PM 4.23 39.614 0.056 7.43 3.81 13.54
12/30/2022 3:30:00 PM 4.17 39.506 0.056 7.32 3.68 13.5
12/30/2022 3:45:00 PM 4.14 39.452 0.056 7.37 3.83 13.46
12/30/2022 4:00:00 PM 4.13 39.434 0.056 7.39 3.54 13.43
12/30/2022 4:15:00 PM 4.11 39.398 0.056 7.15 3.82 13.38
12/30/2022 4:30:00 PM 4.08 39.344 0.056 7.34 3.55 13.32
12/30/2022 4:45:00 PM 4.04 39.272 0.056 7.15 3.71 13.24
12/30/2022 5:00:00 PM 4 39.2 0.056 7.27 3.44 13.15
12/30/2022 5:15:00 PM 3.96 39.128 0.056 7.23 3.51 13.09
12/30/2022 5:30:00 PM 3.91 39.038 0.056 7.19 3.64 13.04
12/30/2022 5:45:00 PM 3.86 38.948 0.056 7.15 3.6 13.01
12/30/2022 6:00:00 PM 3.81 38.858 0.057 7.15 3.9 12.98
12/30/2022 6:15:00 PM 3.74 38.732 0.057 7.15 3.51 12.97
12/30/2022 6:30:00 PM 3.69 38.642 0.057 7.12 3.43 12.97
12/30/2022 6:45:00 PM 3.63 38.534 0.057 7.12 3.58 12.97
12/30/2022 7:00:00 PM 3.57 38.426 0.057 7.08 3.43 12.98
12/30/2022 7:15:00 PM 3.52 38.336 0.057 7.09 3.41 12.98
12/30/2022 7:30:00 PM 3.46 38.228 0.057 7.05 3.52 13
12/30/2022 7:45:00 PM 3.41 38.138 0.057 7.04 3.54 13.02
12/30/2022 8:00:00 PM 3.37 38.066 0.057 7.09 3.5 13.03
12/30/2022 8:15:00 PM 3.32 37.976 0.057 7.08 3.57 13.04
12/30/2022 8:30:00 PM 3.28 37.904 0.057 7.07 3.45 13.05
12/30/2022 8:45:00 PM 3.24 37.832 0.058 7.08 3.54 13.06
12/30/2022 9:00:00 PM 3.2 37.76 0.058 7.06 3.69 13.08
12/30/2022 9:15:00 PM 3.17 37.706 0.057 7.06 3.51 13.09
12/30/2022 9:30:00 PM 3.14 37.652 0.057 7.01 3.53 13.1
12/30/2022 9:45:00 PM 3.1 37.58 0.057 7.02 3.48 13.12
12/30/2022 10:00:00 PM 3.07 37.526 0.057 7.07 3.38 13.12
12/30/2022 10:15:00 PM 3.04 37.472 0.057 6.86 3.47 13.14
12/30/2022 10:30:00 PM 3.01 37.418 0.057 7.06 3.37 13.15
12/30/2022 10:45:00 PM 2.99 37.382 0.057 7.05 3.67 13.15
12/30/2022 11:00:00 PM 2.97 37.346 0.057 7.03 3.42 13.17
12/30/2022 11:15:00 PM 2.95 37.31 0.057 7.03 3.63 13.17
12/30/2022 11:30:00 PM 2.92 37.256 0.057 7.05 3.94 13.18
12/30/2022 11:45:00 PM 2.91 37.238 0.058 7.04 3.87 13.18
12/31/2022 12:00:00 AM 2.9 37.22 0.058 7.02 3.61 13.19
12/31/2022 12:15:00 AM 2.88 37.184 0.058 7.04 3.94 13.2
12/31/2022 12:30:00 AM 2.87 37.166 0.058 7.01 3.91 13.2
12/31/2022 12:45:00 AM 2.86 37.148 0.057 6.98 3.99 13.2
12/31/2022 1:00:00 AM 2.84 37.112 0.057 7.06 3.88 13.21
12/31/2022 1:15:00 AM 2.84 37.112 0.057 6.99 3.69 13.21
12/31/2022 1:30:00 AM 2.83 37.094 0.057 6.95 4.08 13.21
12/31/2022 1:45:00 AM 2.82 37.076 0.057 7 3.84 13.21
12/31/2022 2:00:00 AM 2.81 37.058 0.057 7.04 3.82 13.21
12/31/2022 2:15:00 AM 2.8 37.04 0.057 6.96 4.02 13.21
12/31/2022 2:30:00 AM 2.78 37.004 0.057 7.03 3.87 13.22
12/31/2022 2:45:00 AM 2.78 37.004 0.057 6.96 4.11 13.22
12/31/2022 3:00:00 AM 2.77 36.986 0.057 7 4.45 13.22
12/31/2022 3:15:00 AM 2.76 36.968 0.057 7.04 3.98 13.23
12/31/2022 3:30:00 AM 2.75 36.95 0.057 6.97 4.22 13.23
12/31/2022 3:45:00 AM 2.74 36.932 0.057 7.01 3.97 13.23
12/31/2022 4:00:00 AM 2.73 36.914 0.057 7 4.24 13.24
12/31/2022 4:15:00 AM 2.72 36.896 0.056 7.02 4.11 13.24
12/31/2022 4:30:00 AM 2.71 36.878 0.056 7.01 4.26 13.24
12/31/2022 4:45:00 AM 2.71 36.878 0.056 7.01 4.09 13.24
12/31/2022 5:00:00 AM 2.7 36.86 0.056 7.01 4.13 13.24
12/31/2022 5:15:00 AM 2.69 36.842 0.056 7 4.17 13.24
12/31/2022 5:30:00 AM 2.69 36.842 0.056 7 4.03 13.24
12/31/2022 5:45:00 AM 2.68 36.824 0.056 6.95 4.2 13.24
12/31/2022 6:00:00 AM 2.68 36.824 0.056 7.01 4.14 13.24
12/31/2022 6:15:00 AM 2.68 36.824 0.056 6.97 4.06 13.24
12/31/2022 6:30:00 AM 2.69 36.842 0.056 7 4.1 13.24
12/31/2022 6:45:00 AM 2.7 36.86 0.056 7.02 4.09 13.24
12/31/2022 7:00:00 AM 2.71 36.878 0.056 7.02 3.68 13.24
12/31/2022 7:15:00 AM 2.71 36.878 0.056 6.99 4 13.24
12/31/2022 7:30:00 AM 2.71 36.878 0.056 6.98 3.87 13.24
12/31/2022 7:45:00 AM 2.72 36.896 0.056 7.02 3.98 13.24
12/31/2022 8:00:00 AM 2.73 36.914 0.056 6.95 3.85 13.25
12/31/2022 8:15:00 AM 2.75 36.95 0.055 7.01 3.98 13.27
12/31/2022 8:30:00 AM 2.76 36.968 0.055 6.97 4.09 13.32
12/31/2022 8:45:00 AM 2.78 37.004 0.055 7.05 4 13.37
12/31/2022 9:00:00 AM 2.8 37.04 0.055 7.03 3.73 13.43
12/31/2022 9:15:00 AM 2.83 37.094 0.055 7.05 3.97 13.48
12/31/2022 9:30:00 AM 2.86 37.148 0.055 7.09 4 13.55
12/31/2022 9:45:00 AM 2.9 37.22 0.055 7.09 3.93 13.61
12/31/2022 10:00:00 AM 2.94 37.292 0.055 7.12 3.84 13.65
12/31/2022 10:15:00 AM 2.99 37.382 0.054 7.06 3.94 13.69
12/31/2022 10:30:00 AM 3.04 37.472 0.054 7.11 3.77 13.72
12/31/2022 10:45:00 AM 3.1 37.58 0.054 7.16 4.04 13.74
12/31/2022 11:00:00 AM 3.15 37.67 0.054 7.14 3.76 13.75
12/31/2022 11:15:00 AM 3.23 37.814 0.054 7.16 3.77 13.75
12/31/2022 11:30:00 AM 3.29 37.922 0.054 7.26 3.75 13.74
12/31/2022 11:45:00 AM 3.35 38.03 0.054 7.29 3.86 13.72
12/31/2022 12:00:00 PM 3.4 38.12 0.054 7.24 3.8 13.69
12/31/2022 12:15:00 PM 3.43 38.174 0.054 7.26 3.87 13.63
12/31/2022 12:30:00 PM 3.47 38.246 0.054 7.24 4.01 13.58
12/31/2022 12:45:00 PM 3.49 38.282 0.053 7.22 3.85 13.53
12/31/2022 1:00:00 PM 3.51 38.318 0.053 7.13 3.99 13.51
12/31/2022 1:15:00 PM 3.53 38.354 0.053 7.21 3.96 13.49
12/31/2022 1:30:00 PM 3.55 38.39 0.054 7.24 3.98 13.47
12/31/2022 1:45:00 PM 3.57 38.426 0.054 7.09 4.1 13.44
12/31/2022 2:00:00 PM 3.6 38.48 0.054 7.16 4.32 13.43
12/31/2022 2:15:00 PM 3.61 38.498 0.055 7.21 4.27 13.39
12/31/2022 2:30:00 PM 3.62 38.516 0.055 7.2 4.43 13.33
12/31/2022 2:45:00 PM 3.63 38.534 0.054 7.13 4.66 13.28
12/31/2022 3:00:00 PM 3.63 38.534 0.054 7.19 4.58 13.25
12/31/2022 3:15:00 PM 3.63 38.534 0.054 7.15 4.88 13.23
12/31/2022 3:30:00 PM 3.63 38.534 0.054 7.11 4.61 13.17
12/31/2022 3:45:00 PM 3.63 38.534 0.054 7.15 4.7 13.12
12/31/2022 4:00:00 PM 3.63 38.534 0.054 7.08 4.82 13.08
12/31/2022 4:15:00 PM 3.62 38.516 0.054 7.11 4.67 13.04
12/31/2022 4:30:00 PM 3.61 38.498 0.054 7.09 4.72 13
12/31/2022 4:45:00 PM 3.61 38.498 0.054 7.01 4.88 12.97
12/31/2022 5:00:00 PM 3.6 38.48 0.053 7.02 4.91 12.94
12/31/2022 5:15:00 PM 3.6 38.48 0.053 7.07 5.6 12.92
12/31/2022 5:30:00 PM 3.6 38.48 0.053 7.03 5.26 12.9
12/31/2022 5:45:00 PM 3.6 38.48 0.053 7.04 5.5 12.88
12/31/2022 6:00:00 PM 3.6 38.48 0.053 6.93 5.62 12.87
12/31/2022 6:15:00 PM 3.6 38.48 0.053 7 5.83 12.86
12/31/2022 6:30:00 PM 3.61 38.498 0.054 7.03 6 12.85
12/31/2022 6:45:00 PM 3.61 38.498 0.054 6.95 5.46 12.85
12/31/2022 7:00:00 PM 3.61 38.498 0.054 7.03 5.89 12.84
12/31/2022 7:15:00 PM 3.61 38.498 0.055 6.86 6.33 12.84
12/31/2022 7:30:00 PM 3.61 38.498 0.055 6.97 5.89 12.84
12/31/2022 7:45:00 PM 3.61 38.498 0.055 6.98 6.62 12.84
12/31/2022 8:00:00 PM 3.61 38.498 0.055 6.89 6.57 12.84
12/31/2022 8:15:00 PM 3.6 38.48 0.055 7.01 7.08 12.84
12/31/2022 8:30:00 PM 3.6 38.48 0.055 7 7.21 12.84
12/31/2022 8:45:00 PM 3.6 38.48 0.055 6.9 7.08 12.85
12/31/2022 9:00:00 PM 3.59 38.462 0.055 6.99 7.46 12.84
12/31/2022 9:15:00 PM 3.59 38.462 0.054 6.97 7.84 12.85
12/31/2022 9:30:00 PM 3.59 38.462 0.054 6.94 7.62 12.85
12/31/2022 9:45:00 PM 3.58 38.444 0.054 6.98 7.55 12.86
12/31/2022 10:00:00 PM 3.58 38.444 0.054 6.97 7.33 12.85
12/31/2022 10:15:00 PM 3.57 38.426 0.054 6.96 7.92 12.86
12/31/2022 10:30:00 PM 3.57 38.426 0.054 6.96 8.32 12.87
12/31/2022 10:45:00 PM 3.57 38.426 0.054 6.97 8.17 12.87
12/31/2022 11:00:00 PM 3.56 38.408 0.054 6.8 7.94 12.87
12/31/2022 11:15:00 PM 3.56 38.408 0.054 6.95 7.92 12.87
12/31/2022 11:30:00 PM 3.57 38.426 0.054 7 8.44 12.87
12/31/2022 11:45:00 PM 3.58 38.444 0.054 6.93 8.4 12.88
1/1/2023 12:00:00 AM 3.59 38.462 0.054 6.95 8.27 12.87
1/1/2023 12:15:00 AM 3.61 38.498 0.054 6.86 8.4 12.87
1/1/2023 12:30:00 AM 3.62 38.516 0.054 6.97 8.71 12.87
1/1/2023 12:45:00 AM 3.64 38.552 0.054 6.96 8.75 12.86
1/1/2023 1:00:00 AM 3.66 38.588 0.054 6.89 8.78 12.86
1/1/2023 1:15:00 AM 3.68 38.624 0.053 6.94 8.67 12.86
1/1/2023 1:30:00 AM 3.69 38.642 0.053 6.97 8.78 12.85
1/1/2023 1:45:00 AM 3.71 38.678 0.053 6.94 8.97 12.85
1/1/2023 2:00:00 AM 3.7 38.66 0.053 6.91 9.58 12.84
1/1/2023 2:15:00 AM 3.7 38.66 0.053 6.85 9.09 12.84
1/1/2023 2:30:00 AM 3.72 38.696 0.053 6.93 9.19 12.84
1/1/2023 2:45:00 AM 3.73 38.714 0.053 6.92 9.43 12.83
1/1/2023 3:00:00 AM 3.77 38.786 0.052 6.94 9.97 12.83
1/1/2023 3:15:00 AM 3.8 38.84 0.052 6.94 10.55 12.82
1/1/2023 3:30:00 AM 3.83 38.894 0.052 6.84 9.96 12.81
1/1/2023 3:45:00 AM 3.84 38.912 0.052 6.92 10.38 12.8
1/1/2023 4:00:00 AM 3.84 38.912 0.052 6.77 10.59 12.81
1/1/2023 4:15:00 AM 3.86 38.948 0.051 6.92 10.6 12.8
1/1/2023 4:30:00 AM 3.88 38.984 0.051 6.92 9.95 12.79
1/1/2023 4:45:00 AM 3.89 39.002 0.051 6.91 9.97 12.79
1/1/2023 5:00:00 AM 3.9 39.02 0.051 6.94 11.43 12.78
1/1/2023 5:15:00 AM 3.94 39.092 0.051 6.91 11.39 12.78
1/1/2023 5:30:00 AM 3.96 39.128 0.051 6.81 11.38 12.77
1/1/2023 5:45:00 AM 3.99 39.182 0.051 6.91 11.77 12.77
1/1/2023 6:00:00 AM 4.01 39.218 0.05 6.88 12.02 12.77
1/1/2023 6:15:00 AM 4.03 39.254 0.05 6.85 12.08 12.75
1/1/2023 6:30:00 AM 4.03 39.254 0.05 6.9 13.52 12.75
1/1/2023 6:45:00 AM 4.04 39.272 0.05 6.72 12.59 12.75
1/1/2023 7:00:00 AM 4.05 39.29 0.05 6.91 12.68 12.75
1/1/2023 7:15:00 AM 4.07 39.326 0.049 6.91 12.85 12.75
1/1/2023 7:30:00 AM 4.08 39.344 0.049 6.89 13.97 12.75
1/1/2023 7:45:00 AM 4.09 39.362 0.049 6.9 13.05 12.74
1/1/2023 8:00:00 AM 4.11 39.398 0.049 6.89 13.67 12.76
1/1/2023 8:15:00 AM 4.12 39.416 0.048 6.88 13.6 12.76
1/1/2023 8:30:00 AM 4.14 39.452 0.048 6.89 13.27 12.77
1/1/2023 8:45:00 AM 4.17 39.506 0.048 6.9 13.37 12.79
1/1/2023 9:00:00 AM 4.2 39.56 0.048 6.89 13.59 12.82
1/1/2023 9:15:00 AM 4.24 39.632 0.048 6.91 13.04 12.84
1/1/2023 9:30:00 AM 4.28 39.704 0.048 6.92 12.2 12.84
1/1/2023 9:45:00 AM 4.32 39.776 0.048 6.77 12.92 12.86
1/1/2023 10:00:00 AM 4.37 39.866 0.047 6.92 12.72 12.88
1/1/2023 10:15:00 AM 4.41 39.938 0.047 6.94 12.86 12.89
1/1/2023 10:30:00 AM 4.47 40.046 0.047 6.94 13 12.9
1/1/2023 10:45:00 AM 4.53 40.154 0.047 6.98 12.02 12.93
1/1/2023 11:00:00 AM 4.58 40.244 0.047 6.97 12.02 12.93
1/1/2023 11:15:00 AM 4.64 40.352 0.046 6.91 12.55 12.94
1/1/2023 11:30:00 AM 4.71 40.478 0.046 7.01 12.08 12.95
1/1/2023 11:45:00 AM 4.78 40.604 0.046 6.99 11.35 12.95
1/1/2023 12:00:00 PM 4.83 40.694 0.046 6.99 11.61 12.94
1/1/2023 12:15:00 PM 4.92 40.856 0.046 7.03 11.43 12.93
1/1/2023 12:30:00 PM 5.01 41.018 0.046 7.04 11.85 12.91
1/1/2023 12:45:00 PM 5.03 41.054 0.046 7.02 10.75 12.86
1/1/2023 1:00:00 PM 5.03 41.054 0.045 7.03 11.43 12.81
1/1/2023 1:15:00 PM 5.05 41.09 0.045 6.97 11.04 12.8
1/1/2023 1:30:00 PM 5.09 41.162 0.045 7.02 11.22 12.78
1/1/2023 1:45:00 PM 5.15 41.27 0.045 7.05 11.15 12.76
1/1/2023 2:00:00 PM 5.2 41.36 0.045 6.93 11.09 12.74
1/1/2023 2:15:00 PM 5.25 41.45 0.045 7.05 11.69 12.72
1/1/2023 2:30:00 PM 5.29 41.522 0.045 7.04 10.8 12.71
1/1/2023 2:45:00 PM 5.32 41.576 0.045 7.03 10.56 12.68
1/1/2023 3:00:00 PM 5.36 41.648 0.045 7.02 11.09 12.64
1/1/2023 3:15:00 PM 5.38 41.684 0.045 6.98 11.43 12.6
1/1/2023 3:30:00 PM 5.39 41.702 0.045 7.03 11.54 12.57
1/1/2023 3:45:00 PM 5.4 41.72 0.045 6.98 11.87 12.53
1/1/2023 4:00:00 PM 5.41 41.738 0.045 6.98 11.98 12.5
1/1/2023 4:15:00 PM 5.43 41.774 0.045 6.97 11.69 12.46
1/1/2023 4:30:00 PM 5.44 41.792 0.045 6.92 12.19 12.43
1/1/2023 4:45:00 PM 5.45 41.81 0.045 6.9 11.45 12.4
1/1/2023 5:00:00 PM 5.45 41.81 0.045 6.82 11.15 12.37
1/1/2023 5:15:00 PM 5.45 41.81 0.045 6.94 11.11 12.36
1/1/2023 5:30:00 PM 5.45 41.81 0.045 6.92 12.06 12.34
1/1/2023 5:45:00 PM 5.45 41.81 0.045 6.91 11.28 12.33
1/1/2023 6:00:00 PM 5.44 41.792 0.045 6.82 12.33 12.33
1/1/2023 6:15:00 PM 5.44 41.792 0.045 6.9 11.38 12.32
1/1/2023 6:30:00 PM 5.44 41.792 0.045 6.89 11.77 12.32
1/1/2023 6:45:00 PM 5.43 41.774 0.045 6.69 12.45 12.33
1/1/2023 7:00:00 PM 5.43 41.774 0.045 6.87 11.74 12.33
1/1/2023 7:15:00 PM 5.42 41.756 0.045 6.83 11.52 12.33
1/1/2023 7:30:00 PM 5.42 41.756 0.045 6.89 12.03 12.33
1/1/2023 7:45:00 PM 5.41 41.738 0.045 6.81 11.28 12.34
1/1/2023 8:00:00 PM 5.4 41.72 0.045 6.87 11.66 12.33
1/1/2023 8:15:00 PM 5.39 41.702 0.045 6.84 11.09 12.34
1/1/2023 8:30:00 PM 5.39 41.702 0.045 6.9 11.62 12.34
1/1/2023 8:45:00 PM 5.38 41.684 0.045 6.76 10.24 12.35
1/1/2023 9:00:00 PM 5.37 41.666 0.045 6.84 11.22 12.35
1/1/2023 9:15:00 PM 5.36 41.648 0.045 6.88 11.22 12.36
1/1/2023 9:30:00 PM 5.36 41.648 0.045 6.87 10.59 12.37
1/1/2023 9:45:00 PM 5.35 41.63 0.045 6.86 10.75 12.36
1/1/2023 10:00:00 PM 5.34 41.612 0.045 6.87 10.3 12.37
1/1/2023 10:15:00 PM 5.32 41.576 0.045 6.84 10.5 12.37
1/1/2023 10:30:00 PM 5.31 41.558 0.045 6.88 10.35 12.37
1/1/2023 10:45:00 PM 5.3 41.54 0.045 6.88 10.19 12.38
1/1/2023 11:00:00 PM 5.29 41.522 0.045 6.81 9.96 12.38
1/1/2023 11:15:00 PM 5.29 41.522 0.045 6.87 10.24 12.38
1/1/2023 11:30:00 PM 5.28 41.504 0.045 6.79 9.34 12.38
1/1/2023 11:45:00 PM 5.28 41.504 0.045 6.86 10.04 12.38
1/2/2023 12:00:00 AM 5.27 41.486 0.045 6.83 9.81 12.38
1/2/2023 12:15:00 AM 5.27 41.486 0.045 6.82 10.13 12.39
1/2/2023 12:30:00 AM 5.27 41.486 0.045 6.77 9.68 12.39
1/2/2023 12:45:00 AM 5.27 41.486 0.045 6.81 9.43 12.39
1/2/2023 1:00:00 AM 5.27 41.486 0.045 6.77 9.23 12.39
1/2/2023 1:15:00 AM 5.27 41.486 0.045 6.79 9.87 12.39
1/2/2023 1:30:00 AM 5.27 41.486 0.045 6.85 9.33 12.39
1/2/2023 1:45:00 AM 5.26 41.468 0.045 6.83 9.26 12.39
1/2/2023 2:00:00 AM 5.26 41.468 0.046 6.77 9.1 12.39
1/2/2023 2:15:00 AM 5.26 41.468 0.046 6.85 9.02 12.4
1/2/2023 2:30:00 AM 5.26 41.468 0.045 6.85 9 12.4
1/2/2023 2:45:00 AM 5.26 41.468 0.045 6.8 9.24 12.4
1/2/2023 3:00:00 AM 5.26 41.468 0.045 6.79 8.47 12.4
1/2/2023 3:15:00 AM 5.26 41.468 0.045 6.78 8.59 12.4
1/2/2023 3:30:00 AM 5.25 41.45 0.045 6.85 8.76 12.41
1/2/2023 3:45:00 AM 5.25 41.45 0.045 6.81 8.54 12.41
1/2/2023 4:00:00 AM 5.24 41.432 0.045 6.81 8.74 12.41
1/2/2023 4:15:00 AM 5.24 41.432 0.045 6.85 8.7 12.41
1/2/2023 4:30:00 AM 5.23 41.414 0.045 6.77 8.5 12.41
1/2/2023 4:45:00 AM 5.23 41.414 0.045 6.85 7.88 12.41
1/2/2023 5:00:00 AM 5.22 41.396 0.045 6.82 8.62 12.41
1/2/2023 5:15:00 AM 5.23 41.414 0.045 6.78 7.93 12.42
1/2/2023 5:30:00 AM 5.23 41.414 0.045 6.83 8.21 12.42
1/2/2023 5:45:00 AM 5.22 41.396 0.045 6.8 7.86 12.42
1/2/2023 6:00:00 AM 5.22 41.396 0.045 6.81 7.59 12.42
1/2/2023 6:15:00 AM 5.21 41.378 0.045 6.8 8.07 12.43
1/2/2023 6:30:00 AM 5.21 41.378 0.045 6.83 7.22 12.43
1/2/2023 6:45:00 AM 5.2 41.36 0.045 6.75 8.26 12.43
1/2/2023 7:00:00 AM 5.19 41.342 0.045 6.8 7.77 12.44
1/2/2023 7:15:00 AM 5.18 41.324 0.045 6.81 7.58 12.44
1/2/2023 7:30:00 AM 5.17 41.306 0.045 6.72 7.43 12.43
1/2/2023 7:45:00 AM 5.17 41.306 0.045 6.84 7.26 12.44
1/2/2023 8:00:00 AM 5.16 41.288 0.045 6.82 7.19 12.46
1/2/2023 8:15:00 AM 5.17 41.306 0.045 6.77 7.26 12.47
1/2/2023 8:30:00 AM 5.17 41.306 0.045 6.84 6.93 12.5
1/2/2023 8:45:00 AM 5.19 41.342 0.045 6.85 6.65 12.54
1/2/2023 9:00:00 AM 5.2 41.36 0.045 6.85 6.75 12.59
1/2/2023 9:15:00 AM 5.23 41.414 0.045 6.86 6.34 12.63
1/2/2023 9:30:00 AM 5.24 41.432 0.045 6.87 6.42 12.67
1/2/2023 9:45:00 AM 5.27 41.486 0.045 6.87 6.17 12.7
1/2/2023 10:00:00 AM 5.29 41.522 0.045 6.9 6.58 12.73
1/2/2023 10:15:00 AM 5.32 41.576 0.045 6.92 6.09 12.75
1/2/2023 10:30:00 AM 5.35 41.63 0.045 6.86 5.93 12.77
1/2/2023 10:45:00 AM 5.38 41.684 0.045 6.95 5.64 12.78
1/2/2023 11:00:00 AM 5.4 41.72 0.045 6.96 5.88 12.77
1/2/2023 11:15:00 AM 5.45 41.81 0.045 6.96 5.42 12.78
1/2/2023 11:30:00 AM 5.5 41.9 0.045 6.95 5.51 12.79
1/2/2023 11:45:00 AM 5.56 42.008 0.045 6.98 5.38 12.79
1/2/2023 12:00:00 PM 5.62 42.116 0.045 7.01 5.79 12.77
1/2/2023 12:15:00 PM 5.68 42.224 0.045 6.95 5.68 12.75
1/2/2023 12:30:00 PM 5.74 42.332 0.045 7.02 5.48 12.72
1/2/2023 12:45:00 PM 5.79 42.422 0.045 7.01 5.44 12.71
1/2/2023 1:00:00 PM 5.85 42.53 0.045 6.98 5.43 12.7
1/2/2023 1:15:00 PM 5.9 42.62 0.045 7.03 5.88 12.69
1/2/2023 1:30:00 PM 5.95 42.71 0.045 7 5.37 12.66
1/2/2023 1:45:00 PM 6 42.8 0.045 7.02 5.57 12.63
1/2/2023 2:00:00 PM 6.04 42.872 0.045 7.01 5.89 12.61
1/2/2023 2:15:00 PM 6.08 42.944 0.045 7.02 5.55 12.58
1/2/2023 2:30:00 PM 6.12 43.016 0.045 7.02 5.52 12.54
1/2/2023 2:45:00 PM 6.15 43.07 0.045 7.03 5.47 12.53
1/2/2023 3:00:00 PM 6.18 43.124 0.045 7.02 5.58 12.51
1/2/2023 3:15:00 PM 6.2 43.16 0.045 7.02 5.69 12.47
1/2/2023 3:30:00 PM 6.22 43.196 0.045 7.02 5.81 12.44
1/2/2023 3:45:00 PM 6.25 43.25 0.045 6.97 5.72 12.41
1/2/2023 4:00:00 PM 6.27 43.286 0.045 7.01 5.71 12.37
1/2/2023 4:15:00 PM 6.28 43.304 0.045 6.99 5.51 12.33
1/2/2023 4:30:00 PM 6.3 43.34 0.045 6.97 6.08 12.28
1/2/2023 4:45:00 PM 6.31 43.358 0.045 6.93 5.98 12.23
1/2/2023 5:00:00 PM 6.31 43.358 0.045 6.93 6.14 12.2
1/2/2023 5:15:00 PM 6.31 43.358 0.045 6.94 5.98 12.17
1/2/2023 5:30:00 PM 6.31 43.358 0.046 6.92 6.06 12.14
1/2/2023 5:45:00 PM 6.31 43.358 0.046 6.92 5.89 12.13
1/2/2023 6:00:00 PM 6.3 43.34 0.046 6.76 6.08 12.12
1/2/2023 6:15:00 PM 6.29 43.322 0.046 6.91 6.38 12.11
1/2/2023 6:30:00 PM 6.28 43.304 0.046 6.9 6.05 12.11
1/2/2023 6:45:00 PM 6.27 43.286 0.046 6.87 5.97 12.1
1/2/2023 7:00:00 PM 6.26 43.268 0.046 6.88 6.4 12.11
1/2/2023 7:15:00 PM 6.24 43.232 0.046 6.75 6.48 12.11
1/2/2023 7:30:00 PM 6.22 43.196 0.046 6.85 6.25 12.11
1/2/2023 7:45:00 PM 6.21 43.178 0.046 6.87 6.34 12.12
1/2/2023 8:00:00 PM 6.19 43.142 0.046 6.89 6.1 12.12
1/2/2023 8:15:00 PM 6.17 43.106 0.046 6.88 6.12 12.13
1/2/2023 8:30:00 PM 6.16 43.088 0.046 6.77 6.04 12.14
1/2/2023 8:45:00 PM 6.14 43.052 0.046 6.88 5.93 12.14
1/2/2023 9:00:00 PM 6.12 43.016 0.046 6.84 6.12 12.15
1/2/2023 9:15:00 PM 6.11 42.998 0.046 6.88 6.45 12.15
1/2/2023 9:30:00 PM 6.09 42.962 0.046 6.8 6.19 12.16
1/2/2023 9:45:00 PM 6.08 42.944 0.046 6.88 6.25 12.17
1/2/2023 10:00:00 PM 6.06 42.908 0.046 6.7 6.27 12.17
1/2/2023 10:15:00 PM 6.05 42.89 0.046 6.88 6.3 12.17
1/2/2023 10:30:00 PM 6.03 42.854 0.046 6.79 6 12.18
1/2/2023 10:45:00 PM 6.02 42.836 0.046 6.86 6.24 12.18
1/2/2023 11:00:00 PM 6 42.8 0.047 6.85 6.08 12.18
1/2/2023 11:15:00 PM 5.99 42.782 0.047 6.83 6.37 12.19
1/2/2023 11:30:00 PM 5.98 42.764 0.047 6.86 6.27 12.19
1/2/2023 11:45:00 PM 5.97 42.746 0.047 6.84 5.95 12.2
1/3/2023 12:00:00 AM 5.96 42.728 0.047 6.8 6.16 12.2
1/3/2023 12:15:00 AM 5.95 42.71 0.047 6.85 6.32 12.2
1/3/2023 12:30:00 AM 5.94 42.692 0.047 6.86 6.14 12.2
1/3/2023 12:45:00 AM 5.94 42.692 0.047 6.77 5.97 12.2
1/3/2023 1:00:00 AM 5.93 42.674 0.047 6.86 6.34 12.2
1/3/2023 1:15:00 AM 5.93 42.674 0.047 6.83 5.77 12.2
1/3/2023 1:30:00 AM 5.92 42.656 0.047 6.84 6.09 12.2
1/3/2023 1:45:00 AM 5.91 42.638 0.047 6.85 5.81 12.2
1/3/2023 2:00:00 AM 5.91 42.638 0.047 6.85 5.98 12.2
1/3/2023 2:15:00 AM 5.9 42.62 0.047 6.83 6.1 12.2
1/3/2023 2:30:00 AM 5.9 42.62 0.047 6.82 5.91 12.2
1/3/2023 2:45:00 AM 5.89 42.602 0.047 6.85 5.81 12.2
1/3/2023 3:00:00 AM 5.89 42.602 0.047 6.84 6.13 12.2
1/3/2023 3:15:00 AM 5.89 42.602 0.047 6.85 5.94 12.2
1/3/2023 3:30:00 AM 5.89 42.602 0.047 6.76 6.02 12.2
1/3/2023 3:45:00 AM 5.89 42.602 0.047 6.85 5.77 12.2
1/3/2023 4:00:00 AM 5.88 42.584 0.047 6.85 5.85 12.21
1/3/2023 4:15:00 AM 5.88 42.584 0.047 6.8 5.62 12.21
1/3/2023 4:30:00 AM 5.88 42.584 0.047 6.86 5.63 12.2
1/3/2023 4:45:00 AM 5.88 42.584 0.047 6.84 5.89 12.2
1/3/2023 5:00:00 AM 5.88 42.584 0.047 6.81 5.66 12.2
1/3/2023 5:15:00 AM 5.87 42.566 0.047 6.83 5.57 12.2
1/3/2023 5:30:00 AM 5.87 42.566 0.047 6.85 6.48 12.19
1/3/2023 5:45:00 AM 5.87 42.566 0.047 6.83 5.64 12.19
1/3/2023 6:00:00 AM 5.87 42.566 0.047 6.7 5.78 12.19
1/3/2023 6:15:00 AM 5.87 42.566 0.047 6.83 6.02 12.18
1/3/2023 6:30:00 AM 5.87 42.566 0.047 6.86 5.56 12.18
1/3/2023 6:45:00 AM 5.87 42.566 0.047 6.86 5.76 12.18
1/3/2023 7:00:00 AM 5.87 42.566 0.047 6.84 5.79 12.18
1/3/2023 7:15:00 AM 5.87 42.566 0.047 6.79 5.71 12.17
1/3/2023 7:30:00 AM 5.87 42.566 0.047 6.81 5.67 12.18
1/3/2023 7:45:00 AM 5.86 42.548 0.047 6.86 5.72 12.17
1/3/2023 8:00:00 AM 5.86 42.548 0.047 6.81 5.93 12.18
1/3/2023 8:15:00 AM 5.86 42.548 0.047 6.86 6.12 12.18
1/3/2023 8:30:00 AM 5.86 42.548 0.047 6.67 6.98 12.18
1/3/2023 8:45:00 AM 5.86 42.548 0.047 6.88 8.91 12.18
1/3/2023 9:00:00 AM 5.86 42.548 0.047 6.83 9.98 12.19
1/3/2023 9:15:00 AM 5.86 42.548 0.047 6.82 10.23 12.2
1/3/2023 9:30:00 AM 5.86 42.548 0.047 6.79 9.96 12.22
1/3/2023 9:45:00 AM 5.87 42.566 0.047 6.85 10.84 12.23
1/3/2023 10:00:00 AM 5.87 42.566 0.047 6.76 12.47 12.25
1/3/2023 10:15:00 AM 5.88 42.584 0.048 6.88 13.54 12.26
1/3/2023 10:30:00 AM 5.88 42.584 0.048 6.85 13.42 12.27
1/3/2023 10:45:00 AM 5.89 42.602 0.048 6.87 12.54 12.27
1/3/2023 11:00:00 AM 5.9 42.62 0.048 6.87 14.22 12.27
1/3/2023 11:15:00 AM 5.9 42.62 0.048 6.85 14.82 12.28
1/3/2023 11:30:00 AM 5.91 42.638 0.049 6.87 14.55 12.28
1/3/2023 11:45:00 AM 5.92 42.656 0.049 6.88 14.99 12.28
1/3/2023 12:00:00 PM 5.92 42.656 0.05 6.87 16.02 12.29
1/3/2023 12:15:00 PM 5.93 42.674 0.05 6.89 15.04 12.29
1/3/2023 12:30:00 PM 5.95 42.71 0.05 6.87 18.4 12.28
1/3/2023 12:45:00 PM 5.96 42.728 0.05 6.89 19.26 12.28
1/3/2023 1:00:00 PM 5.98 42.764 0.05 6.8 22.05 12.26
1/3/2023 1:15:00 PM 5.99 42.782 0.051 6.88 20.74 12.24
1/3/2023 1:30:00 PM 6 42.8 0.051 6.86 22.48 12.23
1/3/2023 1:45:00 PM 6.02 42.836 0.051 6.87 22.02 12.21
1/3/2023 2:00:00 PM 6.05 42.89 0.051 6.76 21.86 12.21
1/3/2023 2:15:00 PM 6.07 42.926 0.051 6.87 23.18 12.19
1/3/2023 2:30:00 PM 6.09 42.962 0.051 6.88 21.3 12.17
1/3/2023 2:45:00 PM 6.11 42.998 0.05 6.85 20.11 12.16
1/3/2023 3:00:00 PM 6.13 43.034 0.05 6.84 25.07 12.13
1/3/2023 3:15:00 PM 6.15 43.07 0.05 6.81 25.22 12.11
1/3/2023 3:30:00 PM 6.16 43.088 0.05 6.86 23.21 12.09
1/3/2023 3:45:00 PM 6.18 43.124 0.05 6.8 24.88 12.07
1/3/2023 4:00:00 PM 6.19 43.142 0.05 6.82 27.21 12.05
1/3/2023 4:15:00 PM 6.2 43.16 0.049 6.82 25.69 12.03
1/3/2023 4:30:00 PM 6.2 43.16 0.049 6.8 26.76 12.02
1/3/2023 4:45:00 PM 6.21 43.178 0.049 6.67 21.86 12.01
1/3/2023 5:00:00 PM 6.22 43.196 0.049 6.82 25.94 12
1/3/2023 5:15:00 PM 6.23 43.214 0.049 6.79 27.36 11.99
1/3/2023 5:30:00 PM 6.24 43.232 0.049 6.79 25.78 11.98
1/3/2023 5:45:00 PM 6.26 43.268 0.048 6.77 26.45 11.97
1/3/2023 6:00:00 PM 6.27 43.286 0.048 6.77 25.09 11.97
1/3/2023 6:15:00 PM 6.28 43.304 0.048 6.78 23.3 11.96
1/3/2023 6:30:00 PM 6.3 43.34 0.048 6.79 24.67 11.96
1/3/2023 6:45:00 PM 6.31 43.358 0.048 6.76 19.03 11.95
1/3/2023 7:00:00 PM 6.32 43.376 0.048 6.77 23.47 11.95
1/3/2023 7:15:00 PM 6.33 43.394 0.048 6.78 21.47 11.94
1/3/2023 7:30:00 PM 6.35 43.43 0.047 6.78 21.87 11.93
1/3/2023 7:45:00 PM 6.36 43.448 0.047 6.77 21.37 11.93
1/3/2023 8:00:00 PM 6.37 43.466 0.047 6.78 18.33 11.93
1/3/2023 8:15:00 PM 6.38 43.484 0.047 6.74 21.23 11.93
1/3/2023 8:30:00 PM 6.4 43.52 0.047 6.78 18.91 11.92
1/3/2023 8:45:00 PM 6.41 43.538 0.047 6.77 19.03 11.91
1/3/2023 9:00:00 PM 6.42 43.556 0.047 6.77 20.54 11.91
1/3/2023 9:15:00 PM 6.44 43.592 0.047 6.78 19.21 11.91
1/3/2023 9:30:00 PM 6.45 43.61 0.047 6.78 18.71 11.9
1/3/2023 9:45:00 PM 6.47 43.646 0.047 6.77 18.57 11.9
1/3/2023 10:00:00 PM 6.49 43.682 0.047 6.77 17.65 11.89
1/3/2023 10:15:00 PM 6.5 43.7 0.047 6.75 18.13 11.89
1/3/2023 10:30:00 PM 6.52 43.736 0.046 6.72 18.37 11.88
1/3/2023 10:45:00 PM 6.54 43.772 0.046 6.76 18.71 11.88
1/3/2023 11:00:00 PM 6.55 43.79 0.046 6.75 17.23 11.87
1/3/2023 11:15:00 PM 6.57 43.826 0.046 6.73 17.45 11.87
1/3/2023 11:30:00 PM 6.59 43.862 0.046 6.68 16.15 11.86
1/3/2023 11:45:00 PM 6.61 43.898 0.046 6.74 15.55 11.86
1/4/2023 12:00:00 AM 6.62 43.916 0.046 6.77 16.8 11.85
1/4/2023 12:15:00 AM 6.64 43.952 0.046 6.75 17.01 11.85
1/4/2023 12:30:00 AM 6.66 43.988 0.046 6.65 15.32 11.84
1/4/2023 12:45:00 AM 6.68 44.024 0.046 6.76 16.18 11.84
1/4/2023 1:00:00 AM 6.69 44.042 0.046 6.77 16.39 11.83
1/4/2023 1:15:00 AM 6.71 44.078 0.046 6.63 16.28 11.82
1/4/2023 1:30:00 AM 6.73 44.114 0.046 6.77 15.49 11.82
1/4/2023 1:45:00 AM 6.74 44.132 0.046 6.75 15.03 11.82
1/4/2023 2:00:00 AM 6.76 44.168 0.046 6.61 15.31 11.81
1/4/2023 2:15:00 AM 6.77 44.186 0.046 6.76 14.5 11.81
1/4/2023 2:30:00 AM 6.79 44.222 0.045 6.76 14.95 11.8
1/4/2023 2:45:00 AM 6.8 44.24 0.045 6.75 14.42 11.81
1/4/2023 3:00:00 AM 6.81 44.258 0.045 6.66 14.82 11.8
1/4/2023 3:15:00 AM 6.83 44.294 0.045 6.71 14.49 11.8
1/4/2023 3:30:00 AM 6.84 44.312 0.045 6.76 13.68 11.79
1/4/2023 3:45:00 AM 6.85 44.33 0.045 6.69 13.49 11.79
1/4/2023 4:00:00 AM 6.87 44.366 0.045 6.71 14.53 11.79
1/4/2023 4:15:00 AM 6.88 44.384 0.045 6.77 13.68 11.78
1/4/2023 4:30:00 AM 6.9 44.42 0.045 6.75 13.86 11.78
1/4/2023 4:45:00 AM 6.91 44.438 0.045 6.76 13.63 11.78
1/4/2023 5:00:00 AM 6.93 44.474 0.045 6.6 12.7 11.77
1/4/2023 5:15:00 AM 6.94 44.492 0.045 6.77 12.69 11.77
1/4/2023 5:30:00 AM 6.96 44.528 0.045 6.75 13.07 11.77
1/4/2023 5:45:00 AM 6.97 44.546 0.045 6.71 12.99 11.76
1/4/2023 6:00:00 AM 6.99 44.582 0.045 6.75 12.99 11.76
1/4/2023 6:15:00 AM 7 44.6 0.045 6.76 12.37 11.76
1/4/2023 6:30:00 AM 7.01 44.618 0.045 6.72 13.19 11.75
1/4/2023 6:45:00 AM 7.02 44.636 0.045 6.74 12.11 11.75
1/4/2023 7:00:00 AM 7.03 44.654 0.045 6.73 12.1 11.75
1/4/2023 7:15:00 AM 7.05 44.69 0.045 6.61 11.62 11.74
1/4/2023 7:30:00 AM 7.06 44.708 0.045 6.76 11.9 11.75
1/4/2023 7:45:00 AM 7.07 44.726 0.045 6.75 11.79 11.74
1/4/2023 8:00:00 AM 7.08 44.744 0.045 6.76 11.62 11.74
1/4/2023 8:15:00 AM 7.09 44.762 0.045 6.64 11.19 11.75
1/4/2023 8:30:00 AM 7.1 44.78 0.045 6.75 10.83 11.76
1/4/2023 8:45:00 AM 7.12 44.816 0.045 6.73 11.38 11.77
1/4/2023 9:00:00 AM 7.14 44.852 0.045 6.77 10.5 11.79
1/4/2023 9:15:00 AM 7.16 44.888 0.045 6.65 9.94 11.82
1/4/2023 9:30:00 AM 7.18 44.924 0.045 6.78 10.12 11.84
1/4/2023 9:45:00 AM 7.21 44.978 0.045 6.79 9.95 11.87
1/4/2023 10:00:00 AM 7.24 45.032 0.044 6.79 9.89 11.89
1/4/2023 10:15:00 AM 7.27 45.086 0.044 6.81 9.75 11.91
1/4/2023 10:30:00 AM 7.31 45.158 0.044 6.79 9.98 11.93
1/4/2023 10:45:00 AM 7.35 45.23 0.044 6.85 9.45 11.94
1/4/2023 11:00:00 AM 7.38 45.284 0.044 6.84 9.35 11.94
1/4/2023 11:15:00 AM 7.42 45.356 0.044 6.77 9.67 11.94
1/4/2023 11:30:00 AM 7.45 45.41 0.044 6.85 9.07 11.93
1/4/2023 11:45:00 AM 7.5 45.5 0.044 6.85 9.07 11.93
1/4/2023 12:00:00 PM 7.53 45.554 0.044 6.7 8.92 11.91
1/4/2023 12:15:00 PM 7.58 45.644 0.044 6.85 9.09 11.9
1/4/2023 12:30:00 PM 7.61 45.698 0.044 6.9 8.97 11.88
1/4/2023 12:45:00 PM 7.64 45.752 0.044 6.89 9.22 11.85
1/4/2023 1:00:00 PM 7.66 45.788 0.044 6.88 9.36 11.83
1/4/2023 1:15:00 PM 7.69 45.842 0.044 6.87 9.3 11.81
1/4/2023 1:30:00 PM 7.72 45.896 0.044 6.87 9.16 11.78
1/4/2023 1:45:00 PM 7.75 45.95 0.044 6.82 8.95 11.74
1/4/2023 2:00:00 PM 7.79 46.022 0.044 6.88 8.9 11.73
1/4/2023 2:15:00 PM 7.81 46.058 0.044 6.86 8.93 11.7
1/4/2023 2:30:00 PM 7.83 46.094 0.044 6.87 8.6 11.68
1/4/2023 2:45:00 PM 7.84 46.112 0.044 6.81 8.75 11.66
1/4/2023 3:00:00 PM 7.86 46.148 0.044 6.85 8.99 11.65
1/4/2023 3:15:00 PM 7.88 46.184 0.044 6.88 9.05 11.64
1/4/2023 3:30:00 PM 7.89 46.202 0.044 6.87 8.91 11.61
1/4/2023 3:45:00 PM 7.9 46.22 0.044 6.86 8.75 11.6
1/4/2023 4:00:00 PM 7.91 46.238 0.044 6.85 9.4 11.58
1/4/2023 4:15:00 PM 7.91 46.238 0.044 6.85 8.48 11.56
1/4/2023 4:30:00 PM 7.91 46.238 0.044 6.83 8.74 11.55
1/4/2023 4:45:00 PM 7.91 46.238 0.044 6.79 9.11 11.54
1/4/2023 5:00:00 PM 7.91 46.238 0.044 6.73 9.07 11.52
1/4/2023 5:15:00 PM 7.91 46.238 0.044 6.84 8.58 11.5
1/4/2023 5:30:00 PM 7.91 46.238 0.044 6.83 8.87 11.49
1/4/2023 5:45:00 PM 7.92 46.256 0.044 6.8 9.22 11.48
1/4/2023 6:00:00 PM 7.92 46.256 0.044 6.82 8.79 11.47
1/4/2023 6:15:00 PM 7.92 46.256 0.044 6.78 9.12 11.47
1/4/2023 6:30:00 PM 7.92 46.256 0.045 6.83 8.9 11.47
1/4/2023 6:45:00 PM 7.91 46.238 0.045 6.77 8.74 11.47
1/4/2023 7:00:00 PM 7.91 46.238 0.045 6.79 8.88 11.47
1/4/2023 7:15:00 PM 7.91 46.238 0.045 6.82 8.88 11.47
1/4/2023 7:30:00 PM 7.9 46.22 0.045 6.81 9.1 11.47
1/4/2023 7:45:00 PM 7.88 46.184 0.045 6.8 9.3 11.47
1/4/2023 8:00:00 PM 7.87 46.166 0.045 6.75 9.07 11.48
1/4/2023 8:15:00 PM 7.85 46.13 0.045 6.81 9.14 11.48
1/4/2023 8:30:00 PM 7.84 46.112 0.045 6.78 9.43 11.48
1/4/2023 8:45:00 PM 7.83 46.094 0.045 6.75 8.83 11.49
1/4/2023 9:00:00 PM 7.83 46.094 0.045 6.79 9.13 11.49
1/4/2023 9:15:00 PM 7.82 46.076 0.045 6.81 9.11 11.49
1/4/2023 9:30:00 PM 7.81 46.058 0.045 6.79 9.09 11.49
1/4/2023 9:45:00 PM 7.8 46.04 0.045 6.77 8.46 11.5
1/4/2023 10:00:00 PM 7.79 46.022 0.045 6.8 8.66 11.5
1/4/2023 10:15:00 PM 7.78 46.004 0.045 6.78 8.9 11.5
1/4/2023 10:30:00 PM 7.77 45.986 0.045 6.8 8.5 11.51
1/4/2023 10:45:00 PM 7.77 45.986 0.045 6.78 8.54 11.51
1/4/2023 11:00:00 PM 7.78 46.004 0.045 6.72 8.59 11.52
1/4/2023 11:15:00 PM 7.78 46.004 0.045 6.65 8.77 11.52
1/4/2023 11:30:00 PM 7.77 45.986 0.045 6.82 8.56 11.52
1/4/2023 11:45:00 PM 7.76 45.968 0.045 6.81 9.4 11.53
1/5/2023 12:00:00 AM 7.75 45.95 0.045 6.64 9.79 11.54
1/5/2023 12:15:00 AM 7.75 45.95 0.045 6.72 9.42 11.54
1/5/2023 12:30:00 AM 7.73 45.914 0.045 6.76 9 11.55
1/5/2023 12:45:00 AM 7.7 45.86 0.045 6.81 9.14 11.55
1/5/2023 1:00:00 AM 7.66 45.788 0.045 6.83 9.03 11.56
1/5/2023 1:15:00 AM 7.63 45.734 0.045 6.8 9.3 11.57
1/5/2023 1:30:00 AM 7.59 45.662 0.045 6.75 8.89 11.58
1/5/2023 1:45:00 AM 7.55 45.59 0.045 6.8 8.9 11.59
1/5/2023 2:00:00 AM 7.51 45.518 0.045 6.81 8.53 11.6
1/5/2023 2:15:00 AM 7.46 45.428 0.045 6.72 8.3 11.62
1/5/2023 2:30:00 AM 7.41 45.338 0.045 6.8 8.33 11.64
1/5/2023 2:45:00 AM 7.36 45.248 0.045 6.73 8.28 11.66
1/5/2023 3:00:00 AM 7.32 45.176 0.045 6.78 8.12 11.67
1/5/2023 3:15:00 AM 7.26 45.068 0.045 6.79 8.62 11.69
1/5/2023 3:30:00 AM 7.21 44.978 0.045 6.78 8.18 11.71
1/5/2023 3:45:00 AM 7.16 44.888 0.045 6.61 8.22 11.72
1/5/2023 4:00:00 AM 7.11 44.798 0.045 6.74 8.04 11.74
1/5/2023 4:15:00 AM 7.05 44.69 0.045 6.75 8.39 11.75
1/5/2023 4:30:00 AM 7 44.6 0.045 6.78 8.27 11.77
1/5/2023 4:45:00 AM 6.95 44.51 0.045 6.78 8 11.79
1/5/2023 5:00:00 AM 6.89 44.402 0.045 6.71 8.29 11.81
1/5/2023 5:15:00 AM 6.84 44.312 0.045 6.77 7.7 11.82
1/5/2023 5:30:00 AM 6.79 44.222 0.045 6.79 7.73 11.85
1/5/2023 5:45:00 AM 6.74 44.132 0.045 6.75 8.41 11.86
1/5/2023 6:00:00 AM 6.7 44.06 0.045 6.61 7.68 11.89
1/5/2023 6:15:00 AM 6.65 43.97 0.045 6.71 8.01 11.9
1/5/2023 6:30:00 AM 6.62 43.916 0.045 6.77 7.84 11.91
1/5/2023 6:45:00 AM 6.58 43.844 0.045 6.74 7.51 11.93
1/5/2023 7:00:00 AM 6.54 43.772 0.045 6.77 7.68 11.94
1/5/2023 7:15:00 AM 6.5 43.7 0.045 6.76 7.26 11.95
1/5/2023 7:30:00 AM 6.47 43.646 0.045 6.74 7.39 11.97
1/5/2023 7:45:00 AM 6.44 43.592 0.045 6.77 7.35 11.99
1/5/2023 8:00:00 AM 6.41 43.538 0.045 6.77 7.06 12
1/5/2023 8:15:00 AM 6.39 43.502 0.045 6.76 6.87 12.04
1/5/2023 8:30:00 AM 6.37 43.466 0.045 6.76 6.92 12.09
1/5/2023 8:45:00 AM 6.36 43.448 0.045 6.78 7.06 12.13
1/5/2023 9:00:00 AM 6.36 43.448 0.045 6.8 6.64 12.18
1/5/2023 9:15:00 AM 6.36 43.448 0.045 6.82 6.26 12.22
1/5/2023 9:30:00 AM 6.37 43.466 0.045 6.81 6.5 12.26
1/5/2023 9:45:00 AM 6.37 43.466 0.045 6.83 6.6 12.28
1/5/2023 10:00:00 AM 6.37 43.466 0.045 6.83 6.46 12.3
1/5/2023 10:15:00 AM 6.38 43.484 0.045 6.87 6.13 12.33
1/5/2023 10:30:00 AM 6.4 43.52 0.045 6.87 6.27 12.35
1/5/2023 10:45:00 AM 6.42 43.556 0.045 6.89 5.58 12.36
1/5/2023 11:00:00 AM 6.45 43.61 0.045 6.86 5.93 12.37
1/5/2023 11:15:00 AM 6.48 43.664 0.045 6.94 5.96 12.37
1/5/2023 11:30:00 AM 6.54 43.772 0.045 6.89 5.88 12.38
1/5/2023 11:45:00 AM 6.6 43.88 0.045 6.89 5.93 12.38
1/5/2023 12:00:00 PM 6.63 43.934 0.045 6.95 5.46 12.37
1/5/2023 12:15:00 PM 6.66 43.988 0.045 6.95 5.6 12.37
1/5/2023 12:30:00 PM 6.67 44.006 0.045 6.95 5.59 12.36
1/5/2023 12:45:00 PM 6.68 44.024 0.045 6.95 5.59 12.34
1/5/2023 1:00:00 PM 6.7 44.06 0.045 6.96 5.8 12.33
1/5/2023 1:15:00 PM 6.74 44.132 0.045 6.97 5.8 12.32
1/5/2023 1:30:00 PM 6.81 44.258 0.045 6.98 5.7 12.31
1/5/2023 1:45:00 PM 6.9 44.42 0.045 6.98 5.72 12.3
1/5/2023 2:00:00 PM 6.95 44.51 0.045 6.97 5.51 12.29
1/5/2023 2:15:00 PM 6.99 44.582 0.045 6.98 5.66 12.27
1/5/2023 2:30:00 PM 7.01 44.618 0.045 7.01 5.53 12.25
1/5/2023 2:45:00 PM 7.03 44.654 0.045 6.99 5.62 12.25
1/5/2023 3:00:00 PM 7.01 44.618 0.045 6.96 5.41 12.24
1/5/2023 3:15:00 PM 7.01 44.618 0.045 6.96 5.69 12.23
1/5/2023 3:30:00 PM 6.98 44.564 0.045 7.01 5.45 12.22
1/5/2023 3:45:00 PM 6.96 44.528 0.045 6.98 5.59 12.19
1/5/2023 4:00:00 PM 6.95 44.51 0.045 6.95 5.79 12.17
1/5/2023 4:15:00 PM 6.93 44.474 0.045 6.92 5.76 12.14
1/5/2023 4:30:00 PM 6.91 44.438 0.045 6.96 5.55 12.1
1/5/2023 4:45:00 PM 6.89 44.402 0.045 6.79 5.56 12.07
1/5/2023 5:00:00 PM 6.86 44.348 0.045 6.86 5.7 12.03
1/5/2023 5:15:00 PM 6.83 44.294 0.045 6.83 5.94 11.99
1/5/2023 5:30:00 PM 6.79 44.222 0.046 6.85 5.9 11.96
1/5/2023 5:45:00 PM 6.76 44.168 0.046 6.83 5.77 11.94
1/5/2023 6:00:00 PM 6.73 44.114 0.046 6.86 6.09 11.93
1/5/2023 6:15:00 PM 6.71 44.078 0.046 6.84 6.21 11.92
1/5/2023 6:30:00 PM 6.68 44.024 0.046 6.84 6.31 11.92
1/5/2023 6:45:00 PM 6.65 43.97 0.046 6.81 6.1 11.92
1/5/2023 7:00:00 PM 6.62 43.916 0.046 6.8 6.23 11.93
1/5/2023 7:15:00 PM 6.58 43.844 0.046 6.81 5.85 11.94
1/5/2023 7:30:00 PM 6.54 43.772 0.046 6.8 6.07 11.95
1/5/2023 7:45:00 PM 6.49 43.682 0.046 6.78 6.12 11.96
1/5/2023 8:00:00 PM 6.43 43.574 0.046 6.72 6.35 11.98
1/5/2023 8:15:00 PM 6.38 43.484 0.046 6.81 6.06 11.99
1/5/2023 8:30:00 PM 6.34 43.412 0.046 6.78 6 12.01
1/5/2023 8:45:00 PM 6.29 43.322 0.046 6.67 5.83 12.02
1/5/2023 9:00:00 PM 6.24 43.232 0.046 6.79 6.1 12.04
1/5/2023 9:15:00 PM 6.2 43.16 0.046 6.75 6.04 12.05
1/5/2023 9:30:00 PM 6.15 43.07 0.046 6.71 5.91 12.07
1/5/2023 9:45:00 PM 6.1 42.98 0.046 6.79 5.95 12.08
1/5/2023 10:00:00 PM 6.05 42.89 0.046 6.76 6 12.1
1/5/2023 10:15:00 PM 6 42.8 0.046 6.77 5.86 12.12
1/5/2023 10:30:00 PM 5.96 42.728 0.046 6.77 5.79 12.13
1/5/2023 10:45:00 PM 5.92 42.656 0.046 6.78 6.09 12.14
1/5/2023 11:00:00 PM 5.88 42.584 0.046 6.77 6.08 12.15
1/5/2023 11:15:00 PM 5.85 42.53 0.046 6.72 5.65 12.17
1/5/2023 11:30:00 PM 5.8 42.44 0.046 6.74 5.75 12.18
1/5/2023 11:45:00 PM 5.76 42.368 0.046 6.73 5.72 12.19
1/6/2023 12:00:00 AM 5.72 42.296 0.046 6.67 5.65 12.2
1/6/2023 12:15:00 AM 5.68 42.224 0.046 6.77 5.56 12.21
1/6/2023 12:30:00 AM 5.64 42.152 0.046 6.75 5.72 12.22
1/6/2023 12:45:00 AM 5.61 42.098 0.046 6.73 5.42 12.23
1/6/2023 1:00:00 AM 5.58 42.044 0.046 6.74 5.64 12.24
1/6/2023 1:15:00 AM 5.56 42.008 0.046 6.75 5.76 12.25
1/6/2023 1:30:00 AM 5.53 41.954 0.046 6.75 5.8 12.26
1/6/2023 1:45:00 AM 5.51 41.918 0.046 6.72 5.88 12.27
1/6/2023 2:00:00 AM 5.49 41.882 0.047 6.63 5.56 12.27
1/6/2023 2:15:00 AM 5.46 41.828 0.047 6.74 5.46 12.28
1/6/2023 2:30:00 AM 5.44 41.792 0.047 6.74 5.92 12.29
1/6/2023 2:45:00 AM 5.43 41.774 0.047 6.66 5.78 12.3
1/6/2023 3:00:00 AM 5.41 41.738 0.047 6.74 5.76 12.31
1/6/2023 3:15:00 AM 5.39 41.702 0.047 6.75 5.5 12.31
1/6/2023 3:30:00 AM 5.37 41.666 0.047 6.71 5.47 12.32
1/6/2023 3:45:00 AM 5.36 41.648 0.047 6.75 5.51 12.32
1/6/2023 4:00:00 AM 5.34 41.612 0.047 6.7 5.61 12.33
1/6/2023 4:15:00 AM 5.32 41.576 0.047 6.77 5.34 12.33
1/6/2023 4:30:00 AM 5.3 41.54 0.047 6.74 5.44 12.34
1/6/2023 4:45:00 AM 5.28 41.504 0.047 6.75 5.52 12.35
1/6/2023 5:00:00 AM 5.26 41.468 0.047 6.74 5.37 12.35
1/6/2023 5:15:00 AM 5.24 41.432 0.047 6.75 5.46 12.36
1/6/2023 5:30:00 AM 5.22 41.396 0.047 6.63 5.36 12.36
1/6/2023 5:45:00 AM 5.2 41.36 0.047 6.72 5.09 12.37
1/6/2023 6:00:00 AM 5.2 41.36 0.047 6.74 5.29 12.37
1/6/2023 6:15:00 AM 5.19 41.342 0.047 6.7 5.17 12.38
1/6/2023 6:30:00 AM 5.18 41.324 0.047 6.75 5.36 12.38
1/6/2023 6:45:00 AM 5.16 41.288 0.047 6.74 5.05 12.39
1/6/2023 7:00:00 AM 5.16 41.288 0.047 6.69 5.27 12.4
1/6/2023 7:15:00 AM 5.15 41.27 0.047 6.71 5.03 12.4
1/6/2023 7:30:00 AM 5.15 41.27 0.047 6.71 5.07 12.41
1/6/2023 7:45:00 AM 5.15 41.27 0.047 6.74 5 12.41
1/6/2023 8:00:00 AM 5.15 41.27 0.047 6.72 5.09 12.42
1/6/2023 8:15:00 AM 5.15 41.27 0.047 6.73 5 12.43
1/6/2023 8:30:00 AM 5.16 41.288 0.047 6.75 5.01 12.44
1/6/2023 8:45:00 AM 5.16 41.288 0.047 6.75 4.84 12.46
1/6/2023 9:00:00 AM 5.17 41.306 0.047 6.79 5.44 12.5
1/6/2023 9:15:00 AM 5.17 41.306 0.047 6.78 4.82 12.55
1/6/2023 9:30:00 AM 5.18 41.324 0.047 6.75 4.88 12.58
1/6/2023 9:45:00 AM 5.19 41.342 0.047 6.85 4.81 12.62
1/6/2023 10:00:00 AM 5.2 41.36 0.047 6.85 4.55 12.66
1/6/2023 10:15:00 AM 5.22 41.396 0.047 6.73 4.73 12.7
1/6/2023 10:30:00 AM 5.24 41.432 0.047 6.85 4.58 12.74
1/6/2023 10:45:00 AM 5.26 41.468 0.047 6.89 4.48 12.78
1/6/2023 11:00:00 AM 5.3 41.54 0.047 6.94 4.52 12.81
1/6/2023 11:15:00 AM 5.34 41.612 0.046 6.92 4.46 12.83
1/6/2023 11:30:00 AM 5.39 41.702 0.046 6.96 4.37 12.84
1/6/2023 11:45:00 AM 5.42 41.756 0.046 6.91 4.24 12.85
1/6/2023 12:00:00 PM 5.45 41.81 0.046 6.97 4.31 12.84
1/6/2023 12:15:00 PM 5.47 41.846 0.046 6.93 4.36 12.81
1/6/2023 12:30:00 PM 5.49 41.882 0.046 6.9 4.5 12.81
1/6/2023 12:45:00 PM 5.53 41.954 0.046 6.97 4.47 12.82
1/6/2023 1:00:00 PM 5.56 42.008 0.046 6.92 4.27 12.82
1/6/2023 1:15:00 PM 5.58 42.044 0.046 6.91 4.39 12.81
1/6/2023 1:30:00 PM 5.6 42.08 0.046 7.03 4.33 12.8
1/6/2023 1:45:00 PM 5.59 42.062 0.046 7 4.26 12.75
1/6/2023 2:00:00 PM 5.59 42.062 0.047 7 4.22 12.71
1/6/2023 2:15:00 PM 5.58 42.044 0.047 6.99 4.07 12.71
1/6/2023 2:30:00 PM 5.56 42.008 0.047 6.98 4.35 12.71
1/6/2023 2:45:00 PM 5.54 41.972 0.047 6.93 4.23 12.72
1/6/2023 3:00:00 PM 5.55 41.99 0.047 6.95 4.16 12.7
1/6/2023 3:15:00 PM 5.57 42.026 0.047 6.86 4.37 12.66
1/6/2023 3:30:00 PM 5.59 42.062 0.047 6.96 4.25 12.63
1/6/2023 3:45:00 PM 5.6 42.08 0.047 6.91 4.28 12.6
1/6/2023 4:00:00 PM 5.6 42.08 0.047 6.95 4.26 12.57
1/6/2023 4:15:00 PM 5.6 42.08 0.047 6.95 4.34 12.56
1/6/2023 4:30:00 PM 5.59 42.062 0.047 6.92 4.21 12.53
1/6/2023 4:45:00 PM 5.58 42.044 0.047 6.82 4.35 12.51
1/6/2023 5:00:00 PM 5.56 42.008 0.047 6.91 4.29 12.47
1/6/2023 5:15:00 PM 5.55 41.99 0.047 6.93 4.46 12.44
1/6/2023 5:30:00 PM 5.53 41.954 0.047 6.86 4.41 12.42
1/6/2023 5:45:00 PM 5.5 41.9 0.047 6.87 4.56 12.4
1/6/2023 6:00:00 PM 5.48 41.864 0.047 6.82 4.44 12.4
1/6/2023 6:15:00 PM 5.46 41.828 0.047 6.84 4.39 12.4
1/6/2023 6:30:00 PM 5.43 41.774 0.047 6.75 4.54 12.4
1/6/2023 6:45:00 PM 5.4 41.72 0.047 6.88 4.46 12.4
1/6/2023 7:00:00 PM 5.37 41.666 0.047 6.79 4.45 12.41
1/6/2023 7:15:00 PM 5.35 41.63 0.048 6.86 4.62 12.41
1/6/2023 7:30:00 PM 5.33 41.594 0.048 6.87 4.5 12.42
1/6/2023 7:45:00 PM 5.32 41.576 0.048 6.86 4.57 12.43
1/6/2023 8:00:00 PM 5.3 41.54 0.048 6.85 4.61 12.43
1/6/2023 8:15:00 PM 5.27 41.486 0.048 6.78 4.51 12.44
1/6/2023 8:30:00 PM 5.22 41.396 0.048 6.84 4.58 12.46
1/6/2023 8:45:00 PM 5.19 41.342 0.048 6.84 4.49 12.47
1/6/2023 9:00:00 PM 5.14 41.252 0.048 6.83 4.37 12.48
1/6/2023 9:15:00 PM 5.14 41.252 0.048 6.81 4.58 12.48
1/6/2023 9:30:00 PM 5.14 41.252 0.048 6.76 4.4 12.49
1/6/2023 9:45:00 PM 5.12 41.216 0.048 6.86 4.7 12.49
1/6/2023 10:00:00 PM 5.1 41.18 0.048 6.83 4.4 12.5
1/6/2023 10:15:00 PM 5.09 41.162 0.048 6.85 4.49 12.51
1/6/2023 10:30:00 PM 5.08 41.144 0.048 6.72 4.45 12.52
1/6/2023 10:45:00 PM 5.08 41.144 0.048 6.83 4.72 12.52
1/6/2023 11:00:00 PM 5.06 41.108 0.048 6.76 4.51 12.52
1/6/2023 11:15:00 PM 5.05 41.09 0.048 6.87 4.64 12.52
1/6/2023 11:30:00 PM 5.03 41.054 0.048 6.74 4.45 12.53
1/6/2023 11:45:00 PM 5.01 41.018 0.048 6.86 4.63 12.53
1/7/2023 12:00:00 AM 4.98 40.964 0.048 6.86 4.43 12.54
1/7/2023 12:15:00 AM 4.94 40.892 0.048 6.86 4.41 12.55
1/7/2023 12:30:00 AM 4.93 40.874 0.048 6.76 4.58 12.55
1/7/2023 12:45:00 AM 4.92 40.856 0.048 6.77 4.5 12.56
1/7/2023 1:00:00 AM 4.9 40.82 0.048 6.85 4.47 12.56
1/7/2023 1:15:00 AM 4.88 40.784 0.048 6.88 4.35 12.57
1/7/2023 1:30:00 AM 4.87 40.766 0.048 6.85 4.43 12.58
1/7/2023 1:45:00 AM 4.85 40.73 0.048 6.89 4.24 12.58
1/7/2023 2:00:00 AM 4.84 40.712 0.048 6.87 4.56 12.59
1/7/2023 2:15:00 AM 4.84 40.712 0.048 6.85 4.34 12.59
1/7/2023 2:30:00 AM 4.82 40.676 0.048 6.86 4.47 12.59
1/7/2023 2:45:00 AM 4.8 40.64 0.048 6.86 4.34 12.6
1/7/2023 3:00:00 AM 4.79 40.622 0.048 6.85 4.17 12.61
1/7/2023 3:15:00 AM 4.78 40.604 0.048 6.87 4.26 12.61
1/7/2023 3:30:00 AM 4.77 40.586 0.048 6.87 4.34 12.61
1/7/2023 3:45:00 AM 4.76 40.568 0.048 6.72 4.26 12.62
1/7/2023 4:00:00 AM 4.76 40.568 0.048 6.79 4.26 12.62
1/7/2023 4:15:00 AM 4.76 40.568 0.048 6.86 4.37 12.62
1/7/2023 4:30:00 AM 4.75 40.55 0.048 6.88 4.22 12.62
1/7/2023 4:45:00 AM 4.75 40.55 0.048 6.89 4.24 12.62
1/7/2023 5:00:00 AM 4.75 40.55 0.048 6.86 4.39 12.63
1/7/2023 5:15:00 AM 4.75 40.55 0.048 6.83 4.19 12.63
1/7/2023 5:30:00 AM 4.74 40.532 0.048 6.85 4.2 12.63
1/7/2023 5:45:00 AM 4.74 40.532 0.048 6.88 4.13 12.63
1/7/2023 6:00:00 AM 4.74 40.532 0.048 6.82 4.17 12.63
1/7/2023 6:15:00 AM 4.73 40.514 0.049 6.71 4.12 12.64
1/7/2023 6:30:00 AM 4.73 40.514 0.049 6.8 4.18 12.63
1/7/2023 6:45:00 AM 4.73 40.514 0.049 6.88 4.09 12.64
1/7/2023 7:00:00 AM 4.72 40.496 0.049 6.85 4.26 12.64
1/7/2023 7:15:00 AM 4.72 40.496 0.049 6.83 4.24 12.64
1/7/2023 7:30:00 AM 4.71 40.478 0.049 6.75 4.14 12.65
1/7/2023 7:45:00 AM 4.71 40.478 0.049 6.89 4.12 12.65
1/7/2023 8:00:00 AM 4.71 40.478 0.049 6.86 4.22 12.66
1/7/2023 8:15:00 AM 4.71 40.478 0.049 6.88 4.09 12.68
1/7/2023 8:30:00 AM 4.71 40.478 0.049 6.87 4.09 12.7
1/7/2023 8:45:00 AM 4.71 40.478 0.049 6.86 4.04 12.73
1/7/2023 9:00:00 AM 4.72 40.496 0.049 6.88 4.01 12.76
1/7/2023 9:15:00 AM 4.72 40.496 0.049 6.89 4.02 12.79
1/7/2023 9:30:00 AM 4.73 40.514 0.049 6.87 3.98 12.83
1/7/2023 9:45:00 AM 4.74 40.532 0.049 6.92 3.87 12.86
1/7/2023 10:00:00 AM 4.75 40.55 0.049 6.88 3.82 12.89
1/7/2023 10:15:00 AM 4.76 40.568 0.049 6.93 3.85 12.93
1/7/2023 10:30:00 AM 4.78 40.604 0.049 6.93 3.78 12.98
1/7/2023 10:45:00 AM 4.8 40.64 0.049 6.94 3.69 13.01
1/7/2023 11:00:00 AM 4.82 40.676 0.049 6.98 3.72 13.04
1/7/2023 11:15:00 AM 4.83 40.694 0.049 6.97 3.64 13.04
1/7/2023 11:30:00 AM 4.86 40.748 0.049 6.95 3.72 13.06
1/7/2023 11:45:00 AM 4.89 40.802 0.049 6.94 3.78 13.08
1/7/2023 12:00:00 PM 4.92 40.856 0.049 6.99 3.57 13.11
1/7/2023 12:15:00 PM 4.96 40.928 0.048 7.07 3.57 13.12
1/7/2023 12:30:00 PM 4.99 40.982 0.048 7.07 3.57 13.13
1/7/2023 12:45:00 PM 5.02 41.036 0.048 7.07 3.71 13.12
1/7/2023 1:00:00 PM 5.05 41.09 0.048 7.08 3.65 13.12
1/7/2023 1:15:00 PM 5.06 41.108 0.048 6.98 3.71 13.11
1/7/2023 1:30:00 PM 5.06 41.108 0.048 7.11 3.6 13.06
1/7/2023 1:45:00 PM 5.07 41.126 0.048 7.11 3.6 13.04
1/7/2023 2:00:00 PM 5.08 41.144 0.048 7.1 3.6 13.06
1/7/2023 2:15:00 PM 5.1 41.18 0.048 7.1 3.61 13.06
1/7/2023 2:30:00 PM 5.11 41.198 0.048 7.11 3.59 13.05
1/7/2023 2:45:00 PM 5.13 41.234 0.048 7.11 3.57 13.03
1/7/2023 3:00:00 PM 5.15 41.27 0.048 7.12 3.63 13.02
1/7/2023 3:15:00 PM 5.16 41.288 0.049 7.12 3.5 13.01
1/7/2023 3:30:00 PM 5.16 41.288 0.049 7.07 3.51 12.96
1/7/2023 3:45:00 PM 5.12 41.216 0.049 7.09 3.74 12.89
1/7/2023 4:00:00 PM 5.06 41.108 0.049 7 3.65 12.85
1/7/2023 4:15:00 PM 4.97 40.946 0.049 7.05 3.72 12.81
1/7/2023 4:30:00 PM 4.94 40.892 0.049 7.01 3.52 12.81
1/7/2023 4:45:00 PM 4.93 40.874 0.049 6.91 3.72 12.8
1/7/2023 5:00:00 PM 4.95 40.91 0.049 7.03 3.82 12.78
1/7/2023 5:15:00 PM 4.96 40.928 0.049 7.01 3.72 12.75
1/7/2023 5:30:00 PM 4.96 40.928 0.049 7.01 3.94 12.72
1/7/2023 5:45:00 PM 4.95 40.91 0.049 6.96 4.05 12.69
1/7/2023 6:00:00 PM 4.95 40.91 0.049 6.98 3.89 12.67
1/7/2023 6:15:00 PM 4.95 40.91 0.049 6.95 4 12.66
1/7/2023 6:30:00 PM 4.93 40.874 0.049 6.96 4.02 12.64
1/7/2023 6:45:00 PM 4.92 40.856 0.049 6.94 4.04 12.64
1/7/2023 7:00:00 PM 4.9 40.82 0.049 6.93 4.02 12.64
1/7/2023 7:15:00 PM 4.88 40.784 0.049 6.94 3.87 12.64
1/7/2023 7:30:00 PM 4.87 40.766 0.049 6.96 3.95 12.64
1/7/2023 7:45:00 PM 4.87 40.766 0.049 6.93 3.92 12.64
1/7/2023 8:00:00 PM 4.87 40.766 0.049 6.91 3.88 12.65
1/7/2023 8:15:00 PM 4.86 40.748 0.05 6.93 3.79 12.65
1/7/2023 8:30:00 PM 4.85 40.73 0.05 6.91 4.11 12.65
1/7/2023 8:45:00 PM 4.83 40.694 0.05 6.95 3.95 12.66
1/7/2023 9:00:00 PM 4.81 40.658 0.05 6.91 3.82 12.67
1/7/2023 9:15:00 PM 4.8 40.64 0.05 6.93 4.07 12.68
1/7/2023 9:30:00 PM 4.78 40.604 0.05 6.76 3.81 12.68
1/7/2023 9:45:00 PM 4.76 40.568 0.05 6.93 3.88 12.69
1/7/2023 10:00:00 PM 4.75 40.55 0.05 6.94 3.81 12.7
1/7/2023 10:15:00 PM 4.74 40.532 0.05 6.91 3.82 12.69
1/7/2023 10:30:00 PM 4.73 40.514 0.05 6.91 3.72 12.7
1/7/2023 10:45:00 PM 4.72 40.496 0.05 6.87 3.83 12.7
1/7/2023 11:00:00 PM 4.71 40.478 0.05 6.93 3.78 12.7
1/7/2023 11:15:00 PM 4.7 40.46 0.05 6.9 3.79 12.71
1/7/2023 11:30:00 PM 4.69 40.442 0.05 6.87 3.76 12.71
1/7/2023 11:45:00 PM 4.67 40.406 0.05 6.84 3.74 12.72
1/8/2023 12:00:00 AM 4.65 40.37 0.05 6.9 3.67 12.73
1/8/2023 12:15:00 AM 4.63 40.334 0.05 6.92 3.78 12.73
1/8/2023 12:30:00 AM 4.62 40.316 0.05 6.9 3.7 12.74
1/8/2023 12:45:00 AM 4.62 40.316 0.05 6.88 3.77 12.74
1/8/2023 1:00:00 AM 4.61 40.298 0.05 6.9 3.68 12.75
1/8/2023 1:15:00 AM 4.59 40.262 0.05 6.82 3.75 12.75
1/8/2023 1:30:00 AM 4.57 40.226 0.05 6.88 3.6 12.76
1/8/2023 1:45:00 AM 4.56 40.208 0.05 6.93 3.68 12.77
1/8/2023 2:00:00 AM 4.54 40.172 0.05 6.92 3.66 12.77
1/8/2023 2:15:00 AM 4.53 40.154 0.05 6.92 3.66 12.77
1/8/2023 2:30:00 AM 4.52 40.136 0.05 6.89 3.86 12.78
1/8/2023 2:45:00 AM 4.5 40.1 0.05 6.84 3.76 12.78
1/8/2023 3:00:00 AM 4.49 40.082 0.05 6.85 3.63 12.79
1/8/2023 3:15:00 AM 4.47 40.046 0.05 6.91 3.76 12.8
1/8/2023 3:30:00 AM 4.45 40.01 0.05 6.95 3.64 12.8
1/8/2023 3:45:00 AM 4.44 39.992 0.05 6.9 3.79 12.8
1/8/2023 4:00:00 AM 4.42 39.956 0.05 6.94 3.44 12.81
1/8/2023 4:15:00 AM 4.41 39.938 0.05 6.9 3.63 12.82
1/8/2023 4:30:00 AM 4.39 39.902 0.05 6.8 3.79 12.82
1/8/2023 4:45:00 AM 4.36 39.848 0.05 6.94 3.67 12.83
1/8/2023 5:00:00 AM 4.35 39.83 0.05 6.92 3.75 12.84
1/8/2023 5:15:00 AM 4.33 39.794 0.05 6.92 3.73 12.84
1/8/2023 5:30:00 AM 4.32 39.776 0.05 6.92 3.66 12.84
1/8/2023 5:45:00 AM 4.3 39.74 0.05 6.94 3.64 12.85
1/8/2023 6:00:00 AM 4.29 39.722 0.05 6.92 3.67 12.85
1/8/2023 6:15:00 AM 4.27 39.686 0.05 6.85 3.61 12.86
1/8/2023 6:30:00 AM 4.25 39.65 0.05 6.89 3.66 12.87
1/8/2023 6:45:00 AM 4.23 39.614 0.05 6.92 3.62 12.87
1/8/2023 7:00:00 AM 4.21 39.578 0.05 6.78 3.53 12.88
1/8/2023 7:15:00 AM 4.19 39.542 0.05 6.94 3.63 12.89
1/8/2023 7:30:00 AM 4.17 39.506 0.051 6.86 3.71 12.89
1/8/2023 7:45:00 AM 4.15 39.47 0.051 6.94 3.92 12.9
1/8/2023 8:00:00 AM 4.13 39.434 0.051 6.94 3.53 12.93
1/8/2023 8:15:00 AM 4.11 39.398 0.051 6.88 3.51 12.95
1/8/2023 8:30:00 AM 4.1 39.38 0.051 6.95 3.49 12.99
1/8/2023 8:45:00 AM 4.08 39.344 0.051 6.79 3.55 13.04
1/8/2023 9:00:00 AM 4.07 39.326 0.051 6.99 3.53 13.09
1/8/2023 9:15:00 AM 4.07 39.326 0.051 6.97 3.34 13.16
1/8/2023 9:30:00 AM 4.07 39.326 0.051 7 3.4 13.22
1/8/2023 9:45:00 AM 4.08 39.344 0.051 7.03 3.32 13.27
1/8/2023 10:00:00 AM 4.08 39.344 0.05 7.04 3.46 13.32
1/8/2023 10:15:00 AM 4.09 39.362 0.05 7.07 3.22 13.37
1/8/2023 10:30:00 AM 4.1 39.38 0.05 7.06 3.28 13.41
1/8/2023 10:45:00 AM 4.12 39.416 0.05 6.97 3.23 13.43
1/8/2023 11:00:00 AM 4.14 39.452 0.05 7.08 3.25 13.46
1/8/2023 11:15:00 AM 4.17 39.506 0.05 7.14 3.35 13.48
1/8/2023 11:30:00 AM 4.21 39.578 0.05 7.13 3.17 13.5
1/8/2023 11:45:00 AM 4.23 39.614 0.05 7.14 3.3 13.5
1/8/2023 12:00:00 PM 4.27 39.686 0.05 7.14 3.13 13.5
1/8/2023 12:15:00 PM 4.31 39.758 0.05 7.14 3.15 13.5
1/8/2023 12:30:00 PM 4.35 39.83 0.05 7.16 3.29 13.49
1/8/2023 12:45:00 PM 4.38 39.884 0.05 7.22 3.03 13.48
1/8/2023 1:00:00 PM 4.4 39.92 0.05 7.2 3.21 13.47
1/8/2023 1:15:00 PM 4.42 39.956 0.05 7.19 3.19 13.45
1/8/2023 1:30:00 PM 4.46 40.028 0.05 7.21 3.11 13.44
1/8/2023 1:45:00 PM 4.48 40.064 0.05 7.19 3.25 13.44
1/8/2023 2:00:00 PM 4.52 40.136 0.05 7.22 3.06 13.42
1/8/2023 2:15:00 PM 4.59 40.262 0.05 7.23 3.17 13.42
1/8/2023 2:30:00 PM 4.64 40.352 0.05 7.22 3.07 13.39
1/8/2023 2:45:00 PM 4.66 40.388 0.05 7.13 3.28 13.37
1/8/2023 3:00:00 PM 4.67 40.406 0.05 7.2 3.2 13.36
1/8/2023 3:15:00 PM 4.66 40.388 0.05 7.24 3.04 13.32
1/8/2023 3:30:00 PM 4.7 40.46 0.05 7.25 3.1 13.3
1/8/2023 3:45:00 PM 4.71 40.478 0.05 7.22 3.4 13.27
1/8/2023 4:00:00 PM 4.68 40.424 0.05 7.24 3.17 13.24
1/8/2023 4:15:00 PM 4.62 40.316 0.05 7.2 3.19 13.18
1/8/2023 4:30:00 PM 4.59 40.262 0.05 7.11 3.24 13.14
1/8/2023 4:45:00 PM 4.57 40.226 0.05 7.18 3.22 13.08
1/8/2023 5:00:00 PM 4.54 40.172 0.05 7.03 3.22 13.02
1/8/2023 5:15:00 PM 4.5 40.1 0.05 7.08 3.22 12.96
1/8/2023 5:30:00 PM 4.48 40.064 0.05 7.08 3.38 12.9
1/8/2023 5:45:00 PM 4.45 40.01 0.051 7.07 3.17 12.86
1/8/2023 6:00:00 PM 4.41 39.938 0.051 7.03 3.4 12.83
1/8/2023 6:15:00 PM 4.37 39.866 0.051 6.85 3.51 12.8
1/8/2023 6:30:00 PM 4.33 39.794 0.051 7.01 3.43 12.8
1/8/2023 6:45:00 PM 4.3 39.74 0.051 7.03 3.34 12.79
1/8/2023 7:00:00 PM 4.27 39.686 0.051 6.81 3.28 12.79
1/8/2023 7:15:00 PM 4.26 39.668 0.051 7.02 3.35 12.79
1/8/2023 7:30:00 PM 4.24 39.632 0.051 6.98 3.37 12.79
1/8/2023 7:45:00 PM 4.23 39.614 0.051 6.97 3.35 12.79
1/8/2023 8:00:00 PM 4.21 39.578 0.051 6.99 3.25 12.79
1/8/2023 8:15:00 PM 4.2 39.56 0.051 6.99 3.33 12.79
1/8/2023 8:30:00 PM 4.18 39.524 0.051 6.89 3.11 12.79
1/8/2023 8:45:00 PM 4.15 39.47 0.051 6.92 3.23 12.8
1/8/2023 9:00:00 PM 4.11 39.398 0.051 6.98 3.25 12.8
1/8/2023 9:15:00 PM 4.06 39.308 0.051 6.96 3.16 12.82
1/8/2023 9:30:00 PM 4.02 39.236 0.051 6.96 3.24 12.81
1/8/2023 9:45:00 PM 3.98 39.164 0.051 6.93 3.29 12.83
1/8/2023 10:00:00 PM 3.94 39.092 0.051 6.85 3.13 12.84
1/8/2023 10:15:00 PM 3.91 39.038 0.051 6.97 3.13 12.85
1/8/2023 10:30:00 PM 3.88 38.984 0.051 6.93 3.05 12.86
1/8/2023 10:45:00 PM 3.84 38.912 0.051 6.96 3.25 12.87
1/8/2023 11:00:00 PM 3.82 38.876 0.051 6.92 3.14 12.88
1/8/2023 11:15:00 PM 3.81 38.858 0.051 6.92 3.09 12.89
1/8/2023 11:30:00 PM 3.79 38.822 0.051 6.89 3.09 12.9
1/8/2023 11:45:00 PM 3.78 38.804 0.051 6.95 3.15 12.9
1/9/2023 12:00:00 AM 3.76 38.768 0.051 6.84 3.11 12.9
1/9/2023 12:15:00 AM 3.75 38.75 0.051 6.93 3.01 12.91
1/9/2023 12:30:00 AM 3.74 38.732 0.051 6.95 3.11 12.92
1/9/2023 12:45:00 AM 3.73 38.714 0.051 6.92 3.06 12.92
1/9/2023 1:00:00 AM 3.71 38.678 0.052 6.96 3.06 12.92
1/9/2023 1:15:00 AM 3.7 38.66 0.052 6.93 3.1 12.93
1/9/2023 1:30:00 AM 3.68 38.624 0.052 6.95 3.01 12.93
1/9/2023 1:45:00 AM 3.66 38.588 0.052 6.93 3.18 12.93
1/9/2023 2:00:00 AM 3.64 38.552 0.052 6.83 3.08 12.94
1/9/2023 2:15:00 AM 3.62 38.516 0.052 6.92 3.15 12.94
1/9/2023 2:30:00 AM 3.59 38.462 0.052 6.92 3.04 12.95
1/9/2023 2:45:00 AM 3.56 38.408 0.052 6.93 3.08 12.96
1/9/2023 3:00:00 AM 3.53 38.354 0.052 6.89 3.08 12.97
1/9/2023 3:15:00 AM 3.49 38.282 0.052 6.94 3.11 12.98
1/9/2023 3:30:00 AM 3.46 38.228 0.052 6.92 3.15 12.99
1/9/2023 3:45:00 AM 3.45 38.21 0.052 6.92 3.17 13
1/9/2023 4:00:00 AM 3.43 38.174 0.052 6.91 3.07 13
1/9/2023 4:15:00 AM 3.42 38.156 0.052 6.92 3.04 13.01
1/9/2023 4:30:00 AM 3.41 38.138 0.052 6.78 3.02 13.02
1/9/2023 4:45:00 AM 3.4 38.12 0.052 6.93 3.01 13.02
1/9/2023 5:00:00 AM 3.4 38.12 0.052 6.92 3.04 13.02
1/9/2023 5:15:00 AM 3.39 38.102 0.052 6.89 3.03 13.03
1/9/2023 5:30:00 AM 3.39 38.102 0.052 6.93 3.16 13.03
1/9/2023 5:45:00 AM 3.38 38.084 0.052 6.88 3.09 13.03
1/9/2023 6:00:00 AM 3.38 38.084 0.052 6.94 3.05 13.03
1/9/2023 6:15:00 AM 3.37 38.066 0.052 6.87 3.09 13.04
1/9/2023 6:30:00 AM 3.36 38.048 0.052 6.93 2.94 13.04
1/9/2023 6:45:00 AM 3.35 38.03 0.052 6.92 2.94 13.05
1/9/2023 7:00:00 AM 3.34 38.012 0.052 6.91 3.02 13.06
1/9/2023 7:15:00 AM 3.32 37.976 0.052 6.93 3.03 13.06
1/9/2023 7:30:00 AM 3.3 37.94 0.052 6.92 2.98 13.06
1/9/2023 7:45:00 AM 3.29 37.922 0.052 6.94 2.93 13.08
1/9/2023 8:00:00 AM 3.29 37.922 0.052 6.86 2.93 13.1
1/9/2023 8:15:00 AM 3.29 37.922 0.052 6.95 2.95 13.13
1/9/2023 8:30:00 AM 3.27 37.886 0.052 6.95 2.99 13.16
1/9/2023 8:45:00 AM 3.28 37.904 0.052 6.99 2.89 13.2
1/9/2023 9:00:00 AM 3.27 37.886 0.052 6.85 2.97 13.25
1/9/2023 9:15:00 AM 3.27 37.886 0.052 6.95 2.94 13.31
1/9/2023 9:30:00 AM 3.29 37.922 0.051 7.02 2.93 13.4
1/9/2023 9:45:00 AM 3.29 37.922 0.051 7.03 2.9 13.47
1/9/2023 10:00:00 AM 3.28 37.904 0.051 6.97 2.95 13.53
1/9/2023 10:15:00 AM 3.29 37.922 0.051 7.04 2.85 13.59
1/9/2023 10:30:00 AM 3.32 37.976 0.051 7.14 2.92 13.64
1/9/2023 10:45:00 AM 3.37 38.066 0.051 7.11 2.86 13.67
1/9/2023 11:00:00 AM 3.42 38.156 0.051 7.08 2.89 13.68
1/9/2023 11:15:00 AM 3.42 38.156 0.051 7.08 2.9 13.69
1/9/2023 11:30:00 AM 3.47 38.246 0.051 7.15 2.87 13.7
1/9/2023 11:45:00 AM 3.55 38.39 0.051 7.1 2.88 13.7
1/9/2023 12:00:00 PM 3.66 38.588 0.051 7.19 2.81 13.67
1/9/2023 12:15:00 PM 3.75 38.75 0.051 7.19 2.93 13.66
1/9/2023 12:30:00 PM 3.79 38.822 0.051 7.2 2.86 13.65
1/9/2023 12:45:00 PM 3.89 39.002 0.051 7.23 2.72 13.61
1/9/2023 1:00:00 PM 3.99 39.182 0.051 7.2 2.72 13.58
1/9/2023 1:15:00 PM 4.05 39.29 0.051 7.21 2.83 13.56
1/9/2023 1:30:00 PM 4.1 39.38 0.051 7.18 2.78 13.54
1/9/2023 1:45:00 PM 4.17 39.506 0.051 7.2 2.77 13.51
1/9/2023 2:00:00 PM 4.18 39.524 0.051 7.25 2.73 13.49
1/9/2023 2:15:00 PM 4.18 39.524 0.051 7.23 2.83 13.48
1/9/2023 2:30:00 PM 4.18 39.524 0.051 7.16 2.79 13.46
1/9/2023 2:45:00 PM 4.18 39.524 0.051 7.2 2.92 13.45
1/9/2023 3:00:00 PM 4.18 39.524 0.051 7.25 2.78 13.42
1/9/2023 3:15:00 PM 4.17 39.506 0.051 7.2 2.78 13.39
1/9/2023 3:30:00 PM 4.16 39.488 0.051 7.2 2.78 13.36
1/9/2023 3:45:00 PM 4.16 39.488 0.051 7.22 2.69 13.32
1/9/2023 4:00:00 PM 4.16 39.488 0.051 7.09 2.78 13.28
1/9/2023 4:15:00 PM 4.15 39.47 0.051 7.11 2.81 13.23
1/9/2023 4:30:00 PM 4.12 39.416 0.051 7.18 2.85 13.19
1/9/2023 4:45:00 PM 4.08 39.344 0.051 7.13 2.91 13.14
1/9/2023 5:00:00 PM 4.03 39.254 0.051 7.01 2.82 13.1
1/9/2023 5:15:00 PM 3.97 39.146 0.051 7.12 2.85 13.06
1/9/2023 5:30:00 PM 3.9 39.02 0.051 7.07 2.88 13.02
1/9/2023 5:45:00 PM 3.82 38.876 0.051 7.05 2.86 13
1/9/2023 6:00:00 PM 3.75 38.75 0.052 7.02 2.93 12.99
1/9/2023 6:15:00 PM 3.67 38.606 0.052 7.04 2.85 12.98
1/9/2023 6:30:00 PM 3.61 38.498 0.052 7.03 2.89 12.98
1/9/2023 6:45:00 PM 3.55 38.39 0.052 7 2.93 12.99
1/9/2023 7:00:00 PM 3.49 38.282 0.052 7.01 2.89 12.99
1/9/2023 7:15:00 PM 3.44 38.192 0.052 6.99 2.83 13
1/9/2023 7:30:00 PM 3.39 38.102 0.052 6.93 2.96 13.01
1/9/2023 7:45:00 PM 3.34 38.012 0.052 6.97 2.91 13.02
1/9/2023 8:00:00 PM 3.3 37.94 0.052 7 3 13.03
1/9/2023 8:15:00 PM 3.26 37.868 0.052 6.95 2.97 13.05
1/9/2023 8:30:00 PM 3.24 37.832 0.052 6.95 2.9 13.06
1/9/2023 8:45:00 PM 3.23 37.814 0.052 6.94 2.95 13.07
1/9/2023 9:00:00 PM 3.2 37.76 0.052 6.93 2.89 13.08
1/9/2023 9:15:00 PM 3.17 37.706 0.052 6.88 2.92 13.09
1/9/2023 9:30:00 PM 3.15 37.67 0.052 6.86 2.88 13.1
1/9/2023 9:45:00 PM 3.14 37.652 0.052 6.96 2.9 13.11
1/9/2023 10:00:00 PM 3.13 37.634 0.052 6.96 2.78 13.11
1/9/2023 10:15:00 PM 3.13 37.634 0.052 6.96 2.87 13.13
1/9/2023 10:30:00 PM 3.13 37.634 0.052 6.96 2.91 13.13
1/9/2023 10:45:00 PM 3.13 37.634 0.052 6.94 2.93 13.13
1/9/2023 11:00:00 PM 3.13 37.634 0.052 6.94 2.94 13.13
1/9/2023 11:15:00 PM 3.14 37.652 0.052 6.93 2.79 13.13
1/9/2023 11:30:00 PM 3.14 37.652 0.052 6.83 3.02 13.13
1/9/2023 11:45:00 PM 3.14 37.652 0.052 6.97 2.88 13.13
1/10/2023 12:00:00 AM 3.15 37.67 0.052 6.94 2.85 13.13
1/10/2023 12:15:00 AM 3.16 37.688 0.052 6.93 2.89 13.12
1/10/2023 12:30:00 AM 3.15 37.67 0.052 6.96 2.97 13.13
1/10/2023 12:45:00 AM 3.15 37.67 0.053 6.89 2.91 13.13
1/10/2023 1:00:00 AM 3.15 37.67 0.053 6.95 2.83 13.12
1/10/2023 1:15:00 AM 3.15 37.67 0.053 6.94 2.9 13.12
1/10/2023 1:30:00 AM 3.15 37.67 0.053 6.95 2.83 13.12
1/10/2023 1:45:00 AM 3.15 37.67 0.053 6.93 2.75 13.13
1/10/2023 2:00:00 AM 3.15 37.67 0.053 6.95 2.86 13.13
1/10/2023 2:15:00 AM 3.15 37.67 0.053 6.97 2.87 13.13
1/10/2023 2:30:00 AM 3.15 37.67 0.053 6.93 2.88 13.12
1/10/2023 2:45:00 AM 3.15 37.67 0.053 6.85 2.82 13.13
1/10/2023 3:00:00 AM 3.15 37.67 0.053 6.94 2.94 13.13
1/10/2023 3:15:00 AM 3.15 37.67 0.053 6.95 2.87 13.13
1/10/2023 3:30:00 AM 3.15 37.67 0.053 6.94 2.77 13.13
1/10/2023 3:45:00 AM 3.15 37.67 0.053 6.96 2.84 13.13
1/10/2023 4:00:00 AM 3.15 37.67 0.053 6.93 2.83 13.13
1/10/2023 4:15:00 AM 3.15 37.67 0.054 6.95 2.73 13.12
1/10/2023 4:30:00 AM 3.15 37.67 0.053 6.97 2.8 13.13
1/10/2023 4:45:00 AM 3.14 37.652 0.053 6.93 2.84 13.13
1/10/2023 5:00:00 AM 3.14 37.652 0.053 6.94 2.76 13.12
1/10/2023 5:15:00 AM 3.14 37.652 0.053 6.95 2.81 13.13
1/10/2023 5:30:00 AM 3.15 37.67 0.053 6.95 2.75 13.12
1/10/2023 5:45:00 AM 3.15 37.67 0.053 6.92 2.89 13.12
1/10/2023 6:00:00 AM 3.15 37.67 0.053 6.95 2.77 13.12
1/10/2023 6:15:00 AM 3.15 37.67 0.053 6.84 2.91 13.13
1/10/2023 6:30:00 AM 3.15 37.67 0.053 6.92 2.78 13.12
1/10/2023 6:45:00 AM 3.16 37.688 0.053 6.9 2.78 13.12
1/10/2023 7:00:00 AM 3.16 37.688 0.053 6.97 2.78 13.12
1/10/2023 7:15:00 AM 3.16 37.688 0.053 6.96 2.82 13.12
1/10/2023 7:30:00 AM 3.17 37.706 0.053 6.89 2.91 13.12
1/10/2023 7:45:00 AM 3.17 37.706 0.053 6.97 2.75 13.13
1/10/2023 8:00:00 AM 3.17 37.706 0.053 6.96 2.79 13.15
1/10/2023 8:15:00 AM 3.18 37.724 0.053 6.97 2.82 13.17
1/10/2023 8:30:00 AM 3.18 37.724 0.053 6.94 2.65 13.22
1/10/2023 8:45:00 AM 3.18 37.724 0.053 7 2.77 13.31
1/10/2023 9:00:00 AM 3.18 37.724 0.053 7.04 2.72 13.4
1/10/2023 9:15:00 AM 3.19 37.742 0.052 7.07 2.7 13.49
1/10/2023 9:30:00 AM 3.22 37.796 0.052 6.98 2.63 13.57
1/10/2023 9:45:00 AM 3.26 37.868 0.052 7.11 2.69 13.62
1/10/2023 10:00:00 AM 3.29 37.922 0.052 7.11 2.71 13.67
1/10/2023 10:15:00 AM 3.32 37.976 0.052 7.17 2.7 13.7
1/10/2023 10:30:00 AM 3.37 38.066 0.052 7.08 2.84 13.73
1/10/2023 10:45:00 AM 3.43 38.174 0.052 7.13 2.63 13.73
1/10/2023 11:00:00 AM 3.48 38.264 0.052 7.23 2.67 13.74
1/10/2023 11:15:00 AM 3.53 38.354 0.052 7.15 2.68 13.74
1/10/2023 11:30:00 AM 3.59 38.462 0.052 7.15 2.64 13.74
1/10/2023 11:45:00 AM 3.66 38.588 0.052 7.27 2.71 13.73
1/10/2023 12:00:00 PM 3.72 38.696 0.052 7.15 2.65 13.71
1/10/2023 12:15:00 PM 3.78 38.804 0.052 7.3 2.62 13.7
1/10/2023 12:30:00 PM 3.85 38.93 0.052 7.28 2.71 13.68
1/10/2023 12:45:00 PM 3.93 39.074 0.052 7.3 2.62 13.66
1/10/2023 1:00:00 PM 4.01 39.218 0.052 7.32 2.65 13.64
1/10/2023 1:15:00 PM 4.09 39.362 0.052 7.3 2.71 13.61
1/10/2023 1:30:00 PM 4.17 39.506 0.052 7.32 2.67 13.58
1/10/2023 1:45:00 PM 4.23 39.614 0.052 7.32 2.68 13.56
1/10/2023 2:00:00 PM 4.28 39.704 0.052 7.34 2.56 13.53
1/10/2023 2:15:00 PM 4.32 39.776 0.052 7.32 2.61 13.5
1/10/2023 2:30:00 PM 4.33 39.794 0.052 7.34 2.67 13.48
1/10/2023 2:45:00 PM 4.31 39.758 0.052 7.28 2.6 13.46
1/10/2023 3:00:00 PM 4.31 39.758 0.052 7.29 2.65 13.43
1/10/2023 3:15:00 PM 4.3 39.74 0.052 7.25 2.64 13.41
1/10/2023 3:30:00 PM 4.3 39.74 0.052 7.3 2.72 13.37
1/10/2023 3:45:00 PM 4.3 39.74 0.052 7.26 2.69 13.35
1/10/2023 4:00:00 PM 4.31 39.758 0.052 7.28 2.62 13.31
1/10/2023 4:15:00 PM 4.31 39.758 0.052 7.29 2.65 13.28
1/10/2023 4:30:00 PM 4.31 39.758 0.052 7.23 2.56 13.24
1/10/2023 4:45:00 PM 4.3 39.74 0.052 7.23 2.67 13.17
1/10/2023 5:00:00 PM 4.28 39.704 0.052 7.17 2.62 13.09
1/10/2023 5:15:00 PM 4.24 39.632 0.052 7.19 2.78 13.02
1/10/2023 5:30:00 PM 4.21 39.578 0.052 7.15 2.81 12.95
1/10/2023 5:45:00 PM 4.17 39.506 0.052 7.1 2.82 12.9
1/10/2023 6:00:00 PM 4.13 39.434 0.052 7.03 2.71 12.87
1/10/2023 6:15:00 PM 4.1 39.38 0.053 7.06 2.75 12.85
1/10/2023 6:30:00 PM 4.06 39.308 0.053 7.06 2.84 12.84
1/10/2023 6:45:00 PM 4.03 39.254 0.053 7.05 2.81 12.83
1/10/2023 7:00:00 PM 4.01 39.218 0.053 7.03 2.75 12.82
1/10/2023 7:15:00 PM 3.99 39.182 0.053 7.03 2.76 12.82
1/10/2023 7:30:00 PM 3.97 39.146 0.053 7.01 2.84 12.82
1/10/2023 7:45:00 PM 3.95 39.11 0.053 7.03 2.78 12.82
1/10/2023 8:00:00 PM 3.94 39.092 0.053 6.99 2.72 12.82
1/10/2023 8:15:00 PM 3.93 39.074 0.053 7 3.07 12.83
1/10/2023 8:30:00 PM 3.92 39.056 0.053 7 2.78 12.83
1/10/2023 8:45:00 PM 3.91 39.038 0.053 6.88 2.76 12.84
1/10/2023 9:00:00 PM 3.9 39.02 0.053 7 2.76 12.84
1/10/2023 9:15:00 PM 3.88 38.984 0.053 7 2.78 12.84
1/10/2023 9:30:00 PM 3.86 38.948 0.053 6.99 2.77 12.85
1/10/2023 9:45:00 PM 3.83 38.894 0.053 6.98 2.8 12.86
1/10/2023 10:00:00 PM 3.8 38.84 0.053 6.87 2.88 12.87
1/10/2023 10:15:00 PM 3.76 38.768 0.053 6.92 2.83 12.88
1/10/2023 10:30:00 PM 3.73 38.714 0.053 6.98 2.87 12.89
1/10/2023 10:45:00 PM 3.7 38.66 0.054 6.98 2.83 12.9
1/10/2023 11:00:00 PM 3.68 38.624 0.054 6.96 2.87 12.91
1/10/2023 11:15:00 PM 3.67 38.606 0.054 6.97 2.77 12.92
1/10/2023 11:30:00 PM 3.65 38.57 0.054 6.99 2.83 12.92
1/10/2023 11:45:00 PM 3.63 38.534 0.054 6.97 2.79 12.94
1/11/2023 12:00:00 AM 3.61 38.498 0.053 6.88 2.75 12.94
1/11/2023 12:15:00 AM 3.59 38.462 0.053 6.98 2.74 12.95
1/11/2023 12:30:00 AM 3.56 38.408 0.053 6.82 2.76 12.96
1/11/2023 12:45:00 AM 3.54 38.372 0.053 6.98 2.84 12.97
1/11/2023 1:00:00 AM 3.51 38.318 0.054 6.98 2.75 12.98
1/11/2023 1:15:00 AM 3.49 38.282 0.054 6.95 2.75 12.99
1/11/2023 1:30:00 AM 3.47 38.246 0.054 6.84 2.72 13
1/11/2023 1:45:00 AM 3.45 38.21 0.054 6.97 2.76 13.01
1/11/2023 2:00:00 AM 3.43 38.174 0.054 6.96 2.79 13.02
1/11/2023 2:15:00 AM 3.41 38.138 0.054 6.99 2.79 13.04
1/11/2023 2:30:00 AM 3.39 38.102 0.054 6.98 2.68 13.04
1/11/2023 2:45:00 AM 3.37 38.066 0.054 6.89 2.68 13.05
1/11/2023 3:00:00 AM 3.35 38.03 0.054 6.87 2.71 13.06
1/11/2023 3:15:00 AM 3.32 37.976 0.054 6.91 2.71 13.07
1/11/2023 3:30:00 AM 3.3 37.94 0.054 6.93 2.79 13.07
1/11/2023 3:45:00 AM 3.29 37.922 0.054 6.98 2.74 13.08
1/11/2023 4:00:00 AM 3.27 37.886 0.054 6.88 2.9 13.08
1/11/2023 4:15:00 AM 3.25 37.85 0.054 6.98 2.68 13.09
1/11/2023 4:30:00 AM 3.23 37.814 0.054 6.96 2.7 13.1
1/11/2023 4:45:00 AM 3.21 37.778 0.054 6.96 2.79 13.1
1/11/2023 5:00:00 AM 3.18 37.724 0.054 6.9 2.77 13.11
1/11/2023 5:15:00 AM 3.15 37.67 0.054 6.87 2.76 13.12
1/11/2023 5:30:00 AM 3.11 37.598 0.054 6.97 2.8 13.13
1/11/2023 5:45:00 AM 3.07 37.526 0.054 6.95 2.75 13.14
1/11/2023 6:00:00 AM 3.03 37.454 0.054 6.92 2.65 13.16
1/11/2023 6:15:00 AM 2.99 37.382 0.054 6.94 2.68 13.17
1/11/2023 6:30:00 AM 2.95 37.31 0.054 6.96 2.75 13.19
1/11/2023 6:45:00 AM 2.9 37.22 0.054 6.92 2.73 13.21
1/11/2023 7:00:00 AM 2.86 37.148 0.054 6.81 2.75 13.21
1/11/2023 7:15:00 AM 2.83 37.094 0.054 6.93 2.72 13.23
1/11/2023 7:30:00 AM 2.79 37.022 0.054 6.91 2.67 13.25
1/11/2023 7:45:00 AM 2.76 36.968 0.054 6.95 2.76 13.28
1/11/2023 8:00:00 AM 2.74 36.932 0.054 6.96 2.77 13.33
1/11/2023 8:15:00 AM 2.72 36.896 0.054 6.98 2.7 13.41
1/11/2023 8:30:00 AM 2.7 36.86 0.054 6.99 2.65 13.5
1/11/2023 8:45:00 AM 2.7 36.86 0.054 7.02 2.71 13.6
1/11/2023 9:00:00 AM 2.7 36.86 0.054 6.95 2.72 13.7
1/11/2023 9:15:00 AM 2.72 36.896 0.054 7.08 2.71 13.79
1/11/2023 9:30:00 AM 2.75 36.95 0.053 7.05 2.65 13.86
1/11/2023 9:45:00 AM 2.78 37.004 0.053 7.13 2.71 13.92
1/11/2023 10:00:00 AM 2.83 37.094 0.053 7.14 2.64 13.96
1/11/2023 10:15:00 AM 2.88 37.184 0.053 7.17 2.67 13.99
1/11/2023 10:30:00 AM 2.93 37.274 0.053 7.19 2.69 14.01
1/11/2023 10:45:00 AM 3 37.4 0.053 7.21 2.64 14.02
1/11/2023 11:00:00 AM 3.06 37.508 0.053 7.23 2.52 14.02
1/11/2023 11:15:00 AM 3.12 37.616 0.053 7.23 2.63 14
1/11/2023 11:30:00 AM 3.19 37.742 0.053 7.2 2.65 13.99
1/11/2023 11:45:00 AM 3.27 37.886 0.053 7.27 2.68 13.97
1/11/2023 12:00:00 PM 3.34 38.012 0.053 7.28 2.66 13.95
1/11/2023 12:15:00 PM 3.42 38.156 0.053 7.31 2.66 13.94
1/11/2023 12:30:00 PM 3.48 38.264 0.053 7.24 2.7 13.91
1/11/2023 12:45:00 PM 3.54 38.372 0.053 7.33 2.6 13.89
1/11/2023 1:00:00 PM 3.61 38.498 0.053 7.35 2.59 13.87
1/11/2023 1:15:00 PM 3.68 38.624 0.053 7.29 2.64 13.83
1/11/2023 1:30:00 PM 3.74 38.732 0.053 7.36 2.49 13.8
1/11/2023 1:45:00 PM 3.82 38.876 0.053 7.34 2.66 13.78
1/11/2023 2:00:00 PM 3.9 39.02 0.053 7.33 2.65 13.75
1/11/2023 2:15:00 PM 3.94 39.092 0.053 7.35 2.61 13.71
1/11/2023 2:30:00 PM 3.98 39.164 0.053 7.4 2.59 13.68
1/11/2023 2:45:00 PM 4.02 39.236 0.053 7.39 2.58 13.65
1/11/2023 3:00:00 PM 4.04 39.272 0.053 7.37 2.62 13.61
1/11/2023 3:15:00 PM 4.06 39.308 0.053 7.29 2.65 13.56
1/11/2023 3:30:00 PM 4.08 39.344 0.053 7.35 2.61 13.52
1/11/2023 3:45:00 PM 4.09 39.362 0.053 7.33 2.58 13.5
1/11/2023 4:00:00 PM 4.11 39.398 0.053 7.31 2.66 13.47
1/11/2023 4:15:00 PM 4.12 39.416 0.053 7.32 2.63 13.44
1/11/2023 4:30:00 PM 4.13 39.434 0.053 7.31 2.68 13.42
1/11/2023 4:45:00 PM 4.12 39.416 0.053 7.28 2.64 13.35
1/11/2023 5:00:00 PM 4.12 39.416 0.053 7.22 2.7 13.23
1/11/2023 5:15:00 PM 4.09 39.362 0.053 7.22 2.78 13.13
1/11/2023 5:30:00 PM 4.05 39.29 0.054 7.17 2.72 13.05
1/11/2023 5:45:00 PM 4.01 39.218 0.055 7.17 2.68 12.98
1/11/2023 6:00:00 PM 3.97 39.146 0.054 7.02 2.77 12.94
1/11/2023 6:15:00 PM 3.93 39.074 0.054 7.01 2.88 12.91
1/11/2023 6:30:00 PM 3.91 39.038 0.054 6.99 2.86 12.89
1/11/2023 6:45:00 PM 3.89 39.002 0.054 7.1 2.82 12.88
1/11/2023 7:00:00 PM 3.87 38.966 0.054 7.07 2.91 12.87
1/11/2023 7:15:00 PM 3.86 38.948 0.054 7.08 2.72 12.87
1/11/2023 7:30:00 PM 3.85 38.93 0.054 7.06 2.79 12.86
1/11/2023 7:45:00 PM 3.83 38.894 0.054 7.08 2.88 12.86
1/11/2023 8:00:00 PM 3.81 38.858 0.054 7.05 2.79 12.86
1/11/2023 8:15:00 PM 3.78 38.804 0.054 7.05 2.73 12.86
1/11/2023 8:30:00 PM 3.75 38.75 0.054 7.07 2.86 12.87
1/11/2023 8:45:00 PM 3.71 38.678 0.054 6.96 2.75 12.88
1/11/2023 9:00:00 PM 3.68 38.624 0.054 7.02 2.77 12.89
1/11/2023 9:15:00 PM 3.65 38.57 0.054 7.05 2.77 12.9
1/11/2023 9:30:00 PM 3.62 38.516 0.054 7 2.72 12.91
1/11/2023 9:45:00 PM 3.59 38.462 0.054 7 2.85 12.92
1/11/2023 10:00:00 PM 3.56 38.408 0.054 7.01 2.75 12.92
1/11/2023 10:15:00 PM 3.54 38.372 0.054 6.93 2.72 12.94
1/11/2023 10:30:00 PM 3.52 38.336 0.054 7.04 2.69 12.94
1/11/2023 10:45:00 PM 3.5 38.3 0.054 7 2.75 12.95
1/11/2023 11:00:00 PM 3.49 38.282 0.055 7.02 2.71 12.95
1/11/2023 11:15:00 PM 3.48 38.264 0.055 7.03 2.91 12.96
1/11/2023 11:30:00 PM 3.46 38.228 0.055 7 2.76 12.97
1/11/2023 11:45:00 PM 3.45 38.21 0.055 7.01 2.85 12.97
1/12/2023 12:00:00 AM 3.44 38.192 0.055 7.02 2.74 12.98
1/12/2023 12:15:00 AM 3.44 38.192 0.055 7.01 2.72 12.98
1/12/2023 12:30:00 AM 3.44 38.192 0.055 7.04 2.75 12.98
1/12/2023 12:45:00 AM 3.45 38.21 0.055 7 2.75 12.98
1/12/2023 1:00:00 AM 3.45 38.21 0.055 6.85 2.71 12.98
1/12/2023 1:15:00 AM 3.46 38.228 0.055 7.02 2.7 12.97
1/12/2023 1:30:00 AM 3.46 38.228 0.055 6.93 2.69 12.98
1/12/2023 1:45:00 AM 3.47 38.246 0.055 7.02 2.73 12.97
1/12/2023 2:00:00 AM 3.47 38.246 0.055 6.96 2.76 12.97
1/12/2023 2:15:00 AM 3.47 38.246 0.055 7.04 2.67 12.96
1/12/2023 2:30:00 AM 3.47 38.246 0.055 7 2.63 12.97
1/12/2023 2:45:00 AM 3.48 38.264 0.055 6.96 2.71 12.97
1/12/2023 3:00:00 AM 3.48 38.264 0.055 7 2.72 12.97
1/12/2023 3:15:00 AM 3.49 38.282 0.055 7.02 2.69 12.96
1/12/2023 3:30:00 AM 3.49 38.282 0.055 6.98 2.62 12.96
1/12/2023 3:45:00 AM 3.5 38.3 0.055 6.86 2.69 12.96
1/12/2023 4:00:00 AM 3.5 38.3 0.055 6.96 2.59 12.95
1/12/2023 4:15:00 AM 3.51 38.318 0.055 7.03 2.67 12.95
1/12/2023 4:30:00 AM 3.51 38.318 0.055 7.02 2.69 12.95
1/12/2023 4:45:00 AM 3.52 38.336 0.055 6.95 2.75 12.94
1/12/2023 5:00:00 AM 3.53 38.354 0.055 7.02 2.81 12.94
1/12/2023 5:15:00 AM 3.54 38.372 0.055 6.95 2.75 12.94
1/12/2023 5:30:00 AM 3.54 38.372 0.055 7.02 2.7 12.93
1/12/2023 5:45:00 AM 3.55 38.39 0.055 7.01 2.78 12.93
1/12/2023 6:00:00 AM 3.56 38.408 0.055 6.89 2.81 12.93
1/12/2023 6:15:00 AM 3.57 38.426 0.055 6.99 2.87 12.92
1/12/2023 6:30:00 AM 3.58 38.444 0.055 7.03 2.89 12.92
1/12/2023 6:45:00 AM 3.59 38.462 0.055 7.03 3.01 12.92
1/12/2023 7:00:00 AM 3.6 38.48 0.055 7.01 3.04 12.91
1/12/2023 7:15:00 AM 3.61 38.498 0.055 6.95 2.96 12.91
1/12/2023 7:30:00 AM 3.62 38.516 0.055 6.91 2.98 12.91
1/12/2023 7:45:00 AM 3.63 38.534 0.055 7.04 2.86 12.91
1/12/2023 8:00:00 AM 3.64 38.552 0.055 7.01 2.93 12.91
1/12/2023 8:15:00 AM 3.65 38.57 0.055 7 2.93 12.92
1/12/2023 8:30:00 AM 3.66 38.588 0.055 7.05 2.85 12.93
1/12/2023 8:45:00 AM 3.68 38.624 0.054 7.04 2.99 12.96
1/12/2023 9:00:00 AM 3.69 38.642 0.054 7.05 2.86 12.98
1/12/2023 9:15:00 AM 3.71 38.678 0.054 7.04 2.91 13.01
1/12/2023 9:30:00 AM 3.73 38.714 0.054 7.05 2.87 13.05
1/12/2023 9:45:00 AM 3.74 38.732 0.054 7.05 2.78 13.06
1/12/2023 10:00:00 AM 3.76 38.768 0.054 7.04 2.89 13.09
1/12/2023 10:15:00 AM 3.78 38.804 0.054 7.08 2.86 13.11
1/12/2023 10:30:00 AM 3.8 38.84 0.054 7.1 2.9 13.16
1/12/2023 10:45:00 AM 3.83 38.894 0.054 6.98 2.9 13.2
1/12/2023 11:00:00 AM 3.86 38.948 0.054 7.16 2.76 13.25
1/12/2023 11:15:00 AM 3.88 38.984 0.054 7.12 2.84 13.29
1/12/2023 11:30:00 AM 3.91 39.038 0.054 7.18 2.77 13.32
1/12/2023 11:45:00 AM 3.95 39.11 0.054 7.22 2.81 13.34
1/12/2023 12:00:00 PM 3.97 39.146 0.054 7.22 2.75 13.35
1/12/2023 12:15:00 PM 3.99 39.182 0.054 7.05 2.67 13.3
1/12/2023 12:30:00 PM 4.02 39.236 0.054 7.13 2.79 13.31
1/12/2023 12:45:00 PM 4.04 39.272 0.054 7.23 2.83 13.33
1/12/2023 1:00:00 PM 4.07 39.326 0.054 7.25 2.72 13.36
1/12/2023 1:15:00 PM 4.1 39.38 0.054 7.27 2.79 13.35
1/12/2023 1:30:00 PM 4.12 39.416 0.054 7.25 2.83 13.32
1/12/2023 1:45:00 PM 4.13 39.434 0.054 7.24 2.73 13.28
1/12/2023 2:00:00 PM 4.15 39.47 0.055 7.28 2.69 13.23
1/12/2023 2:15:00 PM 4.16 39.488 0.055 7.17 2.73 13.19
1/12/2023 2:30:00 PM 4.17 39.506 0.055 7.24 2.77 13.18
1/12/2023 2:45:00 PM 4.18 39.524 0.055 7.22 3.1 13.14
1/12/2023 3:00:00 PM 4.19 39.542 0.055 7.19 3.01 13.11
1/12/2023 3:15:00 PM 4.2 39.56 0.055 7.21 3.01 13.08
1/12/2023 3:30:00 PM 4.21 39.578 0.055 7.22 3.49 13.03
1/12/2023 3:45:00 PM 4.22 39.596 0.055 7.06 4.32 12.98
1/12/2023 4:00:00 PM 4.23 39.614 0.055 7.11 6.06 12.93
1/12/2023 4:15:00 PM 4.24 39.632 0.055 7.11 7.37 12.88
1/12/2023 4:30:00 PM 4.25 39.65 0.055 7.17 8.48 12.84
1/12/2023 4:45:00 PM 4.25 39.65 0.056 7.12 10.45 12.79
1/12/2023 5:00:00 PM 4.26 39.668 0.056 6.98 11.32 12.74
1/12/2023 5:15:00 PM 4.26 39.668 0.056 7.13 12.12 12.71
1/12/2023 5:30:00 PM 4.27 39.686 0.056 7.11 14.63 12.67
1/12/2023 5:45:00 PM 4.28 39.704 0.056 7.08 15.25 12.64
1/12/2023 6:00:00 PM 4.29 39.722 0.056 6.98 15.55 12.63
1/12/2023 6:15:00 PM 4.3 39.74 0.056 7.09 16.62 12.61
1/12/2023 6:30:00 PM 4.31 39.758 0.056 7.09 17.88 12.6
1/12/2023 6:45:00 PM 4.32 39.776 0.056 7.05 16.06 12.59
1/12/2023 7:00:00 PM 4.33 39.794 0.056 7.08 14.98 12.58
1/12/2023 7:15:00 PM 4.34 39.812 0.056 6.86 14.65 12.57
1/12/2023 7:30:00 PM 4.35 39.83 0.056 7.08 13.97 12.56
1/12/2023 7:45:00 PM 4.35 39.83 0.056 7.04 11.84 12.55
1/12/2023 8:00:00 PM 4.36 39.848 0.056 7.07 12.61 12.55
1/12/2023 8:15:00 PM 4.37 39.866 0.056 6.86 12.18 12.54
1/12/2023 8:30:00 PM 4.38 39.884 0.056 7.07 13.99 12.53
1/12/2023 8:45:00 PM 4.39 39.902 0.056 7.06 14.61 12.52
1/12/2023 9:00:00 PM 4.4 39.92 0.056 7.02 13.89 12.51
1/12/2023 9:15:00 PM 4.41 39.938 0.057 7.03 15.03 12.52
1/12/2023 9:30:00 PM 4.42 39.956 0.057 7.05 13.43 12.51
1/12/2023 9:45:00 PM 4.44 39.992 0.057 7.03 13.71 12.5
1/12/2023 10:00:00 PM 4.45 40.01 0.057 7.04 13.24 12.5
1/12/2023 10:15:00 PM 4.46 40.028 0.057 6.95 12.84 12.49
1/12/2023 10:30:00 PM 4.48 40.064 0.058 7.05 12.56 12.49
1/12/2023 10:45:00 PM 4.49 40.082 0.058 7.03 11.48 12.48
1/12/2023 11:00:00 PM 4.5 40.1 0.058 7.04 9.97 12.47
1/12/2023 11:15:00 PM 4.51 40.118 0.058 7.04 10.14 12.47
1/12/2023 11:30:00 PM 4.52 40.136 0.058 7.04 9.65 12.46
1/12/2023 11:45:00 PM 4.53 40.154 0.058 7.03 8.65 12.46
1/13/2023 12:00:00 AM 4.54 40.172 0.058 6.9 8.48 12.44
1/13/2023 12:15:00 AM 4.55 40.19 0.058 7 8.86 12.44
1/13/2023 12:30:00 AM 4.56 40.208 0.058 7 8.7 12.43
1/13/2023 12:45:00 AM 4.57 40.226 0.058 6.99 8.95 12.43
1/13/2023 1:00:00 AM 4.57 40.226 0.058 7.05 8.59 12.42
1/13/2023 1:15:00 AM 4.58 40.244 0.058 7.02 8.7 12.42
1/13/2023 1:30:00 AM 4.59 40.262 0.058 6.97 8.62 12.42
1/13/2023 1:45:00 AM 4.6 40.28 0.059 7.07 7.96 12.41
1/13/2023 2:00:00 AM 4.6 40.28 0.059 7.03 7.65 12.41
1/13/2023 2:15:00 AM 4.61 40.298 0.059 7.03 7.7 12.41
1/13/2023 2:30:00 AM 4.62 40.316 0.059 7.02 7.4 12.41
1/13/2023 2:45:00 AM 4.63 40.334 0.059 7.06 7.07 12.39
1/13/2023 3:00:00 AM 4.64 40.352 0.059 7.01 7.6 12.39
1/13/2023 3:15:00 AM 4.65 40.37 0.059 7 7.12 12.39
1/13/2023 3:30:00 AM 4.65 40.37 0.059 7.02 7.16 12.39
1/13/2023 3:45:00 AM 4.65 40.37 0.059 7.02 7.24 12.4
1/13/2023 4:00:00 AM 4.66 40.388 0.059 7.03 7.09 12.39
1/13/2023 4:15:00 AM 4.66 40.388 0.059 7.05 7.35 12.39
1/13/2023 4:30:00 AM 4.66 40.388 0.059 7.04 7.49 12.39
1/13/2023 4:45:00 AM 4.66 40.388 0.059 6.9 7.05 12.41
1/13/2023 5:00:00 AM 4.66 40.388 0.059 7.07 7.51 12.42
1/13/2023 5:15:00 AM 4.65 40.37 0.059 7.04 7.32 12.41
1/13/2023 5:30:00 AM 4.64 40.352 0.059 7.05 7.24 12.43
1/13/2023 5:45:00 AM 4.63 40.334 0.059 7.05 7.61 12.43
1/13/2023 6:00:00 AM 4.62 40.316 0.059 7.03 7.53 12.43
1/13/2023 6:15:00 AM 4.6 40.28 0.059 6.99 6.65 12.44
1/13/2023 6:30:00 AM 4.59 40.262 0.059 7.04 7.2 12.44
1/13/2023 6:45:00 AM 4.58 40.244 0.059 7.07 6.4 12.45
1/13/2023 7:00:00 AM 4.57 40.226 0.059 7.03 7.04 12.46
1/13/2023 7:15:00 AM 4.55 40.19 0.059 7.02 6.95 12.47
1/13/2023 7:30:00 AM 4.54 40.172 0.059 7.04 6.56 12.47
1/13/2023 7:45:00 AM 4.52 40.136 0.059 7.05 6.94 12.48
1/13/2023 8:00:00 AM 4.5 40.1 0.059 7.01 6.26 12.51
1/13/2023 8:15:00 AM 4.48 40.064 0.059 7.08 6.07 12.54
1/13/2023 8:30:00 AM 4.46 40.028 0.059 7.06 6.22 12.57
1/13/2023 8:45:00 AM 4.45 40.01 0.059 7.07 6.5 12.62
1/13/2023 9:00:00 AM 4.44 39.992 0.059 7.08 6.25 12.7
1/13/2023 9:15:00 AM 4.43 39.974 0.059 7.1 6.27 12.79
1/13/2023 9:30:00 AM 4.42 39.956 0.059 7.1 6.09 12.85
1/13/2023 9:45:00 AM 4.42 39.956 0.059 7.04 6.09 12.93
1/13/2023 10:00:00 AM 4.42 39.956 0.059 7.07 6 13
1/13/2023 10:15:00 AM 4.4 39.92 0.059 7.15 6.16 13
1/13/2023 10:30:00 AM 4.4 39.92 0.059 7.17 5.91 13
1/13/2023 10:45:00 AM 4.4 39.92 0.059 7.19 5.87 13.07
1/13/2023 11:00:00 AM 4.39 39.902 0.058 7.19 5.71 13.14
1/13/2023 11:15:00 AM 4.39 39.902 0.058 7.22 5.59 13.16
1/13/2023 11:30:00 AM 4.37 39.866 0.058 7.25 5.43 13.18
1/13/2023 11:45:00 AM 4.36 39.848 0.058 7.16 5.46 13.18
1/13/2023 12:00:00 PM 4.33 39.794 0.058 7.18 5.28 13.16
1/13/2023 12:15:00 PM 4.31 39.758 0.058 7.2 5.4 13.16
1/13/2023 12:30:00 PM 4.29 39.722 0.058 7.21 5.37 13.17
1/13/2023 12:45:00 PM 4.27 39.686 0.058 7.25 5.06 13.16
1/13/2023 1:00:00 PM 4.25 39.65 0.058 7.22 5.15 13.19
1/13/2023 1:15:00 PM 4.24 39.632 0.058 7.23 5 13.17
1/13/2023 1:30:00 PM 4.23 39.614 0.058 7.23 5.19 13.19
1/13/2023 1:45:00 PM 4.21 39.578 0.057 7.21 5.16 13.18
1/13/2023 2:00:00 PM 4.19 39.542 0.057 7.21 5 13.18
1/13/2023 2:15:00 PM 4.17 39.506 0.057 7.16 5.07 13.15
1/13/2023 2:30:00 PM 4.15 39.47 0.057 7.19 4.94 13.16
1/13/2023 2:45:00 PM 4.13 39.434 0.057 7.25 4.74 13.18
1/13/2023 3:00:00 PM 4.1 39.38 0.057 7.16 4.52 13.15
1/13/2023 3:15:00 PM 4.07 39.326 0.057 7.16 4.53 13.11
1/13/2023 3:30:00 PM 4.04 39.272 0.057 7.19 4.8 13.09
1/13/2023 3:45:00 PM 4.01 39.218 0.057 7.16 4.59 13.06
1/13/2023 4:00:00 PM 3.99 39.182 0.057 7.14 4.71 13.02
1/13/2023 4:15:00 PM 3.97 39.146 0.057 7.14 4.58 13
1/13/2023 4:30:00 PM 3.94 39.092 0.057 7.13 4.43 12.97
1/13/2023 4:45:00 PM 3.91 39.038 0.057 7.12 4.35 12.94
1/13/2023 5:00:00 PM 3.88 38.984 0.057 7.11 4.36 12.91
1/13/2023 5:15:00 PM 3.85 38.93 0.057 7.09 4.56 12.89
1/13/2023 5:30:00 PM 3.82 38.876 0.057 7.09 4.21 12.87
1/13/2023 5:45:00 PM 3.8 38.84 0.057 7.07 4.4 12.87
1/13/2023 6:00:00 PM 3.77 38.786 0.057 7.05 4.36 12.87
1/13/2023 6:15:00 PM 3.74 38.732 0.057 7.01 4.33 12.86
1/13/2023 6:30:00 PM 3.71 38.678 0.057 7.06 4.31 12.87
1/13/2023 6:45:00 PM 3.68 38.624 0.057 7.02 4.44 12.87
1/13/2023 7:00:00 PM 3.65 38.57 0.057 7 4.28 12.88
1/13/2023 7:15:00 PM 3.62 38.516 0.057 7.05 4.25 12.88
1/13/2023 7:30:00 PM 3.59 38.462 0.057 6.97 4.11 12.89
1/13/2023 7:45:00 PM 3.56 38.408 0.057 6.94 4.12 12.91
1/13/2023 8:00:00 PM 3.54 38.372 0.057 7.03 4.13 12.92
1/13/2023 8:15:00 PM 3.52 38.336 0.057 7.01 4.14 12.93
1/13/2023 8:30:00 PM 3.49 38.282 0.056 6.86 4.05 12.94
1/13/2023 8:45:00 PM 3.46 38.228 0.056 6.92 4.23 12.95
1/13/2023 9:00:00 PM 3.43 38.174 0.056 6.96 4.08 12.96
1/13/2023 9:15:00 PM 3.39 38.102 0.056 6.94 4.09 12.97
1/13/2023 9:30:00 PM 3.36 38.048 0.056 7.01 4.01 12.98
1/13/2023 9:45:00 PM 3.34 38.012 0.056 7 4.06 13
1/13/2023 10:00:00 PM 3.31 37.958 0.056 7.03 4.08 13.01
1/13/2023 10:15:00 PM 3.28 37.904 0.056 6.98 3.91 13.02
1/13/2023 10:30:00 PM 3.26 37.868 0.056 7.02 4.12 13.03
1/13/2023 10:45:00 PM 3.22 37.796 0.055 6.99 3.94 13.04
1/13/2023 11:00:00 PM 3.19 37.742 0.055 7 3.88 13.06
1/13/2023 11:15:00 PM 3.17 37.706 0.055 6.98 4 13.06
1/13/2023 11:30:00 PM 3.15 37.67 0.055 7.01 4.03 13.07
1/13/2023 11:45:00 PM 3.13 37.634 0.055 6.98 4.07 13.08
1/14/2023 12:00:00 AM 3.1 37.58 0.055 7 3.84 13.09
1/14/2023 12:15:00 AM 3.08 37.544 0.055 7 3.96 13.1
1/14/2023 12:30:00 AM 3.06 37.508 0.055 6.8 3.92 13.1
1/14/2023 12:45:00 AM 3.03 37.454 0.055 7 3.83 13.11
1/14/2023 1:00:00 AM 3 37.4 0.055 6.95 3.88 13.12
1/14/2023 1:15:00 AM 2.97 37.346 0.055 7.02 3.88 13.13
1/14/2023 1:30:00 AM 2.94 37.292 0.055 6.89 3.79 13.14
1/14/2023 1:45:00 AM 2.92 37.256 0.055 7.01 3.74 13.15
1/14/2023 2:00:00 AM 2.91 37.238 0.055 7.01 4.03 13.16
1/14/2023 2:15:00 AM 2.89 37.202 0.055 6.89 3.9 13.16
1/14/2023 2:30:00 AM 2.87 37.166 0.055 7 3.96 13.18
1/14/2023 2:45:00 AM 2.85 37.13 0.055 6.93 3.95 13.18
1/14/2023 3:00:00 AM 2.82 37.076 0.055 6.9 3.99 13.19
1/14/2023 3:15:00 AM 2.81 37.058 0.055 6.96 3.91 13.2
1/14/2023 3:30:00 AM 2.79 37.022 0.055 6.94 3.96 13.21
1/14/2023 3:45:00 AM 2.78 37.004 0.055 6.9 3.94 13.22
1/14/2023 4:00:00 AM 2.76 36.968 0.055 6.83 3.94 13.22
1/14/2023 4:15:00 AM 2.74 36.932 0.055 6.92 3.86 13.23
1/14/2023 4:30:00 AM 2.73 36.914 0.055 6.91 3.88 13.24
1/14/2023 4:45:00 AM 2.71 36.878 0.055 6.89 3.91 13.25
1/14/2023 5:00:00 AM 2.69 36.842 0.055 6.86 3.84 13.26
1/14/2023 5:15:00 AM 2.66 36.788 0.054 6.84 3.78 13.27
1/14/2023 5:30:00 AM 2.64 36.752 0.054 6.79 3.85 13.28
1/14/2023 5:45:00 AM 2.63 36.734 0.054 6.88 3.88 13.29
1/14/2023 6:00:00 AM 2.61 36.698 0.054 6.84 3.82 13.3
1/14/2023 6:15:00 AM 2.6 36.68 0.054 6.78 3.82 13.3
1/14/2023 6:30:00 AM 2.58 36.644 0.054 6.88 3.78 13.31
1/14/2023 6:45:00 AM 2.57 36.626 0.054 6.86 3.84 13.32
1/14/2023 7:00:00 AM 2.56 36.608 0.054 6.84 3.77 13.33
1/14/2023 7:15:00 AM 2.54 36.572 0.053 6.83 3.82 13.33
1/14/2023 7:30:00 AM 2.53 36.554 0.053 6.81 3.78 13.34
1/14/2023 7:45:00 AM 2.51 36.518 0.053 6.79 3.8 13.35
1/14/2023 8:00:00 AM 2.5 36.5 0.053 6.85 3.7 13.37
1/14/2023 8:15:00 AM 2.48 36.464 0.053 6.79 3.66 13.39
1/14/2023 8:30:00 AM 2.47 36.446 0.053 6.86 3.68 13.43
1/14/2023 8:45:00 AM 2.46 36.428 0.053 6.87 3.61 13.5
1/14/2023 9:00:00 AM 2.44 36.392 0.053 6.88 3.61 13.56
1/14/2023 9:15:00 AM 2.43 36.374 0.053 6.9 3.55 13.61
1/14/2023 9:30:00 AM 2.42 36.356 0.053 6.92 3.57 13.69
1/14/2023 9:45:00 AM 2.43 36.374 0.053 6.95 3.65 13.75
1/14/2023 10:00:00 AM 2.44 36.392 0.052 6.97 3.46 13.82
1/14/2023 10:15:00 AM 2.44 36.392 0.052 7 3.44 13.87
1/14/2023 10:30:00 AM 2.46 36.428 0.052 7 3.42 13.92
1/14/2023 10:45:00 AM 2.48 36.464 0.052 7 3.36 13.97
1/14/2023 11:00:00 AM 2.5 36.5 0.052 7.07 3.33 14
1/14/2023 11:15:00 AM 2.53 36.554 0.052 7.05 3.3 14.02
1/14/2023 11:30:00 AM 2.56 36.608 0.052 7.1 3.42 14.03
1/14/2023 11:45:00 AM 2.58 36.644 0.052 7.04 3.36 14.03
1/14/2023 12:00:00 PM 2.6 36.68 0.052 7.1 3.25 14.03
1/14/2023 12:15:00 PM 2.62 36.716 0.052 7.14 3.33 14.03
1/14/2023 12:30:00 PM 2.63 36.734 0.051 7.14 3.31 14.03
1/14/2023 12:45:00 PM 2.64 36.752 0.051 7.06 3.36 14.03
1/14/2023 1:00:00 PM 2.67 36.806 0.051 7.17 3.32 14.03
1/14/2023 1:15:00 PM 2.71 36.878 0.051 7.16 3.33 14.02
1/14/2023 1:30:00 PM 2.73 36.914 0.051 7.16 3.25 14.02
1/14/2023 1:45:00 PM 2.75 36.95 0.051 7.1 3.17 14.01
1/14/2023 2:00:00 PM 2.78 37.004 0.051 7.18 3.28 14
1/14/2023 2:15:00 PM 2.8 37.04 0.051 7.19 3.22 13.98
1/14/2023 2:30:00 PM 2.81 37.058 0.051 7.19 3.24 13.97
1/14/2023 2:45:00 PM 2.81 37.058 0.051 7.17 3.26 13.95
1/14/2023 3:00:00 PM 2.82 37.076 0.051 7.18 3.19 13.94
1/14/2023 3:15:00 PM 2.82 37.076 0.051 7.18 3.19 13.93
1/14/2023 3:30:00 PM 2.81 37.058 0.051 7.16 3.27 13.91
1/14/2023 3:45:00 PM 2.81 37.058 0.051 7.16 3.22 13.88
1/14/2023 4:00:00 PM 2.8 37.04 0.051 7.13 3.33 13.85
1/14/2023 4:15:00 PM 2.78 37.004 0.051 7.11 3.25 13.82
1/14/2023 4:30:00 PM 2.76 36.968 0.051 7.09 3.23 13.77
1/14/2023 4:45:00 PM 2.74 36.932 0.051 7.08 3.3 13.71
1/14/2023 5:00:00 PM 2.72 36.896 0.051 7.05 3.36 13.63
1/14/2023 5:15:00 PM 2.7 36.86 0.051 7.01 3.23 13.57
1/14/2023 5:30:00 PM 2.66 36.788 0.051 7.01 3.25 13.52
1/14/2023 5:45:00 PM 2.64 36.752 0.051 6.98 3.25 13.48
1/14/2023 6:00:00 PM 2.62 36.716 0.051 6.97 3.25 13.46
1/14/2023 6:15:00 PM 2.6 36.68 0.051 6.87 3.21 13.44
1/14/2023 6:30:00 PM 2.58 36.644 0.051 6.95 3.23 13.42
1/14/2023 6:45:00 PM 2.55 36.59 0.051 6.93 3.29 13.42
1/14/2023 7:00:00 PM 2.53 36.554 0.051 6.9 3.26 13.41
1/14/2023 7:15:00 PM 2.51 36.518 0.051 6.9 3.2 13.42
1/14/2023 7:30:00 PM 2.48 36.464 0.051 6.91 3.26 13.42
1/14/2023 7:45:00 PM 2.46 36.428 0.051 6.9 3.28 13.43
1/14/2023 8:00:00 PM 2.44 36.392 0.051 6.92 3.24 13.44
1/14/2023 8:15:00 PM 2.43 36.374 0.051 6.88 3.2 13.44
1/14/2023 8:30:00 PM 2.4 36.32 0.051 6.9 3.25 13.45
1/14/2023 8:45:00 PM 2.38 36.284 0.051 6.88 3.31 13.46
1/14/2023 9:00:00 PM 2.37 36.266 0.051 6.85 3.21 13.46
1/14/2023 9:15:00 PM 2.35 36.23 0.052 6.86 3.28 13.47
1/14/2023 9:30:00 PM 2.32 36.176 0.051 6.81 3.19 13.48
1/14/2023 9:45:00 PM 2.3 36.14 0.051 6.89 3.23 13.49
1/14/2023 10:00:00 PM 2.29 36.122 0.051 6.83 3.24 13.49
1/14/2023 10:15:00 PM 2.28 36.104 0.051 6.88 3.24 13.5
1/14/2023 10:30:00 PM 2.26 36.068 0.051 6.84 3.19 13.5
1/14/2023 10:45:00 PM 2.24 36.032 0.051 6.9 3.25 13.51
1/14/2023 11:00:00 PM 2.23 36.014 0.051 6.88 3.32 13.52
1/14/2023 11:15:00 PM 2.22 35.996 0.051 6.85 3.25 13.52
1/14/2023 11:30:00 PM 2.2 35.96 0.051 6.84 3.24 13.52
1/14/2023 11:45:00 PM 2.19 35.942 0.051 6.86 3.21 13.53
1/15/2023 12:00:00 AM 2.18 35.924 0.051 6.87 3.23 13.53
1/15/2023 12:15:00 AM 2.17 35.906 0.051 6.87 3.19 13.54
1/15/2023 12:30:00 AM 2.16 35.888 0.051 6.88 3.14 13.54
1/15/2023 12:45:00 AM 2.16 35.888 0.051 6.85 3.16 13.54
1/15/2023 1:00:00 AM 2.14 35.852 0.051 6.86 3.17 13.54
1/15/2023 1:15:00 AM 2.14 35.852 0.051 6.87 3.26 13.54
1/15/2023 1:30:00 AM 2.14 35.852 0.051 6.85 3.19 13.55
1/15/2023 1:45:00 AM 2.13 35.834 0.051 6.84 3.14 13.55
1/15/2023 2:00:00 AM 2.12 35.816 0.051 6.88 3.32 13.55
1/15/2023 2:15:00 AM 2.12 35.816 0.051 6.86 3.15 13.56
1/15/2023 2:30:00 AM 2.12 35.816 0.051 6.86 3.15 13.57
1/15/2023 2:45:00 AM 2.12 35.816 0.051 6.86 3.11 13.57
1/15/2023 3:00:00 AM 2.11 35.798 0.051 6.85 3.16 13.57
1/15/2023 3:15:00 AM 2.11 35.798 0.051 6.88 3.16 13.58
1/15/2023 3:30:00 AM 2.11 35.798 0.051 6.86 3.08 13.58
1/15/2023 3:45:00 AM 2.1 35.78 0.051 6.88 3.06 13.58
1/15/2023 4:00:00 AM 2.1 35.78 0.051 6.87 3.1 13.58
1/15/2023 4:15:00 AM 2.09 35.762 0.051 6.87 3.16 13.58
1/15/2023 4:30:00 AM 2.08 35.744 0.051 6.85 3.22 13.59
1/15/2023 4:45:00 AM 2.07 35.726 0.051 6.87 3.19 13.59
1/15/2023 5:00:00 AM 2.06 35.708 0.051 6.86 3.11 13.6
1/15/2023 5:15:00 AM 2.05 35.69 0.051 6.86 3.07 13.6
1/15/2023 5:30:00 AM 2.04 35.672 0.051 6.85 3.19 13.6
1/15/2023 5:45:00 AM 2.04 35.672 0.051 6.83 3.11 13.61
1/15/2023 6:00:00 AM 2.03 35.654 0.051 6.81 3.05 13.61
1/15/2023 6:15:00 AM 2.02 35.636 0.051 6.82 3.11 13.62
1/15/2023 6:30:00 AM 2.01 35.618 0.051 6.84 3.11 13.62
1/15/2023 6:45:00 AM 2 35.6 0.051 6.89 3.09 13.63
1/15/2023 7:00:00 AM 1.98 35.564 0.051 6.87 3.09 13.64
1/15/2023 7:15:00 AM 1.97 35.546 0.051 6.87 3.09 13.64
1/15/2023 7:30:00 AM 1.96 35.528 0.051 6.81 3.16 13.65
1/15/2023 7:45:00 AM 1.95 35.51 0.051 6.9 3.07 13.66
1/15/2023 8:00:00 AM 1.94 35.492 0.051 6.89 3.1 13.7
1/15/2023 8:15:00 AM 1.94 35.492 0.051 6.91 3.12 13.75
1/15/2023 8:30:00 AM 1.94 35.492 0.05 6.89 3.02 13.81
1/15/2023 8:45:00 AM 1.95 35.51 0.05 6.93 2.94 13.88
1/15/2023 9:00:00 AM 1.96 35.528 0.05 6.94 3 13.96
1/15/2023 9:15:00 AM 1.99 35.582 0.05 6.91 2.98 14.03
1/15/2023 9:30:00 AM 2.01 35.618 0.05 6.99 3.07 14.1
1/15/2023 9:45:00 AM 2.04 35.672 0.05 7 2.98 14.16
1/15/2023 10:00:00 AM 2.06 35.708 0.05 7.03 2.95 14.19
1/15/2023 10:15:00 AM 2.1 35.78 0.05 7.04 2.93 14.22
1/15/2023 10:30:00 AM 2.16 35.888 0.05 7.07 3 14.25
1/15/2023 10:45:00 AM 2.18 35.924 0.05 7.05 3.01 14.25
1/15/2023 11:00:00 AM 2.24 36.032 0.05 7.04 2.91 14.25
1/15/2023 11:15:00 AM 2.34 36.212 0.05 7.11 2.94 14.24
1/15/2023 11:30:00 AM 2.38 36.284 0.05 7.1 2.97 14.23
1/15/2023 11:45:00 AM 2.45 36.41 0.05 7.11 2.91 14.22
1/15/2023 12:00:00 PM 2.56 36.608 0.05 7.11 2.9 14.19
1/15/2023 12:15:00 PM 2.65 36.77 0.05 7.11 2.95 14.16
1/15/2023 12:30:00 PM 2.74 36.932 0.049 7.16 2.86 14.14
1/15/2023 12:45:00 PM 2.82 37.076 0.049 7.12 2.91 14.11
1/15/2023 1:00:00 PM 2.9 37.22 0.049 7.16 2.86 14.08
1/15/2023 1:15:00 PM 2.98 37.364 0.049 7.16 2.9 14.05
1/15/2023 1:30:00 PM 3.05 37.49 0.049 7.09 2.96 14.02
1/15/2023 1:45:00 PM 3.12 37.616 0.049 7.18 2.84 13.99
1/15/2023 2:00:00 PM 3.17 37.706 0.049 7.16 2.9 13.96
1/15/2023 2:15:00 PM 3.23 37.814 0.049 7.16 2.82 13.92
1/15/2023 2:30:00 PM 3.28 37.904 0.049 7.18 2.85 13.88
1/15/2023 2:45:00 PM 3.33 37.994 0.049 7.17 2.87 13.85
1/15/2023 3:00:00 PM 3.37 38.066 0.049 7.18 2.9 13.81
1/15/2023 3:15:00 PM 3.39 38.102 0.049 7.15 2.89 13.76
1/15/2023 3:30:00 PM 3.4 38.12 0.049 7.19 2.81 13.73
1/15/2023 3:45:00 PM 3.39 38.102 0.049 7.14 2.85 13.68
1/15/2023 4:00:00 PM 3.38 38.084 0.049 7.15 2.93 13.64
1/15/2023 4:15:00 PM 3.36 38.048 0.049 7.12 2.93 13.6
1/15/2023 4:30:00 PM 3.32 37.976 0.049 7.11 2.83 13.56
1/15/2023 4:45:00 PM 3.26 37.868 0.049 7.06 2.81 13.52
1/15/2023 5:00:00 PM 3.19 37.742 0.049 7.07 2.88 13.49
1/15/2023 5:15:00 PM 3.13 37.634 0.05 7.04 2.86 13.44
1/15/2023 5:30:00 PM 3.06 37.508 0.05 7.04 3.02 13.41
1/15/2023 5:45:00 PM 2.99 37.382 0.05 7.01 2.99 13.38
1/15/2023 6:00:00 PM 2.92 37.256 0.05 6.98 2.96 13.37
1/15/2023 6:15:00 PM 2.86 37.148 0.05 6.98 2.97 13.36
1/15/2023 6:30:00 PM 2.81 37.058 0.05 6.97 2.92 13.36
1/15/2023 6:45:00 PM 2.76 36.968 0.05 6.95 2.89 13.35
1/15/2023 7:00:00 PM 2.72 36.896 0.05 6.95 3.05 13.36
1/15/2023 7:15:00 PM 2.68 36.824 0.05 6.94 2.97 13.37
1/15/2023 7:30:00 PM 2.64 36.752 0.05 6.92 2.92 13.37
1/15/2023 7:45:00 PM 2.6 36.68 0.05 6.94 2.96 13.38
1/15/2023 8:00:00 PM 2.56 36.608 0.05 6.94 2.9 13.39
1/15/2023 8:15:00 PM 2.53 36.554 0.05 6.92 2.97 13.4
1/15/2023 8:30:00 PM 2.49 36.482 0.05 6.91 2.93 13.41
1/15/2023 8:45:00 PM 2.46 36.428 0.05 6.92 2.95 13.42
1/15/2023 9:00:00 PM 2.42 36.356 0.05 6.9 3.01 13.43
1/15/2023 9:15:00 PM 2.38 36.284 0.05 6.9 3.05 13.45
1/15/2023 9:30:00 PM 2.35 36.23 0.05 6.9 3.04 13.46
1/15/2023 9:45:00 PM 2.31 36.158 0.05 6.89 2.93 13.47
1/15/2023 10:00:00 PM 2.27 36.086 0.05 6.88 2.98 13.49
1/15/2023 10:15:00 PM 2.24 36.032 0.05 6.89 2.94 13.49
1/15/2023 10:30:00 PM 2.2 35.96 0.05 6.87 2.98 13.51
1/15/2023 10:45:00 PM 2.16 35.888 0.051 6.84 2.94 13.53
1/15/2023 11:00:00 PM 2.12 35.816 0.051 6.9 2.86 13.54
1/15/2023 11:15:00 PM 2.08 35.744 0.051 6.75 2.91 13.56
1/15/2023 11:30:00 PM 2.03 35.654 0.05 6.84 2.85 13.58
1/15/2023 11:45:00 PM 1.99 35.582 0.05 6.82 3.03 13.59
1/16/2023 12:00:00 AM 1.94 35.492 0.05 6.88 2.98 13.61
1/16/2023 12:15:00 AM 1.9 35.42 0.05 6.87 2.91 13.62
1/16/2023 12:30:00 AM 1.85 35.33 0.05 6.9 2.96 13.64
1/16/2023 12:45:00 AM 1.81 35.258 0.05 6.87 3 13.66
1/16/2023 1:00:00 AM 1.77 35.186 0.05 6.84 3 13.67
1/16/2023 1:15:00 AM 1.72 35.096 0.05 6.82 2.93 13.69
1/16/2023 1:30:00 AM 1.68 35.024 0.05 6.87 2.91 13.71
1/16/2023 1:45:00 AM 1.64 34.952 0.05 6.87 2.88 13.72
1/16/2023 2:00:00 AM 1.6 34.88 0.05 6.76 2.91 13.74
1/16/2023 2:15:00 AM 1.56 34.808 0.05 6.86 2.87 13.75
1/16/2023 2:30:00 AM 1.53 34.754 0.05 6.83 2.9 13.77
1/16/2023 2:45:00 AM 1.49 34.682 0.05 6.79 2.89 13.78
1/16/2023 3:00:00 AM 1.45 34.61 0.05 6.81 3.02 13.8
1/16/2023 3:15:00 AM 1.42 34.556 0.05 6.8 2.87 13.81
1/16/2023 3:30:00 AM 1.38 34.484 0.05 6.81 2.92 13.82
1/16/2023 3:45:00 AM 1.35 34.43 0.05 6.79 2.94 13.84
1/16/2023 4:00:00 AM 1.31 34.358 0.05 6.74 2.85 13.85
1/16/2023 4:15:00 AM 1.28 34.304 0.05 6.79 2.87 13.87
1/16/2023 4:30:00 AM 1.25 34.25 0.05 6.8 2.86 13.88
1/16/2023 4:45:00 AM 1.21 34.178 0.05 6.79 3.01 13.89
1/16/2023 5:00:00 AM 1.18 34.124 0.05 6.8 2.89 13.91
1/16/2023 5:15:00 AM 1.15 34.07 0.05 6.77 2.9 13.93
1/16/2023 5:30:00 AM 1.11 33.998 0.05 6.8 2.86 13.94
1/16/2023 5:45:00 AM 1.08 33.944 0.05 6.81 2.85 13.95
1/16/2023 6:00:00 AM 1.05 33.89 0.05 6.8 2.89 13.96
1/16/2023 6:15:00 AM 1.02 33.836 0.05 6.69 2.87 13.98
1/16/2023 6:30:00 AM 0.99 33.782 0.05 6.73 2.83 13.99
1/16/2023 6:45:00 AM 0.96 33.728 0.05 6.77 2.86 14
1/16/2023 7:00:00 AM 0.93 33.674 0.05 6.81 2.84 14.02
1/16/2023 7:15:00 AM 0.9 33.62 0.05 6.81 2.88 14.03
1/16/2023 7:30:00 AM 0.88 33.584 0.05 6.81 2.88 14.04
1/16/2023 7:45:00 AM 0.85 33.53 0.05 6.8 3.08 14.07
1/16/2023 8:00:00 AM 0.82 33.476 0.05 6.83 2.89 14.11
1/16/2023 8:15:00 AM 0.79 33.422 0.05 6.83 2.91 14.17
1/16/2023 8:30:00 AM 0.77 33.386 0.05 6.77 2.88 14.22
1/16/2023 8:45:00 AM 0.75 33.35 0.05 6.87 2.96 14.29
1/16/2023 9:00:00 AM 0.74 33.332 0.05 6.87 2.89